
Distance (Route):
Temperature : 0°C
Humidity : 0%
Pressure : 0hPa| Receiver | Date | Latitude | Longitude | Direction | Speed | Altitude | Climb | Temperature | Humidity | Pressure | Voltage | Killtimer | Uptime | BKT | XDATA |
|---|---|---|---|---|---|---|---|---|---|---|---|---|---|---|---|
| EA3GEO | 2026-09-03 00:47:14 | 41.08049 | 2.43288 | 157° | 5km/h | 125m | -7.2m/s | 0°C | 0% | 0hPa | 0V | 00:00:00 | 00:00:00 | 00:00:00 | |
| EA3GEO | 2026-09-03 00:47:08 | 41.08054 | 2.43280 | 144° | 5km/h | 170m | -10.2m/s | 0°C | 0% | 0hPa | 0V | 00:00:00 | 00:00:00 | 00:00:00 | |
| EA3GEO | 2026-09-03 00:47:02 | 41.08060 | 2.43270 | 117° | 7km/h | 221m | -9.0m/s | 0°C | 0% | 0hPa | 0V | 00:00:00 | 00:00:00 | 00:00:00 | |
| EA3GEO | 2026-09-03 00:46:56 | 41.08065 | 2.43260 | 143° | 7km/h | 276m | -8.3m/s | 0°C | 0% | 0hPa | 0V | 00:00:00 | 00:00:00 | 00:00:00 | |
| EA3GEO | 2026-09-03 00:46:52 | 41.08073 | 2.43253 | 127° | 2km/h | 317m | -7.7m/s | 0°C | 0% | 0hPa | 0V | 00:00:00 | 00:00:00 | 00:00:00 | |
| EA3GEO | 2026-09-03 00:46:46 | 41.08077 | 2.43247 | 141° | 4km/h | 359m | -7.3m/s | 0°C | 0% | 0hPa | 0V | 00:00:00 | 00:00:00 | 00:00:00 | |
| EA3GEO | 2026-09-03 00:46:40 | 41.08082 | 2.43243 | 113° | 2km/h | 412m | -8.2m/s | 0°C | 0% | 0hPa | 0V | 00:00:00 | 00:00:00 | 00:00:00 | |
| EA3GEO | 2026-09-03 00:46:33 | 41.08082 | 2.43241 | 315° | 5km/h | 473m | -8.8m/s | 0°C | 0% | 0hPa | 0V | 00:00:00 | 00:00:00 | 00:00:00 | |
| EA3GEO | 2026-09-03 00:46:28 | 41.08077 | 2.43246 | 15° | 4km/h | 514m | -7.4m/s | 0°C | 0% | 0hPa | 0V | 00:00:00 | 00:00:00 | 00:00:00 | |
| EA3GEO | 2026-09-03 00:46:22 | 41.08069 | 2.43255 | 307° | 11km/h | 562m | -9.7m/s | 0°C | 0% | 0hPa | 0V | 00:00:00 | 00:00:00 | 00:00:00 | |
| EA3GEO | 2026-09-03 00:46:16 | 41.08059 | 2.43270 | 299° | 15km/h | 619m | -8.1m/s | 0°C | 0% | 0hPa | 0V | 00:00:00 | 00:00:00 | 00:00:00 | |
| EA3GEO | 2026-09-03 00:46:11 | 41.08049 | 2.43293 | 296° | 18km/h | 661m | -9.3m/s | 0°C | 0% | 0hPa | 0V | 00:00:00 | 00:00:00 | 00:00:00 | |
| EA3GEO | 2026-09-03 00:46:05 | 41.08036 | 2.43325 | 303° | 20km/h | 710m | -8.8m/s | 0°C | 0% | 0hPa | 0V | 00:00:00 | 00:00:00 | 00:00:00 | |
| EA3GEO | 2026-09-03 00:46:00 | 41.08023 | 2.43357 | 295° | 26km/h | 754m | -8.5m/s | 0°C | 0% | 0hPa | 0V | 00:00:00 | 00:00:00 | 00:00:00 | |
| EA3GEO | 2026-09-03 00:45:54 | 41.08010 | 2.43403 | 291° | 26km/h | 803m | -10.3m/s | 0°C | 0% | 0hPa | 0V | 00:00:00 | 00:00:00 | 00:00:00 | |
| EA3GEO | 2026-09-03 00:45:48 | 41.07995 | 2.43447 | 292° | 24km/h | 854m | -6.1m/s | 0°C | 0% | 0hPa | 0V | 00:00:00 | 00:00:00 | 00:00:00 | |
| EA3GEO | 2026-09-03 00:45:43 | 41.07982 | 2.43484 | 294° | 27km/h | 896m | -8.5m/s | 0°C | 0% | 0hPa | 0V | 00:00:00 | 00:00:00 | 00:00:00 | |
| EA3GEO | 2026-09-03 00:45:37 | 41.07967 | 2.43532 | 298° | 24km/h | 948m | -8.1m/s | 0°C | 0% | 0hPa | 0V | 00:00:00 | 00:00:00 | 00:00:00 | |
| EA3GEO | 2026-09-03 00:45:30 | 41.07945 | 2.43583 | 300° | 22km/h | 1004m | -8.9m/s | 0°C | 0% | 0hPa | 0V | 00:00:00 | 00:00:00 | 00:00:00 | |
| EA3GEO | 2026-09-03 00:45:24 | 41.07925 | 2.43624 | 303° | 22km/h | 1056m | -6.0m/s | 0°C | 0% | 0hPa | 0V | 00:00:00 | 00:00:00 | 00:00:00 | |
| EA3GEO | 2026-09-03 00:45:15 | 41.07898 | 2.43673 | 326° | 24km/h | 1127m | -7.7m/s | 0°C | 0% | 0hPa | 0V | 00:00:00 | 00:00:00 | 00:00:00 | |
| EA3GEO | 2026-09-03 00:45:10 | 41.07881 | 2.43693 | 326° | 16km/h | 1172m | -6.8m/s | 0°C | 0% | 0hPa | 0V | 00:00:00 | 00:00:00 | 00:00:00 | |
| EA3GEO | 2026-09-03 00:45:04 | 41.07867 | 2.43714 | 316° | 13km/h | 1225m | -9.0m/s | 0°C | 0% | 0hPa | 0V | 00:00:00 | 00:00:00 | 00:00:00 | |
| EA3GEO | 2026-09-03 00:44:59 | 41.07856 | 2.43730 | 288° | 7km/h | 1262m | -6.9m/s | 0°C | 0% | 0hPa | 0V | 00:00:00 | 00:00:00 | 00:00:00 | |
| EA3GEO | 2026-09-03 00:44:51 | 41.07847 | 2.43739 | 315° | 2km/h | 1328m | -9.8m/s | 0°C | 0% | 0hPa | 0V | 00:00:00 | 00:00:00 | 00:00:00 | |
| EA3GEO | 2026-09-03 00:44:46 | 41.07843 | 2.43743 | 0° | 0km/h | 1374m | -8.5m/s | 0°C | 0% | 0hPa | 0V | 00:00:00 | 00:00:00 | 00:00:00 | |
| EA3IBE | 2026-09-03 00:44:45 | 41.07843 | 2.43743 | 353° | 7km/h | 1383m | -7.4m/s | 0°C | 0% | 0hPa | 0V | 00:00:00 | 00:00:00 | 00:00:00 | |
| EA3GEO | 2026-09-03 00:44:40 | 41.07841 | 2.43743 | 0° | 0km/h | 1421m | -9.4m/s | 0°C | 0% | 0hPa | 0V | 00:00:00 | 00:00:00 | 00:00:00 | |
| EA3IBE | 2026-09-03 00:44:39 | 41.07840 | 2.43742 | 30° | 4km/h | 1431m | -9.2m/s | 0°C | 0% | 0hPa | 0V | 00:00:00 | 00:00:00 | 00:00:00 | |
| EA3GEO | 2026-09-03 00:44:35 | 41.07840 | 2.43740 | 95° | 5km/h | 1466m | -5.6m/s | 0°C | 0% | 0hPa | 0V | 00:00:00 | 00:00:00 | 00:00:00 | |
| EA3IBE | 2026-09-03 00:44:33 | 41.07838 | 2.43736 | 56° | 2km/h | 1480m | -7.3m/s | 0°C | 0% | 0hPa | 0V | 00:00:00 | 00:00:00 | 00:00:00 | |
| EA3IBE | 2026-09-03 00:44:28 | 41.07838 | 2.43729 | 112° | 5km/h | 1523m | -8.6m/s | 0°C | 0% | 0hPa | 0V | 00:00:00 | 00:00:00 | 00:00:00 | |
| EA3IBE | 2026-09-03 00:44:23 | 41.07839 | 2.43718 | 124° | 7km/h | 1564m | -9.6m/s | 0°C | 0% | 0hPa | 0V | 00:00:00 | 00:00:00 | 00:00:00 | |
| EA3GEO | 2026-09-03 00:44:19 | 41.07842 | 2.43706 | 124° | 5km/h | 1597m | -8.8m/s | 0°C | 0% | 0hPa | 0V | 00:00:00 | 00:00:00 | 00:00:00 | |
| EA3IBE | 2026-09-03 00:44:17 | 41.07842 | 2.43702 | 148° | 11km/h | 1613m | -3.2m/s | 0°C | 0% | 0hPa | 0V | 00:00:00 | 00:00:00 | 00:00:00 | |
| EA3IBE | 2026-09-03 00:44:06 | 41.07855 | 2.43676 | 135° | 11km/h | 1704m | -8.0m/s | 0°C | 0% | 0hPa | 0V | 00:00:00 | 00:00:00 | 00:00:00 | |
| EA3IBE | 2026-09-03 00:44:00 | 41.07862 | 2.43658 | 112° | 11km/h | 1752m | -8.6m/s | 0°C | 0% | 0hPa | 0V | 00:00:00 | 00:00:00 | 00:00:00 | |
| EA3IBE | 2026-09-03 00:43:55 | 41.07870 | 2.43640 | 102° | 13km/h | 1796m | -8.3m/s | 0°C | 0% | 0hPa | 0V | 00:00:00 | 00:00:00 | 00:00:00 | |
| EA3IBE | 2026-09-03 00:43:49 | 41.07875 | 2.43613 | 106° | 16km/h | 1850m | -8.2m/s | 0°C | 0% | 0hPa | 0V | 00:00:00 | 00:00:00 | 00:00:00 | |
| EA3IBE | 2026-09-03 00:43:44 | 41.07878 | 2.43586 | 103° | 15km/h | 1892m | -8.5m/s | 0°C | 0% | 0hPa | 0V | 00:00:00 | 00:00:00 | 00:00:00 | |
| EA3IBE | 2026-09-03 00:43:38 | 41.07886 | 2.43552 | 98° | 22km/h | 1945m | -9.9m/s | 0°C | 0% | 0hPa | 0V | 00:00:00 | 00:00:00 | 00:00:00 | |
| EA3GEO | 2026-09-03 00:43:36 | 41.07886 | 2.43539 | 103° | 18km/h | 1962m | -7.8m/s | 0°C | 0% | 0hPa | 0V | 00:00:00 | 00:00:00 | 00:00:00 | |
| EA3IBE | 2026-09-03 00:43:32 | 41.07891 | 2.43511 | 102° | 24km/h | 1995m | -8.2m/s | 0°C | 0% | 0hPa | 0V | 00:00:00 | 00:00:00 | 00:00:00 | |
| EA3IBE | 2026-09-03 00:43:26 | 41.07897 | 2.43467 | 112° | 27km/h | 2050m | -7.6m/s | 0°C | 0% | 0hPa | 0V | 00:00:00 | 00:00:00 | 00:00:00 | |
| EA3IBE | 2026-09-03 00:43:21 | 41.07905 | 2.43425 | 112° | 27km/h | 2091m | -6.3m/s | 0°C | 0% | 0hPa | 0V | 00:00:00 | 00:00:00 | 00:00:00 | |
| EA3IBE | 2026-09-03 00:43:15 | 41.07920 | 2.43372 | 115° | 26km/h | 2136m | -9.5m/s | 0°C | 0% | 0hPa | 0V | 00:00:00 | 00:00:00 | 00:00:00 | |
| EA3IBE | 2026-09-03 00:43:10 | 41.07933 | 2.43330 | 106° | 26km/h | 2180m | -11.2m/s | 0°C | 0% | 0hPa | 0V | 00:00:00 | 00:00:00 | 00:00:00 | |
| EA3IBE | 2026-09-03 00:43:05 | 41.07946 | 2.43287 | 113° | 26km/h | 2227m | -9.0m/s | 0°C | 0% | 0hPa | 0V | 00:00:00 | 00:00:00 | 00:00:00 | |
| EA3IBE | 2026-09-03 00:42:59 | 41.07965 | 2.43242 | 123° | 24km/h | 2278m | -10.6m/s | 0°C | 0% | 0hPa | 0V | 00:00:00 | 00:00:00 | 00:00:00 | |
| EA3IBE | 2026-09-03 00:42:54 | 41.07979 | 2.43204 | 124° | 26km/h | 2323m | -9.6m/s | 0°C | 0% | 0hPa | 0V | 00:00:00 | 00:00:00 | 00:00:00 | |
| EA3GEO | 2026-09-03 00:42:50 | 41.07993 | 2.43173 | 126° | 26km/h | 2361m | -8.5m/s | 0°C | 0% | 0hPa | 0V | 00:00:00 | 00:00:00 | 00:00:00 | |
| EA3IBE | 2026-09-03 00:42:48 | 41.08000 | 2.43158 | 120° | 24km/h | 2377m | -7.6m/s | 0°C | 0% | 0hPa | 0V | 00:00:00 | 00:00:00 | 00:00:00 | |
| EA3IBE | 2026-09-03 00:42:43 | 41.08016 | 2.43119 | 121° | 24km/h | 2420m | -9.1m/s | 0°C | 0% | 0hPa | 0V | 00:00:00 | 00:00:00 | 00:00:00 | |
| EA3IBE | 2026-09-03 00:42:38 | 41.08036 | 2.43080 | 130° | 29km/h | 2467m | -7.5m/s | 0°C | 0% | 0hPa | 0V | 00:00:00 | 00:00:00 | 00:00:00 | |
| EA3IBE | 2026-09-03 00:42:32 | 41.08060 | 2.43033 | 130° | 33km/h | 2520m | -6.9m/s | 0°C | 0% | 0hPa | 0V | 00:00:00 | 00:00:00 | 00:00:00 | |
| EA3IBE | 2026-09-03 00:42:27 | 41.08084 | 2.42993 | 135° | 33km/h | 2559m | -7.4m/s | 0°C | 0% | 0hPa | 0V | 00:00:00 | 00:00:00 | 00:00:00 | |
| EA3IBE | 2026-09-03 00:42:21 | 41.08117 | 2.42942 | 130° | 35km/h | 2606m | -6.9m/s | 0°C | 0% | 0hPa | 0V | 00:00:00 | 00:00:00 | 00:00:00 | |
| EA3IBE | 2026-09-03 00:42:16 | 41.08142 | 2.42901 | 127° | 31km/h | 2648m | -9.0m/s | 0°C | 0% | 0hPa | 0V | 00:00:00 | 00:00:00 | 00:00:00 | |
| EA3IBE | 2026-09-03 00:42:10 | 41.08171 | 2.42850 | 130° | 35km/h | 2703m | -8.9m/s | 0°C | 0% | 0hPa | 0V | 00:00:00 | 00:00:00 | 00:00:00 | |
| EA3IBE | 2026-09-03 00:42:05 | 41.08195 | 2.42802 | 121° | 35km/h | 2741m | -8.6m/s | 0°C | 0% | 0hPa | 0V | 00:00:00 | 00:00:00 | 00:00:00 | |
| EA3IBE | 2026-09-03 00:41:59 | 41.08225 | 2.42741 | 118° | 35km/h | 2793m | -7.6m/s | 0°C | 0% | 0hPa | 0V | 00:00:00 | 00:00:00 | 00:00:00 | |
| EA3IBE | 2026-09-03 00:41:54 | 41.08248 | 2.42685 | 123° | 40km/h | 2831m | -8.0m/s | 0°C | 0% | 0hPa | 0V | 00:00:00 | 00:00:00 | 00:00:00 | |
| EA3IBE | 2026-09-03 00:41:49 | 41.08272 | 2.42629 | 124° | 42km/h | 2875m | -6.8m/s | 0°C | 0% | 0hPa | 0V | 00:00:00 | 00:00:00 | 00:00:00 | |
| EA3IBE | 2026-09-03 00:41:43 | 41.08306 | 2.42554 | 122° | 42km/h | 2924m | -7.3m/s | 0°C | 0% | 0hPa | 0V | 00:00:00 | 00:00:00 | 00:00:00 | |
| EA3IBE | 2026-09-03 00:41:38 | 41.08332 | 2.42489 | 119° | 44km/h | 2964m | -7.9m/s | 0°C | 0% | 0hPa | 0V | 00:00:00 | 00:00:00 | 00:00:00 | |
| EA3IBE | 2026-09-03 00:41:32 | 41.08359 | 2.42409 | 113° | 42km/h | 3019m | -8.5m/s | 0°C | 0% | 0hPa | 0V | 00:00:00 | 00:00:00 | 00:00:00 | |
| EA3IBE | 2026-09-03 00:41:28 | 41.08380 | 2.42342 | 108° | 42km/h | 3060m | -7.8m/s | 0°C | 0% | 0hPa | 0V | 00:00:00 | 00:00:00 | 00:00:00 | |
| EA3IBE | 2026-09-03 00:41:21 | 41.08404 | 2.42260 | 114° | 42km/h | 3108m | -9.2m/s | 0°C | 0% | 0hPa | 0V | 00:00:00 | 00:00:00 | 00:00:00 | |
| EA3IBE | 2026-09-03 00:41:16 | 41.08421 | 2.42190 | 110° | 42km/h | 3150m | -8.6m/s | 0°C | 0% | 0hPa | 0V | 00:00:00 | 00:00:00 | 00:00:00 | |
| EA3IBE | 2026-09-03 00:41:10 | 41.08443 | 2.42106 | 108° | 44km/h | 3205m | -8.4m/s | 0°C | 0% | 0hPa | 0V | 00:00:00 | 00:00:00 | 00:00:00 | |
| EA3IBE | 2026-09-03 00:41:05 | 41.08460 | 2.42038 | 111° | 42km/h | 3246m | -6.2m/s | 0°C | 0% | 0hPa | 0V | 00:00:00 | 00:00:00 | 00:00:00 | |
| EA3IBE | 2026-09-03 00:40:59 | 41.08482 | 2.41954 | 108° | 42km/h | 3297m | -9.0m/s | 0°C | 0% | 0hPa | 0V | 00:00:00 | 00:00:00 | 00:00:00 | |
| EA3IBE | 2026-09-03 00:40:54 | 41.08499 | 2.41887 | 112° | 46km/h | 3338m | -6.6m/s | 0°C | 0% | 0hPa | 0V | 00:00:00 | 00:00:00 | 00:00:00 | |
| EA3IBE | 2026-09-03 00:40:48 | 41.08524 | 2.41803 | 112° | 47km/h | 3386m | -8.7m/s | 0°C | 0% | 0hPa | 0V | 00:00:00 | 00:00:00 | 00:00:00 | |
| EA3IBE | 2026-09-03 00:40:43 | 41.08541 | 2.41733 | 112° | 44km/h | 3429m | -9.9m/s | 0°C | 0% | 0hPa | 0V | 00:00:00 | 00:00:00 | 00:00:00 | |
| EA3IBE | 2026-09-03 00:40:37 | 41.08565 | 2.41651 | 113° | 46km/h | 3480m | -10.9m/s | 0°C | 0% | 0hPa | 0V | 00:00:00 | 00:00:00 | 00:00:00 | |
| EA3IBE | 2026-09-03 00:40:32 | 41.08587 | 2.41581 | 115° | 47km/h | 3525m | -7.6m/s | 0°C | 0% | 0hPa | 0V | 00:00:00 | 00:00:00 | 00:00:00 | |
| EA3IBE | 2026-09-03 00:40:26 | 41.08614 | 2.41494 | 115° | 46km/h | 3576m | -4.6m/s | 0°C | 0% | 0hPa | 0V | 00:00:00 | 00:00:00 | 00:00:00 | |
| EA3IBE | 2026-09-03 00:40:21 | 41.08638 | 2.41419 | 112° | 47km/h | 3613m | -9.5m/s | 0°C | 0% | 0hPa | 0V | 00:00:00 | 00:00:00 | 00:00:00 | |
| EA3IBE | 2026-09-03 00:40:15 | 41.08669 | 2.41329 | 118° | 51km/h | 3666m | -7.8m/s | 0°C | 0% | 0hPa | 0V | 00:00:00 | 00:00:00 | 00:00:00 | |
| EA3IBE | 2026-09-03 00:40:09 | 41.08706 | 2.41242 | 122° | 49km/h | 3717m | -8.6m/s | 0°C | 0% | 0hPa | 0V | 00:00:00 | 00:00:00 | 00:00:00 | |
| EA3IBE | 2026-09-03 00:40:04 | 41.08738 | 2.41170 | 121° | 47km/h | 3758m | -8.4m/s | 0°C | 0% | 0hPa | 0V | 00:00:00 | 00:00:00 | 00:00:00 | |
| EA3IBE | 2026-09-03 00:39:58 | 41.08773 | 2.41086 | 118° | 49km/h | 3802m | -7.9m/s | 0°C | 0% | 0hPa | 0V | 00:00:00 | 00:00:00 | 00:00:00 | |
| EA3IBE | 2026-09-03 00:39:53 | 41.08799 | 2.41014 | 115° | 44km/h | 3839m | -11.6m/s | 0°C | 0% | 0hPa | 0V | 00:00:00 | 00:00:00 | 00:00:00 | |
| EA3IBE | 2026-09-03 00:39:47 | 41.08827 | 2.40933 | 114° | 46km/h | 3895m | -10.5m/s | 0°C | 0% | 0hPa | 0V | 00:00:00 | 00:00:00 | 00:00:00 | |
| EA3IBE | 2026-09-03 00:39:42 | 41.08850 | 2.40862 | 116° | 44km/h | 3940m | -8.2m/s | 0°C | 0% | 0hPa | 0V | 00:00:00 | 00:00:00 | 00:00:00 | |
| EA3IBE | 2026-09-03 00:39:36 | 41.08879 | 2.40784 | 119° | 47km/h | 3986m | -8.3m/s | 0°C | 0% | 0hPa | 0V | 00:00:00 | 00:00:00 | 00:00:00 | |
| EA3IBE | 2026-09-03 00:39:31 | 41.08904 | 2.40718 | 117° | 44km/h | 4029m | -8.9m/s | 0°C | 0% | 0hPa | 0V | 00:00:00 | 00:00:00 | 00:00:00 | |
| EA3IBE | 2026-09-03 00:39:26 | 41.08928 | 2.40653 | 120° | 42km/h | 4070m | -6.5m/s | 0°C | 0% | 0hPa | 0V | 00:00:00 | 00:00:00 | 00:00:00 | |
| EA3IBE | 2026-09-03 00:39:20 | 41.08958 | 2.40581 | 122° | 38km/h | 4120m | -8.5m/s | 0°C | 0% | 0hPa | 0V | 00:00:00 | 00:00:00 | 00:00:00 | |
| EA3IBE | 2026-09-03 00:39:14 | 41.08984 | 2.40509 | 119° | 42km/h | 4165m | -8.6m/s | 0°C | 0% | 0hPa | 0V | 00:00:00 | 00:00:00 | 00:00:00 | |
| EA3IBE | 2026-09-03 00:39:08 | 41.09012 | 2.40436 | 114° | 42km/h | 4222m | -9.9m/s | 0°C | 0% | 0hPa | 0V | 00:00:00 | 00:00:00 | 00:00:00 | |
| EA3IBE | 2026-09-03 00:39:02 | 41.09036 | 2.40362 | 113° | 38km/h | 4275m | -6.5m/s | 0°C | 0% | 0hPa | 0V | 00:00:00 | 00:00:00 | 00:00:00 | |
| EA3IBE | 2026-09-03 00:38:57 | 41.09058 | 2.40301 | 122° | 40km/h | 4318m | -7.6m/s | 0°C | 0% | 0hPa | 0V | 00:00:00 | 00:00:00 | 00:00:00 | |
| EA3IBE | 2026-09-03 00:38:51 | 41.09082 | 2.40232 | 113° | 35km/h | 4365m | -8.6m/s | 0°C | 0% | 0hPa | 0V | 00:00:00 | 00:00:00 | 00:00:00 | |
| EA3IBE | 2026-09-03 00:38:46 | 41.09101 | 2.40179 | 118° | 35km/h | 4405m | -6.8m/s | 0°C | 0% | 0hPa | 0V | 00:00:00 | 00:00:00 | 00:00:00 | |
| EA3IBE | 2026-09-03 00:38:40 | 41.09125 | 2.40119 | 122° | 35km/h | 4457m | -7.9m/s | 0°C | 0% | 0hPa | 0V | 00:00:00 | 00:00:00 | 00:00:00 | |
| EA3IBE | 2026-09-03 00:38:35 | 41.09145 | 2.40069 | 121° | 37km/h | 4501m | -8.8m/s | 0°C | 0% | 0hPa | 0V | 00:00:00 | 00:00:00 | 00:00:00 | |
| EA3IBE | 2026-09-03 00:38:24 | 41.09197 | 2.39966 | 128° | 31km/h | 4596m | -8.2m/s | 0°C | 0% | 0hPa | 0V | 00:00:00 | 00:00:00 | 00:00:00 | |
| EA3IBE | 2026-09-03 00:38:20 | 41.09227 | 2.39917 | 130° | 33km/h | 4645m | -7.6m/s | 0°C | 0% | 0hPa | 0V | 00:00:00 | 00:00:00 | 00:00:00 | |
| EA3IBE | 2026-09-03 00:38:12 | 41.09257 | 2.39874 | 137° | 27km/h | 4700m | -8.7m/s | 0°C | 0% | 0hPa | 0V | 00:00:00 | 00:00:00 | 00:00:00 | |
| EA3IBE | 2026-09-03 00:38:06 | 41.09286 | 2.39835 | 133° | 26km/h | 4751m | -6.9m/s | 0°C | 0% | 0hPa | 0V | 00:00:00 | 00:00:00 | 00:00:00 | |
| EA3GEO | 2026-09-03 00:37:15 | 41.09419 | 2.39482 | 105° | 27km/h | 5190m | -8.5m/s | 0°C | 0% | 0hPa | 0V | 00:00:00 | 00:00:00 | 00:00:00 | |
| EA3GEO | 2026-09-03 00:37:06 | 41.09437 | 2.39414 | 121° | 24km/h | 5268m | -8.1m/s | 0°C | 0% | 0hPa | 0V | 00:00:00 | 00:00:00 | 00:00:00 | |
| EA3GEO | 2026-09-03 00:36:54 | 41.09471 | 2.39351 | 139° | 18km/h | 5373m | -7.6m/s | 0°C | 0% | 0hPa | 0V | 00:00:00 | 00:00:00 | 00:00:00 | |
| EA3GEO | 2026-09-03 00:36:39 | 41.09509 | 2.39294 | 124° | 16km/h | 5510m | -7.0m/s | 0°C | 0% | 0hPa | 0V | 00:00:00 | 00:00:00 | 00:00:00 | |
| EA3GEO | 2026-09-03 00:36:34 | 41.09522 | 2.39269 | 130° | 18km/h | 5559m | -7.0m/s | 0°C | 0% | 0hPa | 0V | 00:00:00 | 00:00:00 | 00:00:00 | |
| EA3GEO | 2026-09-03 00:36:24 | 41.09549 | 2.39221 | 126° | 22km/h | 5636m | -8.1m/s | 0°C | 0% | 0hPa | 0V | 00:00:00 | 00:00:00 | 00:00:00 | |
| EA3GEO | 2026-09-03 00:36:15 | 41.09575 | 2.39165 | 122° | 26km/h | 5712m | -7.2m/s | 0°C | 0% | 0hPa | 0V | 00:00:00 | 00:00:00 | 00:00:00 | |
| EA3GEO | 2026-09-03 00:36:07 | 41.09597 | 2.39112 | 123° | 24km/h | 5778m | -7.7m/s | 0°C | 0% | 0hPa | 0V | 00:00:00 | 00:00:00 | 00:00:00 | |
| EA3GEO | 2026-09-03 00:36:02 | 41.09611 | 2.39078 | 114° | 22km/h | 5821m | -8.2m/s | 0°C | 0% | 0hPa | 0V | 00:00:00 | 00:00:00 | 00:00:00 | |
| EA3GEO | 2026-09-03 00:35:55 | 41.09630 | 2.39029 | 119° | 22km/h | 5882m | -7.5m/s | 0°C | 0% | 0hPa | 0V | 00:00:00 | 00:00:00 | 00:00:00 | |
| EA3GEO | 2026-09-03 00:35:38 | 41.09679 | 2.38914 | 126° | 24km/h | 6030m | -8.8m/s | 0°C | 0% | 0hPa | 0V | 00:00:00 | 00:00:00 | 00:00:00 | |
| EA3GEO | 2026-09-03 00:35:31 | 41.09703 | 2.38867 | 128° | 22km/h | 6091m | -7.4m/s | 0°C | 0% | 0hPa | 0V | 00:00:00 | 00:00:00 | 00:00:00 | |
| EA3GEO | 2026-09-03 00:35:25 | 41.09727 | 2.38823 | 124° | 24km/h | 6140m | -9.2m/s | 0°C | 0% | 0hPa | 0V | 00:00:00 | 00:00:00 | 00:00:00 | |
| EA3GEO | 2026-09-03 00:35:19 | 41.09751 | 2.38780 | 131° | 26km/h | 6191m | -8.3m/s | 0°C | 0% | 0hPa | 0V | 00:00:00 | 00:00:00 | 00:00:00 | |
| EA3GEO | 2026-09-03 00:35:12 | 41.09780 | 2.38730 | 132° | 27km/h | 6257m | -7.8m/s | 0°C | 0% | 0hPa | 0V | 00:00:00 | 00:00:00 | 00:00:00 | |
| EA3GEO | 2026-09-03 00:35:07 | 41.09802 | 2.38695 | 132° | 27km/h | 6302m | -8.7m/s | 0°C | 0% | 0hPa | 0V | 00:00:00 | 00:00:00 | 00:00:00 | |
| EA3GEO | 2026-09-03 00:35:01 | 41.09829 | 2.38647 | 132° | 31km/h | 6355m | -9.3m/s | 0°C | 0% | 0hPa | 0V | 00:00:00 | 00:00:00 | 00:00:00 | |
| EA3GEO | 2026-09-03 00:34:55 | 41.09857 | 2.38598 | 124° | 31km/h | 6408m | -8.6m/s | 0°C | 0% | 0hPa | 0V | 00:00:00 | 00:00:00 | 00:00:00 | |
| EA3GEO | 2026-09-03 00:34:50 | 41.09879 | 2.38554 | 125° | 31km/h | 6456m | -9.7m/s | 0°C | 0% | 0hPa | 0V | 00:00:00 | 00:00:00 | 00:00:00 | |
| EA3GEO | 2026-09-03 00:34:45 | 41.09897 | 2.38507 | 118° | 33km/h | 6500m | -8.3m/s | 0°C | 0% | 0hPa | 0V | 00:00:00 | 00:00:00 | 00:00:00 | |
| EA3GEO | 2026-09-03 00:34:39 | 41.09919 | 2.38447 | 115° | 33km/h | 6556m | -7.7m/s | 0°C | 0% | 0hPa | 0V | 00:00:00 | 00:00:00 | 00:00:00 | |
| EA3GEO | 2026-09-03 00:34:34 | 41.09935 | 2.38396 | 116° | 33km/h | 6600m | -8.4m/s | 0°C | 0% | 0hPa | 0V | 00:00:00 | 00:00:00 | 00:00:00 | |
| EA3GEO | 2026-09-03 00:34:28 | 41.09956 | 2.38336 | 121° | 33km/h | 6657m | -11.0m/s | 0°C | 0% | 0hPa | 0V | 00:00:00 | 00:00:00 | 00:00:00 | |
| EA3GEO | 2026-09-03 00:34:22 | 41.09978 | 2.38273 | 120° | 35km/h | 6713m | -10.5m/s | 0°C | 0% | 0hPa | 0V | 00:00:00 | 00:00:00 | 00:00:00 | |
| EA3GEO | 2026-09-03 00:34:16 | 41.10004 | 2.38209 | 120° | 35km/h | 6773m | -9.1m/s | 0°C | 0% | 0hPa | 0V | 00:00:00 | 00:00:00 | 00:00:00 | |
| EA3GEO | 2026-09-03 00:34:11 | 41.10029 | 2.38152 | 118° | 38km/h | 6821m | -8.0m/s | 0°C | 0% | 0hPa | 0V | 00:00:00 | 00:00:00 | 00:00:00 | |
| EA3GEO | 2026-09-03 00:34:05 | 41.10053 | 2.38086 | 121° | 37km/h | 6874m | -8.4m/s | 0°C | 0% | 0hPa | 0V | 00:00:00 | 00:00:00 | 00:00:00 | |
| EA3GEO | 2026-09-03 00:33:59 | 41.10078 | 2.38025 | 119° | 35km/h | 6929m | -9.7m/s | 0°C | 0% | 0hPa | 0V | 00:00:00 | 00:00:00 | 00:00:00 | |
| EA3GEO | 2026-09-03 00:33:53 | 41.10099 | 2.37965 | 123° | 31km/h | 6988m | -11.5m/s | 0°C | 0% | 0hPa | 0V | 00:00:00 | 00:00:00 | 00:00:00 | |
| EA3GEO | 2026-09-03 00:33:48 | 41.10118 | 2.37917 | 114° | 29km/h | 7036m | -10.1m/s | 0°C | 0% | 0hPa | 0V | 00:00:00 | 00:00:00 | 00:00:00 | |
| EA3GEO | 2026-09-03 00:33:42 | 41.10138 | 2.37858 | 118° | 33km/h | 7093m | -8.9m/s | 0°C | 0% | 0hPa | 0V | 00:00:00 | 00:00:00 | 00:00:00 | |
| EA3GEO | 2026-09-03 00:33:38 | 41.10159 | 2.37810 | 127° | 35km/h | 7139m | -10.7m/s | 0°C | 0% | 0hPa | 0V | 00:00:00 | 00:00:00 | 00:00:00 | |
| EA3GEO | 2026-09-03 00:33:32 | 41.10184 | 2.37759 | 127° | 40km/h | 7185m | -9.9m/s | 0°C | 0% | 0hPa | 0V | 00:00:00 | 00:00:00 | 00:00:00 | |
| EA3GEO | 2026-09-03 00:33:26 | 41.10219 | 2.37697 | 133° | 37km/h | 7244m | -11.8m/s | 0°C | 0% | 0hPa | 0V | 00:00:00 | 00:00:00 | 00:00:00 | |
| EA3GEO | 2026-09-03 00:33:21 | 41.10253 | 2.37648 | 138° | 44km/h | 7294m | -11.8m/s | 0°C | 0% | 0hPa | 0V | 00:00:00 | 00:00:00 | 00:00:00 | |
| EA3GEO | 2026-09-03 00:33:15 | 41.10297 | 2.37588 | 136° | 40km/h | 7349m | -8.6m/s | 0°C | 0% | 0hPa | 0V | 00:00:00 | 00:00:00 | 00:00:00 | |
| EA3GEO | 2026-09-03 00:33:09 | 41.10340 | 2.37531 | 138° | 38km/h | 7402m | -9.3m/s | 0°C | 0% | 0hPa | 0V | 00:00:00 | 00:00:00 | 00:00:00 | |
| EA3GEO | 2026-09-03 00:33:03 | 41.10382 | 2.37476 | 141° | 38km/h | 7459m | -9.5m/s | 0°C | 0% | 0hPa | 0V | 00:00:00 | 00:00:00 | 00:00:00 | |
| EA3GEO | 2026-09-03 00:32:58 | 41.10421 | 2.37432 | 142° | 38km/h | 7507m | -9.1m/s | 0°C | 0% | 0hPa | 0V | 00:00:00 | 00:00:00 | 00:00:00 | |
| EA3GEO | 2026-09-03 00:32:52 | 41.10464 | 2.37377 | 136° | 42km/h | 7559m | -9.7m/s | 0°C | 0% | 0hPa | 0V | 00:00:00 | 00:00:00 | 00:00:00 | |
| EA3GEO | 2026-09-03 00:32:46 | 41.10508 | 2.37325 | 139° | 38km/h | 7618m | -9.3m/s | 0°C | 0% | 0hPa | 0V | 00:00:00 | 00:00:00 | 00:00:00 | |
| EA3GEO | 2026-09-03 00:32:41 | 41.10545 | 2.37282 | 141° | 38km/h | 7662m | -9.5m/s | 0°C | 0% | 0hPa | 0V | 00:00:00 | 00:00:00 | 00:00:00 | |
| EA3GEO | 2026-09-03 00:32:35 | 41.10586 | 2.37234 | 134° | 35km/h | 7723m | -10.0m/s | 0°C | 0% | 0hPa | 0V | 00:00:00 | 00:00:00 | 00:00:00 | |
| EA3GEO | 2026-09-03 00:32:29 | 41.10627 | 2.37186 | 132° | 38km/h | 7777m | -7.9m/s | 0°C | 0% | 0hPa | 0V | 00:00:00 | 00:00:00 | 00:00:00 | |
| EA3GEO | 2026-09-03 00:32:24 | 41.10660 | 2.37143 | 134° | 37km/h | 7826m | -8.4m/s | 0°C | 0% | 0hPa | 0V | 00:00:00 | 00:00:00 | 00:00:00 | |
| EA3GEO | 2026-09-03 00:32:19 | 41.10691 | 2.37098 | 134° | 38km/h | 7874m | -9.5m/s | 0°C | 0% | 0hPa | 0V | 00:00:00 | 00:00:00 | 00:00:00 | |
| EA3GEO | 2026-09-03 00:32:13 | 41.10732 | 2.37043 | 140° | 42km/h | 7924m | -9.5m/s | 0°C | 0% | 0hPa | 0V | 00:00:00 | 00:00:00 | 00:00:00 | |
| EA3GEO | 2026-09-03 00:32:07 | 41.10780 | 2.36991 | 141° | 40km/h | 7976m | -7.9m/s | 0°C | 0% | 0hPa | 0V | 00:00:00 | 00:00:00 | 00:00:00 | |
| EA3GEO | 2026-09-03 00:32:02 | 41.10819 | 2.36950 | 149° | 40km/h | 8021m | -8.2m/s | 0°C | 0% | 0hPa | 0V | 00:00:00 | 00:00:00 | 00:00:00 | |
| EA3GEO | 2026-09-03 00:31:56 | 41.10870 | 2.36904 | 141° | 37km/h | 8070m | -8.2m/s | 0°C | 0% | 0hPa | 0V | 00:00:00 | 00:00:00 | 00:00:00 | |
| EA3GEO | 2026-09-03 00:31:50 | 41.10918 | 2.36857 | 147° | 38km/h | 8119m | -8.7m/s | 0°C | 0% | 0hPa | 0V | 00:00:00 | 00:00:00 | 00:00:00 | |
| EA3GEO | 2026-09-03 00:31:45 | 41.10958 | 2.36820 | 150° | 38km/h | 8162m | -8.8m/s | 0°C | 0% | 0hPa | 0V | 00:00:00 | 00:00:00 | 00:00:00 | |
| EA3GEO | 2026-09-03 00:31:37 | 41.11019 | 2.36760 | 144° | 40km/h | 8236m | -8.9m/s | 0°C | 0% | 0hPa | 0V | 00:00:00 | 00:00:00 | 00:00:00 | |
| EA3GEO | 2026-09-03 00:31:26 | 41.11101 | 2.36680 | 147° | 31km/h | 8328m | -7.2m/s | 0°C | 0% | 0hPa | 0V | 00:00:00 | 00:00:00 | 00:00:00 | |
| EA3GEO | 2026-09-03 00:31:20 | 41.11148 | 2.36645 | 152° | 37km/h | 8383m | -8.6m/s | 0°C | 0% | 0hPa | 0V | 00:00:00 | 00:00:00 | 00:00:00 | |
| EA3GEO | 2026-09-03 00:31:15 | 41.11190 | 2.36620 | 159° | 37km/h | 8429m | -6.9m/s | 0°C | 0% | 0hPa | 0V | 00:00:00 | 00:00:00 | 00:00:00 | |
| EA3GEO | 2026-09-03 00:31:09 | 41.11244 | 2.36595 | 160° | 37km/h | 8481m | -7.2m/s | 0°C | 0% | 0hPa | 0V | 00:00:00 | 00:00:00 | 00:00:00 | |
| EA3GEO | 2026-09-03 00:31:04 | 41.11289 | 2.36573 | 163° | 40km/h | 8524m | -9.3m/s | 0°C | 0% | 0hPa | 0V | 00:00:00 | 00:00:00 | 00:00:00 | |
| EA3GEO | 2026-09-03 00:30:58 | 41.11343 | 2.36551 | 162° | 37km/h | 8577m | -7.8m/s | 0°C | 0% | 0hPa | 0V | 00:00:00 | 00:00:00 | 00:00:00 | |
| EA3GEO | 2026-09-03 00:30:52 | 41.11396 | 2.36530 | 170° | 37km/h | 8630m | -8.1m/s | 0°C | 0% | 0hPa | 0V | 00:00:00 | 00:00:00 | 00:00:00 | |
| EA3GEO | 2026-09-03 00:30:46 | 41.11448 | 2.36512 | 169° | 37km/h | 8682m | -8.5m/s | 0°C | 0% | 0hPa | 0V | 00:00:00 | 00:00:00 | 00:00:00 | |
| EA3GEO | 2026-09-03 00:30:40 | 41.11498 | 2.36499 | 170° | 35km/h | 8735m | -6.7m/s | 0°C | 0% | 0hPa | 0V | 00:00:00 | 00:00:00 | 00:00:00 | |
| EA3GEO | 2026-09-03 00:30:34 | 41.11549 | 2.36488 | 173° | 35km/h | 8786m | -8.1m/s | 0°C | 0% | 0hPa | 0V | 00:00:00 | 00:00:00 | 00:00:00 | |
| EA3GEO | 2026-09-03 00:30:29 | 41.11593 | 2.36480 | 180° | 35km/h | 8826m | -9.6m/s | 0°C | 0% | 0hPa | 0V | 00:00:00 | 00:00:00 | 00:00:00 | |
| EA3GEO | 2026-09-03 00:30:23 | 41.11643 | 2.36473 | 182° | 35km/h | 8882m | -10.9m/s | 0°C | 0% | 0hPa | 0V | 00:00:00 | 00:00:00 | 00:00:00 | |
| EA3GEO | 2026-09-03 00:30:17 | 41.11693 | 2.36468 | 171° | 33km/h | 8938m | -7.3m/s | 0°C | 0% | 0hPa | 0V | 00:00:00 | 00:00:00 | 00:00:00 | |
| EA3GEO | 2026-09-03 00:30:11 | 41.11744 | 2.36457 | 178° | 33km/h | 8984m | -8.9m/s | 0°C | 0% | 0hPa | 0V | 00:00:00 | 00:00:00 | 00:00:00 | |
| EA3GEO | 2026-09-03 00:30:05 | 41.11792 | 2.36448 | 177° | 31km/h | 9037m | -9.6m/s | 0°C | 0% | 0hPa | 0V | 00:00:00 | 00:00:00 | 00:00:00 | |
| EA3GEO | 2026-09-03 00:30:00 | 41.11831 | 2.36441 | 176° | 31km/h | 9082m | -8.7m/s | 0°C | 0% | 0hPa | 0V | 00:00:00 | 00:00:00 | 00:00:00 | |
| EA3GEO | 2026-09-03 00:29:54 | 41.11878 | 2.36433 | 167° | 31km/h | 9136m | -7.4m/s | 0°C | 0% | 0hPa | 0V | 00:00:00 | 00:00:00 | 00:00:00 | |
| EA3GEO | 2026-09-03 00:29:48 | 41.11923 | 2.36423 | 170° | 27km/h | 9192m | -9.0m/s | 0°C | 0% | 0hPa | 0V | 00:00:00 | 00:00:00 | 00:00:00 | |
| EA3GEO | 2026-09-03 00:29:43 | 41.11961 | 2.36414 | 171° | 33km/h | 9236m | -8.4m/s | 0°C | 0% | 0hPa | 0V | 00:00:00 | 00:00:00 | 00:00:00 | |
| EA3GEO | 2026-09-03 00:29:37 | 41.12009 | 2.36403 | 171° | 33km/h | 9289m | -7.9m/s | 0°C | 0% | 0hPa | 0V | 00:00:00 | 00:00:00 | 00:00:00 | |
| EA3GEO | 2026-09-03 00:29:32 | 41.12049 | 2.36396 | 173° | 35km/h | 9333m | -8.8m/s | 0°C | 0% | 0hPa | 0V | 00:00:00 | 00:00:00 | 00:00:00 | |
| EA3GEO | 2026-09-03 00:29:26 | 41.12100 | 2.36382 | 172° | 37km/h | 9386m | -9.7m/s | 0°C | 0% | 0hPa | 0V | 00:00:00 | 00:00:00 | 00:00:00 | |
| EA3GEO | 2026-09-03 00:29:20 | 41.12152 | 2.36370 | 169° | 33km/h | 9446m | -8.6m/s | 0°C | 0% | 0hPa | 0V | 00:00:00 | 00:00:00 | 00:00:00 | |
| EA3GEO | 2026-09-03 00:29:15 | 41.12195 | 2.36359 | 168° | 35km/h | 9491m | -9.6m/s | 0°C | 0% | 0hPa | 0V | 00:00:00 | 00:00:00 | 00:00:00 | |
| EA3GEO | 2026-09-03 00:29:09 | 41.12245 | 2.36343 | 165° | 31km/h | 9546m | -8.1m/s | 0°C | 0% | 0hPa | 0V | 00:00:00 | 00:00:00 | 00:00:00 | |
| EA3GEO | 2026-09-03 00:29:03 | 41.12295 | 2.36329 | 167° | 31km/h | 9599m | -7.2m/s | 0°C | 0% | 0hPa | 0V | 00:00:00 | 00:00:00 | 00:00:00 | |
| EA3GEO | 2026-09-03 00:28:58 | 41.12336 | 2.36316 | 169° | 31km/h | 9644m | -8.9m/s | 0°C | 0% | 0hPa | 0V | 00:00:00 | 00:00:00 | 00:00:00 | |
| EA3GEO | 2026-09-03 00:28:52 | 41.12387 | 2.36304 | 170° | 35km/h | 9698m | -7.1m/s | 0°C | 0% | 0hPa | 0V | 00:00:00 | 00:00:00 | 00:00:00 | |
| EA3GEO | 2026-09-03 00:28:48 | 41.12432 | 2.36293 | 172° | 33km/h | 9741m | -8.0m/s | 0°C | 0% | 0hPa | 0V | 00:00:00 | 00:00:00 | 00:00:00 | |
| EA3GEO | 2026-09-03 00:28:41 | 41.12486 | 2.36282 | 171° | 38km/h | 9799m | -8.4m/s | 0°C | 0% | 0hPa | 0V | 00:00:00 | 00:00:00 | 00:00:00 | |
| EA3GEO | 2026-09-03 00:28:35 | 41.12543 | 2.36267 | 167° | 37km/h | 9854m | -6.8m/s | 0°C | 0% | 0hPa | 0V | 00:00:00 | 00:00:00 | 00:00:00 | |
| EA3GEO | 2026-09-03 00:28:29 | 41.12599 | 2.36254 | 168° | 37km/h | 9906m | -6.3m/s | 0°C | 0% | 0hPa | 0V | 00:00:00 | 00:00:00 | 00:00:00 | |
| EA3GEO | 2026-09-03 00:28:24 | 41.12645 | 2.36239 | 171° | 35km/h | 9948m | -8.6m/s | 0°C | 0% | 0hPa | 0V | 00:00:00 | 00:00:00 | 00:00:00 | |
| EA3GEO | 2026-09-03 00:28:18 | 41.12698 | 2.36224 | 162° | 35km/h | 10003m | -5.6m/s | 0°C | 0% | 0hPa | 0V | 00:00:00 | 00:00:00 | 00:00:00 | |
| EA3GEO | 2026-09-03 00:28:12 | 41.12749 | 2.36210 | 168° | 37km/h | 10061m | -10.8m/s | 0°C | 0% | 0hPa | 0V | 00:00:00 | 00:00:00 | 00:00:00 | |
| EA3GEO | 2026-09-03 00:28:06 | 41.12803 | 2.36197 | 181° | 37km/h | 10118m | -9.9m/s | 0°C | 0% | 0hPa | 0V | 00:00:00 | 00:00:00 | 00:00:00 | |
| EA3GEO | 2026-09-03 00:28:01 | 41.12848 | 2.36191 | 179° | 37km/h | 10169m | -11.3m/s | 0°C | 0% | 0hPa | 0V | 00:00:00 | 00:00:00 | 00:00:00 | |
| EA3GEO | 2026-09-03 00:27:55 | 41.12904 | 2.36185 | 179° | 37km/h | 10229m | -10.1m/s | 0°C | 0% | 0hPa | 0V | 00:00:00 | 00:00:00 | 00:00:00 | |
| EA3GEO | 2026-09-03 00:27:49 | 41.12959 | 2.36188 | 179° | 35km/h | 10294m | -8.2m/s | 0°C | 0% | 0hPa | 0V | 00:00:00 | 00:00:00 | 00:00:00 | |
| EA3GEO | 2026-09-03 00:27:44 | 41.13007 | 2.36188 | 180° | 40km/h | 10341m | -8.6m/s | 0°C | 0% | 0hPa | 0V | 00:00:00 | 00:00:00 | 00:00:00 | |
| EA3GEO | 2026-09-03 00:27:38 | 41.13069 | 2.36186 | 182° | 42km/h | 10401m | -9.2m/s | 0°C | 0% | 0hPa | 0V | 00:00:00 | 00:00:00 | 00:00:00 | |
| EA3GEO | 2026-09-03 00:27:32 | 41.13132 | 2.36183 | 183° | 42km/h | 10458m | -9.6m/s | 0°C | 0% | 0hPa | 0V | 00:00:00 | 00:00:00 | 00:00:00 | |
| EA3GEO | 2026-09-03 00:27:27 | 41.13197 | 2.36182 | 179° | 44km/h | 10516m | -8.2m/s | 0°C | 0% | 0hPa | 0V | 00:00:00 | 00:00:00 | 00:00:00 | |
| EA3GEO | 2026-09-03 00:27:21 | 41.13249 | 2.36182 | 180° | 38km/h | 10565m | -10.1m/s | 0°C | 0% | 0hPa | 0V | 00:00:00 | 00:00:00 | 00:00:00 | |
| EA3GEO | 2026-09-03 00:27:15 | 41.13315 | 2.36180 | 184° | 42km/h | 10623m | -10.5m/s | 0°C | 0% | 0hPa | 0V | 00:00:00 | 00:00:00 | 00:00:00 | |
| EA3GEO | 2026-09-03 00:27:09 | 41.13379 | 2.36179 | 179° | 42km/h | 10681m | -8.6m/s | 0°C | 0% | 0hPa | 0V | 00:00:00 | 00:00:00 | 00:00:00 | |
| EA3GEO | 2026-09-03 00:27:04 | 41.13433 | 2.36177 | 180° | 44km/h | 10730m | -10.6m/s | 0°C | 0% | 0hPa | 0V | 00:00:00 | 00:00:00 | 00:00:00 | |
| EA3GEO | 2026-09-03 00:26:59 | 41.13487 | 2.36178 | 184° | 38km/h | 10784m | -11.8m/s | 0°C | 0% | 0hPa | 0V | 00:00:00 | 00:00:00 | 00:00:00 | |
| EA3GEO | 2026-09-03 00:26:53 | 41.13548 | 2.36181 | 184° | 38km/h | 10842m | -9.2m/s | 0°C | 0% | 0hPa | 0V | 00:00:00 | 00:00:00 | 00:00:00 | |
| EA3GEO | 2026-09-03 00:26:47 | 41.13609 | 2.36188 | 184° | 44km/h | 10901m | -7.8m/s | 0°C | 0% | 0hPa | 0V | 00:00:00 | 00:00:00 | 00:00:00 | |
| EA3GEO | 2026-09-03 00:26:42 | 41.13664 | 2.36192 | 186° | 44km/h | 10948m | -9.1m/s | 0°C | 0% | 0hPa | 0V | 00:00:00 | 00:00:00 | 00:00:00 | |
| EA3GEO | 2026-09-03 00:26:36 | 41.13732 | 2.36198 | 187° | 46km/h | 11010m | -10.5m/s | 0°C | 0% | 0hPa | 0V | 00:00:00 | 00:00:00 | 00:00:00 | |
| EA3GEO | 2026-09-03 00:26:31 | 41.13790 | 2.36203 | 183° | 47km/h | 11056m | -11.1m/s | 0°C | 0% | 0hPa | 0V | 00:00:00 | 00:00:00 | 00:00:00 | |
| EA3GEO | 2026-09-03 00:26:25 | 41.13862 | 2.36207 | 186° | 46km/h | 11118m | -8.0m/s | 0°C | 0% | 0hPa | 0V | 00:00:00 | 00:00:00 | 00:00:00 | |
| EA3GEO | 2026-09-03 00:26:19 | 41.13933 | 2.36214 | 185° | 47km/h | 11172m | -10.1m/s | 0°C | 0% | 0hPa | 0V | 00:00:00 | 00:00:00 | 00:00:00 | |
| EA3GEO | 2026-09-03 00:26:13 | 41.14004 | 2.36223 | 189° | 49km/h | 11228m | -11.7m/s | 0°C | 0% | 0hPa | 0V | 00:00:00 | 00:00:00 | 00:00:00 | |
| EA3GEO | 2026-09-03 00:26:08 | 41.14065 | 2.36234 | 189° | 49km/h | 11286m | -11.7m/s | 0°C | 0% | 0hPa | 0V | 00:00:00 | 00:00:00 | 00:00:00 | |
| EA3GEO | 2026-09-03 00:26:03 | 41.14125 | 2.36248 | 185° | 49km/h | 11345m | -8.2m/s | 0°C | 0% | 0hPa | 0V | 00:00:00 | 00:00:00 | 00:00:00 | |
| EA3GEO | 2026-09-03 00:25:57 | 41.14199 | 2.36264 | 191° | 49km/h | 11404m | -9.3m/s | 0°C | 0% | 0hPa | 0V | 00:00:00 | 00:00:00 | 00:00:00 | |
| EA3GEO | 2026-09-03 00:25:51 | 41.14271 | 2.36279 | 188° | 51km/h | 11465m | -8.9m/s | 0°C | 0% | 0hPa | 0V | 00:00:00 | 00:00:00 | 00:00:00 | |
| EA3GEO | 2026-09-03 00:25:46 | 41.14331 | 2.36292 | 191° | 51km/h | 11514m | -8.9m/s | 0°C | 0% | 0hPa | 0V | 00:00:00 | 00:00:00 | 00:00:00 | |
| EA3GEO | 2026-09-03 00:25:40 | 41.14405 | 2.36308 | 189° | 51km/h | 11581m | -10.3m/s | 0°C | 0% | 0hPa | 0V | 00:00:00 | 00:00:00 | 00:00:00 | |
| EA3GEO | 2026-09-03 00:25:34 | 41.14480 | 2.36324 | 189° | 55km/h | 11643m | -9.9m/s | 0°C | 0% | 0hPa | 0V | 00:00:00 | 00:00:00 | 00:00:00 | |
| EA3GEO | 2026-09-03 00:25:28 | 41.14560 | 2.36341 | 193° | 57km/h | 11706m | -10.8m/s | 0°C | 0% | 0hPa | 0V | 00:00:00 | 00:00:00 | 00:00:00 | |
| EA3GEO | 2026-09-03 00:25:23 | 41.14629 | 2.36360 | 194° | 51km/h | 11759m | -10.1m/s | 0°C | 0% | 0hPa | 0V | 00:00:00 | 00:00:00 | 00:00:00 | |
| EA3GEO | 2026-09-03 00:25:17 | 41.14714 | 2.36387 | 196° | 58km/h | 11825m | -10.4m/s | 0°C | 0% | 0hPa | 0V | 00:00:00 | 00:00:00 | 00:00:00 | |
| EA3GEO | 2026-09-03 00:25:11 | 41.14801 | 2.36416 | 193° | 55km/h | 11888m | -10.4m/s | 0°C | 0% | 0hPa | 0V | 00:00:00 | 00:00:00 | 00:00:00 | |
| EA3GEO | 2026-09-03 00:25:06 | 41.14871 | 2.36437 | 193° | 58km/h | 11935m | -10.3m/s | 0°C | 0% | 0hPa | 0V | 00:00:00 | 00:00:00 | 00:00:00 | |
| EA3GEO | 2026-09-03 00:25:00 | 41.14958 | 2.36462 | 193° | 60km/h | 12004m | -11.8m/s | 0°C | 0% | 0hPa | 0V | 00:00:00 | 00:00:00 | 00:00:00 | |
| EA3GEO | 2026-09-03 00:24:54 | 41.15047 | 2.36488 | 195° | 60km/h | 12072m | -12.1m/s | 0°C | 0% | 0hPa | 0V | 00:00:00 | 00:00:00 | 00:00:00 | |
| EA3GEO | 2026-09-03 00:24:48 | 41.15135 | 2.36514 | 192° | 57km/h | 12142m | -12.1m/s | 0°C | 0% | 0hPa | 0V | 00:00:00 | 00:00:00 | 00:00:00 | |
| EA3GEO | 2026-09-03 00:24:42 | 41.15219 | 2.36535 | 187° | 53km/h | 12215m | -9.6m/s | 0°C | 0% | 0hPa | 0V | 00:00:00 | 00:00:00 | 00:00:00 | |
| EA3GEO | 2026-09-03 00:24:37 | 41.15283 | 2.36549 | 192° | 51km/h | 12269m | -10.5m/s | 0°C | 0% | 0hPa | 0V | 00:00:00 | 00:00:00 | 00:00:00 | |
| EA3GEO | 2026-09-03 00:24:31 | 41.15356 | 2.36567 | 192° | 47km/h | 12329m | -10.1m/s | 0°C | 0% | 0hPa | 0V | 00:00:00 | 00:00:00 | 00:00:00 | |
| EA3GEO | 2026-09-03 00:24:25 | 41.15427 | 2.36582 | 194° | 46km/h | 12399m | -11.4m/s | 0°C | 0% | 0hPa | 0V | 00:00:00 | 00:00:00 | 00:00:00 | |
| EA3GEO | 2026-09-03 00:24:19 | 41.15499 | 2.36595 | 190° | 47km/h | 12470m | -14.9m/s | 0°C | 0% | 0hPa | 0V | 00:00:00 | 00:00:00 | 00:00:00 | |
| EA3GEO | 2026-09-03 00:24:13 | 41.15575 | 2.36599 | 179° | 53km/h | 12549m | -14.7m/s | 0°C | 0% | 0hPa | 0V | 00:00:00 | 00:00:00 | 00:00:00 | |
| EA3GEO | 2026-09-03 00:24:08 | 41.15644 | 2.36595 | 179° | 51km/h | 12616m | -14.1m/s | 0°C | 0% | 0hPa | 0V | 00:00:00 | 00:00:00 | 00:00:00 | |
| EA3GEO | 2026-09-03 00:24:02 | 41.15730 | 2.36589 | 181° | 53km/h | 12692m | -12.0m/s | 0°C | 0% | 0hPa | 0V | 00:00:00 | 00:00:00 | 00:00:00 | |
| EA3GEO | 2026-09-03 00:23:56 | 41.15814 | 2.36584 | 174° | 57km/h | 12769m | -11.2m/s | 0°C | 0% | 0hPa | 0V | 00:00:00 | 00:00:00 | 00:00:00 | |
| EA3GEO | 2026-09-03 00:23:51 | 41.15885 | 2.36571 | 175° | 57km/h | 12834m | -15.0m/s | 0°C | 0% | 0hPa | 0V | 00:00:00 | 00:00:00 | 00:00:00 | |
| EA3GEO | 2026-09-03 00:23:46 | 41.15959 | 2.36558 | 171° | 60km/h | 12906m | -14.4m/s | 0°C | 0% | 0hPa | 0V | 00:00:00 | 00:00:00 | 00:00:00 | |
| EA3GEO | 2026-09-03 00:23:40 | 41.16048 | 2.36536 | 172° | 58km/h | 12990m | -13.1m/s | 0°C | 0% | 0hPa | 0V | 00:00:00 | 00:00:00 | 00:00:00 | |
| EA3GEO | 2026-09-03 00:23:34 | 41.16128 | 2.36509 | 166° | 53km/h | 13069m | -14.1m/s | 0°C | 0% | 0hPa | 0V | 00:00:00 | 00:00:00 | 00:00:00 | |
| EA3GEO | 2026-09-03 00:23:28 | 41.16201 | 2.36482 | 166° | 49km/h | 13152m | -11.8m/s | 0°C | 0% | 0hPa | 0V | 00:00:00 | 00:00:00 | 00:00:00 | |
| EA3GEO | 2026-09-03 00:23:22 | 41.16276 | 2.36458 | 171° | 51km/h | 13229m | -13.5m/s | 0°C | 0% | 0hPa | 0V | 00:00:00 | 00:00:00 | 00:00:00 | |
| EA3GEO | 2026-09-03 00:23:16 | 41.16350 | 2.36443 | 177° | 51km/h | 13310m | -14.3m/s | 0°C | 0% | 0hPa | 0V | 00:00:00 | 00:00:00 | 00:00:00 | |
| EA3GEO | 2026-09-03 00:23:10 | 41.16424 | 2.36436 | 175° | 47km/h | 13398m | -15.1m/s | 0°C | 0% | 0hPa | 0V | 00:00:00 | 00:00:00 | 00:00:00 | |
| EA3GEO | 2026-09-03 00:23:05 | 41.16486 | 2.36428 | 175° | 49km/h | 13476m | -13.2m/s | 0°C | 0% | 0hPa | 0V | 00:00:00 | 00:00:00 | 00:00:00 | |
| EA3GEO | 2026-09-03 00:23:00 | 41.16545 | 2.36423 | 179° | 47km/h | 13547m | -13.8m/s | 0°C | 0% | 0hPa | 0V | 00:00:00 | 00:00:00 | 00:00:00 | |
| EA3GEO | 2026-09-03 00:22:54 | 41.16614 | 2.36414 | 179° | 44km/h | 13635m | -14.2m/s | 0°C | 0% | 0hPa | 0V | 00:00:00 | 00:00:00 | 00:00:00 | |
| EA3GEO | 2026-09-03 00:22:48 | 41.16674 | 2.36404 | 165° | 37km/h | 13724m | -15.8m/s | 0°C | 0% | 0hPa | 0V | 00:00:00 | 00:00:00 | 00:00:00 | |
| EA3GEO | 2026-09-03 00:22:43 | 41.16713 | 2.36384 | 149° | 29km/h | 13807m | -15.9m/s | 0°C | 0% | 0hPa | 0V | 00:00:00 | 00:00:00 | 00:00:00 | |
| EA3GEO | 2026-09-03 00:22:38 | 41.16745 | 2.36352 | 145° | 33km/h | 13887m | -14.2m/s | 0°C | 0% | 0hPa | 0V | 00:00:00 | 00:00:00 | 00:00:00 | |
| EA3GEO | 2026-09-03 00:22:32 | 41.16788 | 2.36311 | 152° | 42km/h | 13979m | -13.2m/s | 0°C | 0% | 0hPa | 0V | 00:00:00 | 00:00:00 | 00:00:00 | |
| EA3GEO | 2026-09-03 00:22:27 | 41.16829 | 2.36274 | 141° | 40km/h | 14054m | -13.1m/s | 0°C | 0% | 0hPa | 0V | 00:00:00 | 00:00:00 | 00:00:00 | |
| EA3GEO | 2026-09-03 00:22:22 | 41.16867 | 2.36230 | 135° | 42km/h | 14128m | -15.6m/s | 0°C | 0% | 0hPa | 0V | 00:00:00 | 00:00:00 | 00:00:00 | |
| EA3GEO | 2026-09-03 00:22:16 | 41.16914 | 2.36167 | 135° | 46km/h | 14220m | -15.6m/s | 0°C | 0% | 0hPa | 0V | 00:00:00 | 00:00:00 | 00:00:00 | |
| EA3GEO | 2026-09-03 00:22:11 | 41.16960 | 2.36111 | 143° | 51km/h | 14302m | -15.5m/s | 0°C | 0% | 0hPa | 0V | 00:00:00 | 00:00:00 | 00:00:00 | |
| EA3GEO | 2026-09-03 00:22:05 | 41.17023 | 2.36055 | 147° | 46km/h | 14400m | -16.8m/s | 0°C | 0% | 0hPa | 0V | 00:00:00 | 00:00:00 | 00:00:00 | |
| EA3GEO | 2026-09-03 00:21:59 | 41.17073 | 2.36010 | 138° | 37km/h | 14513m | -18.3m/s | 0°C | 0% | 0hPa | 0V | 00:00:00 | 00:00:00 | 00:00:00 | |
| EA3GEO | 2026-09-03 00:21:53 | 41.17105 | 2.35956 | 119° | 33km/h | 14613m | -14.8m/s | 0°C | 0% | 0hPa | 0V | 00:00:00 | 00:00:00 | 00:00:00 | |
| EA3GEO | 2026-09-03 00:21:48 | 41.17123 | 2.35901 | 114° | 40km/h | 14694m | -16.1m/s | 0°C | 0% | 0hPa | 0V | 00:00:00 | 00:00:00 | 00:00:00 | |
| EA3GEO | 2026-09-03 00:21:42 | 41.17140 | 2.35824 | 103° | 44km/h | 14792m | -13.8m/s | 0°C | 0% | 0hPa | 0V | 00:00:00 | 00:00:00 | 00:00:00 | |
| EA3GEO | 2026-09-03 00:21:36 | 41.17158 | 2.35736 | 108° | 47km/h | 14874m | -12.3m/s | 0°C | 0% | 0hPa | 0V | 00:00:00 | 00:00:00 | 00:00:00 | |
| EA3GEO | 2026-09-03 00:21:31 | 41.17176 | 2.35660 | 109° | 47km/h | 14939m | -14.2m/s | 0°C | 0% | 0hPa | 0V | 00:00:00 | 00:00:00 | 00:00:00 | |
| EA3GEO | 2026-09-03 00:21:25 | 41.17203 | 2.35567 | 110° | 49km/h | 15017m | -10.1m/s | 0°C | 0% | 0hPa | 0V | 00:00:00 | 00:00:00 | 00:00:00 | |
| EA3GEO | 2026-09-03 00:21:20 | 41.17228 | 2.35484 | 116° | 51km/h | 15073m | -10.9m/s | 0°C | 0% | 0hPa | 0V | 00:00:00 | 00:00:00 | 00:00:00 | |
| EA3GEO | 2026-09-03 00:21:15 | 41.17256 | 2.35406 | 119° | 49km/h | 15129m | -11.4m/s | 0°C | 0% | 0hPa | 0V | 00:00:00 | 00:00:00 | 00:00:00 | |
| EA3GEO | 2026-09-03 00:21:09 | 41.17298 | 2.35326 | 132° | 49km/h | 15200m | -11.1m/s | 0°C | 0% | 0hPa | 0V | 00:00:00 | 00:00:00 | 00:00:00 | |
| EA3GEO | 2026-09-03 00:21:02 | 41.17353 | 2.35244 | 130° | 46km/h | 15291m | -13.6m/s | 0°C | 0% | 0hPa | 0V | 00:00:00 | 00:00:00 | 00:00:00 | |
| EA3GEO | 2026-09-03 00:20:56 | 41.17395 | 2.35167 | 125° | 53km/h | 15372m | -11.4m/s | 0°C | 0% | 0hPa | 0V | 00:00:00 | 00:00:00 | 00:00:00 | |
| EA3GEO | 2026-09-03 00:20:51 | 41.17435 | 2.35090 | 127° | 55km/h | 15436m | -13.7m/s | 0°C | 0% | 0hPa | 0V | 00:00:00 | 00:00:00 | 00:00:00 | |
| EA3GEO | 2026-09-03 00:20:45 | 41.17489 | 2.35004 | 137° | 49km/h | 15507m | -8.3m/s | 0°C | 0% | 0hPa | 0V | 00:00:00 | 00:00:00 | 00:00:00 | |
| EA3GEO | 2026-09-03 00:20:40 | 41.17536 | 2.34942 | 137° | 49km/h | 15554m | -8.7m/s | 0°C | 0% | 0hPa | 0V | 00:00:00 | 00:00:00 | 00:00:00 | |
| EA3GEO | 2026-09-03 00:20:35 | 41.17582 | 2.34885 | 137° | 51km/h | 15597m | -7.1m/s | 0°C | 0% | 0hPa | 0V | 00:00:00 | 00:00:00 | 00:00:00 | |
| EA3GEO | 2026-09-03 00:20:29 | 41.17632 | 2.34820 | 134° | 42km/h | 15655m | -10.0m/s | 0°C | 0% | 0hPa | 0V | 00:00:00 | 00:00:00 | 00:00:00 | |
| EA3GEO | 2026-09-03 00:20:23 | 41.17678 | 2.34764 | 135° | 37km/h | 15714m | -8.6m/s | 0°C | 0% | 0hPa | 0V | 00:00:00 | 00:00:00 | 00:00:00 | |
| EA3GEO | 2026-09-03 00:20:18 | 41.17710 | 2.34719 | 114° | 29km/h | 15759m | -6.9m/s | 0°C | 0% | 0hPa | 0V | 00:00:00 | 00:00:00 | 00:00:00 | |
| EA3GEO | 2026-09-03 00:20:12 | 41.17739 | 2.34663 | 117° | 35km/h | 15814m | -8.5m/s | 0°C | 0% | 0hPa | 0V | 00:00:00 | 00:00:00 | 00:00:00 | |
| EA3GEO | 2026-09-03 00:20:06 | 41.17763 | 2.34599 | 121° | 37km/h | 15887m | -11.9m/s | 0°C | 0% | 0hPa | 0V | 00:00:00 | 00:00:00 | 00:00:00 | |
| EA3GEO | 2026-09-03 00:20:01 | 41.17787 | 2.34547 | 127° | 38km/h | 15955m | -12.7m/s | 0°C | 0% | 0hPa | 0V | 00:00:00 | 00:00:00 | 00:00:00 | |
| EA3GEO | 2026-09-03 00:19:55 | 41.17820 | 2.34484 | 128° | 40km/h | 16024m | -11.0m/s | 0°C | 0% | 0hPa | 0V | 00:00:00 | 00:00:00 | 00:00:00 | |
| EA3GEO | 2026-09-03 00:19:50 | 41.17852 | 2.34429 | 130° | 42km/h | 16075m | -9.1m/s | 0°C | 0% | 0hPa | 0V | 00:00:00 | 00:00:00 | 00:00:00 | |
| EA3GEO | 2026-09-03 00:19:45 | 41.17887 | 2.34376 | 132° | 44km/h | 16127m | -10.6m/s | 0°C | 0% | 0hPa | 0V | 00:00:00 | 00:00:00 | 00:00:00 | |
| EA3GEO | 2026-09-03 00:19:39 | 41.17936 | 2.34311 | 139° | 49km/h | 16196m | -10.8m/s | 0°C | 0% | 0hPa | 0V | 00:00:00 | 00:00:00 | 00:00:00 | |
| EA3GEO | 2026-09-03 00:19:33 | 41.17987 | 2.34254 | 139° | 42km/h | 16260m | -11.4m/s | 0°C | 0% | 0hPa | 0V | 00:00:00 | 00:00:00 | 00:00:00 | |
| EA3GEO | 2026-09-03 00:19:15 | 41.18068 | 2.34034 | 110° | 46km/h | 16493m | -18.3m/s | 0°C | 0% | 0hPa | 0V | 00:00:00 | 00:00:00 | 00:00:00 | |
| EA3GEO | 2026-09-03 00:19:05 | 41.18118 | 2.33900 | 119° | 49km/h | 16657m | -17.2m/s | 0°C | 0% | 0hPa | 0V | 00:00:00 | 00:00:00 | 00:00:00 | |
| EA3GEO | 2026-09-03 00:18:59 | 41.18151 | 2.33828 | 114° | 33km/h | 16772m | -19.0m/s | 0°C | 0% | 0hPa | 0V | 00:00:00 | 00:00:00 | 00:00:00 | |
| EA3GEO | 2026-09-03 00:18:53 | 41.18166 | 2.33771 | 103° | 24km/h | 16882m | -17.9m/s | 0°C | 0% | 0hPa | 0V | 00:00:00 | 00:00:00 | 00:00:00 | |
| EA3GEO | 2026-09-03 00:18:47 | 41.18164 | 2.33718 | 81° | 29km/h | 16988m | -18.2m/s | 0°C | 0% | 0hPa | 0V | 00:00:00 | 00:00:00 | 00:00:00 | |
| EA3GEO | 2026-09-03 00:18:41 | 41.18156 | 2.33656 | 81° | 33km/h | 17095m | -14.0m/s | 0°C | 0% | 0hPa | 0V | 00:00:00 | 00:00:00 | 00:00:00 | |
| EA3IBE | 2026-09-03 00:18:34 | 41.18150 | 2.33551 | 87° | 42km/h | 17235m | -16.1m/s | 0°C | 0% | 0hPa | 0V | 00:00:00 | 00:00:00 | 00:00:00 | |
| EA3GEO | 2026-09-03 00:18:28 | 41.18151 | 2.33489 | 103° | 38km/h | 17326m | -16.9m/s | 0°C | 0% | 0hPa | 0V | 00:00:00 | 00:00:00 | 00:00:00 | |
| EA3IBE | 2026-09-03 00:18:22 | 41.18163 | 2.33423 | 113° | 35km/h | 17420m | -15.7m/s | 0°C | 0% | 0hPa | 0V | 00:00:00 | 00:00:00 | 00:00:00 | |
| EA3GEO | 2026-09-03 00:18:17 | 41.18172 | 2.33373 | 105° | 31km/h | 17504m | -16.6m/s | 0°C | 0% | 0hPa | 0V | 00:00:00 | 00:00:00 | 00:00:00 | |
| EA3GEO | 2026-09-03 00:18:11 | 41.18185 | 2.33306 | 111° | 40km/h | 17603m | -15.2m/s | 0°C | 0% | 0hPa | 0V | 00:00:00 | 00:00:00 | 00:00:00 | |
| EA3GEO | 2026-09-03 00:18:05 | 41.18206 | 2.33230 | 110° | 40km/h | 17709m | -18.7m/s | 0°C | 0% | 0hPa | 0V | 00:00:00 | 00:00:00 | 00:00:00 | |
| EA3GEO | 2026-09-03 00:18:00 | 41.18222 | 2.33174 | 112° | 35km/h | 17799m | -14.9m/s | 0°C | 0% | 0hPa | 0V | 00:00:00 | 00:00:00 | 00:00:00 | |
| EA3GEO | 2026-09-03 00:17:54 | 41.18233 | 2.33115 | 103° | 29km/h | 17907m | -18.0m/s | 0°C | 0% | 0hPa | 0V | 00:00:00 | 00:00:00 | 00:00:00 | |
| EA3GEO | 2026-09-03 00:17:49 | 41.18240 | 2.33068 | 102° | 27km/h | 17991m | -18.3m/s | 0°C | 0% | 0hPa | 0V | 00:00:00 | 00:00:00 | 00:00:00 | |
| EA3IBE | 2026-09-03 00:17:48 | 41.18241 | 2.33058 | 107° | 31km/h | 18009m | -16.9m/s | 0°C | 0% | 0hPa | 0V | 00:00:00 | 00:00:00 | 00:00:00 | |
| EA3GEO | 2026-09-03 00:17:44 | 41.18247 | 2.33017 | 100° | 33km/h | 18083m | -17.0m/s | 0°C | 0% | 0hPa | 0V | 00:00:00 | 00:00:00 | 00:00:00 | |
| EA3IBE | 2026-09-03 00:17:39 | 41.18251 | 2.32962 | 99° | 37km/h | 18168m | -16.1m/s | 0°C | 0% | 0hPa | 0V | 00:00:00 | 00:00:00 | 00:00:00 | |
| EA3GEO | 2026-09-03 00:17:38 | 41.18252 | 2.32951 | 104° | 35km/h | 18185m | -16.8m/s | 0°C | 0% | 0hPa | 0V | 00:00:00 | 00:00:00 | 00:00:00 | |
| EA3IBE | 2026-09-03 00:17:34 | 41.18264 | 2.32907 | 119° | 35km/h | 18248m | -13.9m/s | 0°C | 0% | 0hPa | 0V | 00:00:00 | 00:00:00 | 00:00:00 | |
| EA3GEO | 2026-09-03 00:17:31 | 41.18278 | 2.32879 | 130° | 35km/h | 18293m | -16.9m/s | 0°C | 0% | 0hPa | 0V | 00:00:00 | 00:00:00 | 00:00:00 | |
| EA3IBE | 2026-09-03 00:17:28 | 41.18292 | 2.32854 | 130° | 26km/h | 18341m | -18.0m/s | 0°C | 0% | 0hPa | 0V | 00:00:00 | 00:00:00 | 00:00:00 | |
| EA3GEO | 2026-09-03 00:17:26 | 41.18301 | 2.32839 | 133° | 26km/h | 18375m | -14.6m/s | 0°C | 0% | 0hPa | 0V | 00:00:00 | 00:00:00 | 00:00:00 | |
| EA3GEO | 2026-09-03 00:17:20 | 41.18325 | 2.32803 | 139° | 24km/h | 18479m | -19.2m/s | 0°C | 0% | 0hPa | 0V | 00:00:00 | 00:00:00 | 00:00:00 | |
| EA3IBE | 2026-09-03 00:17:17 | 41.18341 | 2.32784 | 143° | 29km/h | 18539m | -19.4m/s | 0°C | 0% | 0hPa | 0V | 00:00:00 | 00:00:00 | 00:00:00 | |
| EA3GEO | 2026-09-03 00:17:15 | 41.18352 | 2.32771 | 139° | 29km/h | 18577m | -18.5m/s | 0°C | 0% | 0hPa | 0V | 00:00:00 | 00:00:00 | 00:00:00 | |
| EA3GEO | 2026-09-03 00:17:09 | 41.18388 | 2.32736 | 147° | 27km/h | 18692m | -16.0m/s | 0°C | 0% | 0hPa | 0V | 00:00:00 | 00:00:00 | 00:00:00 | |
| EA3IBE | 2026-09-03 00:17:06 | 41.18403 | 2.32725 | 148° | 20km/h | 18740m | -17.1m/s | 0°C | 0% | 0hPa | 0V | 00:00:00 | 00:00:00 | 00:00:00 | |
| EA3GEO | 2026-09-03 00:17:04 | 41.18410 | 2.32718 | 148° | 18km/h | 18773m | -14.2m/s | 0°C | 0% | 0hPa | 0V | 00:00:00 | 00:00:00 | 00:00:00 | |
| EA3IBE | 2026-09-03 00:17:00 | 41.18423 | 2.32705 | 146° | 22km/h | 18842m | -18.9m/s | 0°C | 0% | 0hPa | 0V | 00:00:00 | 00:00:00 | 00:00:00 | |
| EA3GEO | 2026-09-03 00:16:59 | 41.18427 | 2.32701 | 147° | 18km/h | 18862m | -18.8m/s | 0°C | 0% | 0hPa | 0V | 00:00:00 | 00:00:00 | 00:00:00 | |
| EA3IBE | 2026-09-03 00:16:54 | 41.18457 | 2.32687 | 167° | 31km/h | 18969m | -21.2m/s | 0°C | 0% | 0hPa | 0V | 00:00:00 | 00:00:00 | 00:00:00 | |
| EA3GEO | 2026-09-03 00:16:52 | 41.18473 | 2.32683 | 169° | 31km/h | 19012m | -20.1m/s | 0°C | 0% | 0hPa | 0V | 00:00:00 | 00:00:00 | 00:00:00 | |
| EA3IBE | 2026-09-03 00:16:48 | 41.18499 | 2.32678 | 177° | 20km/h | 19085m | -14.1m/s | 0°C | 0% | 0hPa | 0V | 00:00:00 | 00:00:00 | 00:00:00 | |
| EA3GEO | 2026-09-03 00:16:44 | 41.18514 | 2.32677 | 178° | 11km/h | 19150m | -13.3m/s | 0°C | 0% | 0hPa | 0V | 00:00:00 | 00:00:00 | 00:00:00 | |
| EA3IBE | 2026-09-03 00:16:41 | 41.18518 | 2.32677 | 130° | 4km/h | 19198m | -13.7m/s | 0°C | 0% | 0hPa | 0V | 00:00:00 | 00:00:00 | 00:00:00 | |
| EA3GEO | 2026-09-03 00:16:38 | 41.18518 | 2.32674 | 22° | 4km/h | 19245m | -16.7m/s | 0°C | 0% | 0hPa | 0V | 00:00:00 | 00:00:00 | 00:00:00 | |
| EA3IBE | 2026-09-03 00:16:35 | 41.18515 | 2.32670 | 54° | 5km/h | 19298m | -17.3m/s | 0°C | 0% | 0hPa | 0V | 00:00:00 | 00:00:00 | 00:00:00 | |
| EA3GEO | 2026-09-03 00:16:32 | 41.18511 | 2.32663 | 42° | 15km/h | 19354m | -16.8m/s | 0°C | 0% | 0hPa | 0V | 00:00:00 | 00:00:00 | 00:00:00 | |
| EA3IBE | 2026-09-03 00:16:29 | 41.18501 | 2.32650 | 46° | 22km/h | 19405m | -15.9m/s | 0°C | 0% | 0hPa | 0V | 00:00:00 | 00:00:00 | 00:00:00 | |
| EA3GEO | 2026-09-03 00:16:27 | 41.18492 | 2.32638 | 48° | 26km/h | 19443m | -17.5m/s | 0°C | 0% | 0hPa | 0V | 00:00:00 | 00:00:00 | 00:00:00 | |
| EA3IBE | 2026-09-03 00:16:23 | 41.18472 | 2.32607 | 59° | 29km/h | 19515m | -18.2m/s | 0°C | 0% | 0hPa | 0V | 00:00:00 | 00:00:00 | 00:00:00 | |
| EA3GEO | 2026-09-03 00:16:22 | 41.18468 | 2.32598 | 58° | 31km/h | 19533m | -15.7m/s | 0°C | 0% | 0hPa | 0V | 00:00:00 | 00:00:00 | 00:00:00 | |
| EA3GEO | 2026-09-03 00:16:17 | 41.18451 | 2.32549 | 80° | 35km/h | 19617m | -13.4m/s | 0°C | 0% | 0hPa | 0V | 00:00:00 | 00:00:00 | 00:00:00 | |
| EA3GEO | 2026-09-03 00:16:11 | 41.18444 | 2.32480 | 97° | 31km/h | 19701m | -18.5m/s | 0°C | 0% | 0hPa | 0V | 00:00:00 | 00:00:00 | 00:00:00 | |
| EA3GEO | 2026-09-03 00:16:05 | 41.18453 | 2.32427 | 125° | 20km/h | 19816m | -22.2m/s | 0°C | 0% | 0hPa | 0V | 00:00:00 | 00:00:00 | 00:00:00 | |
| EA3IBE | 2026-09-03 00:16:04 | 41.18456 | 2.32422 | 125° | 18km/h | 19837m | -18.0m/s | 0°C | 0% | 0hPa | 0V | 00:00:00 | 00:00:00 | 00:00:00 | |
| EA3GEO | 2026-09-03 00:15:59 | 41.18468 | 2.32405 | 133° | 11km/h | 19913m | -14.0m/s | 0°C | 0% | 0hPa | 0V | 00:00:00 | 00:00:00 | 00:00:00 | |
| EA3IBE | 2026-09-03 00:15:57 | 41.18470 | 2.32397 | 97° | 16km/h | 19948m | -18.8m/s | 0°C | 0% | 0hPa | 0V | 00:00:00 | 00:00:00 | 00:00:00 | |
| EA3GEO | 2026-09-03 00:15:52 | 41.18469 | 2.32371 | 100° | 18km/h | 20036m | -14.3m/s | 0°C | 0% | 0hPa | 0V | 00:00:00 | 00:00:00 | 00:00:00 | |
| EA3IBE | 2026-09-03 00:15:51 | 41.18471 | 2.32365 | 122° | 18km/h | 20052m | -18.1m/s | 0°C | 0% | 0hPa | 0V | 00:00:00 | 00:00:00 | 00:00:00 | |
| EA3GEO | 2026-09-03 00:15:46 | 41.18488 | 2.32345 | 141° | 18km/h | 20143m | -17.8m/s | 0°C | 0% | 0hPa | 0V | 00:00:00 | 00:00:00 | 00:00:00 | |
| EA3IBE | 2026-09-03 00:15:44 | 41.18494 | 2.32336 | 135° | 15km/h | 20176m | -17.5m/s | 0°C | 0% | 0hPa | 0V | 00:00:00 | 00:00:00 | 00:00:00 | |
| EA3GEO | 2026-09-03 00:15:40 | 41.18497 | 2.32325 | 327° | 2km/h | 20247m | -15.0m/s | 0°C | 0% | 0hPa | 0V | 00:00:00 | 00:00:00 | 00:00:00 | |
| EA3IBE | 2026-09-03 00:15:37 | 41.18496 | 2.32326 | 298° | 2km/h | 20295m | -16.8m/s | 0°C | 0% | 0hPa | 0V | 00:00:00 | 00:00:00 | 00:00:00 | |
| EA3GEO | 2026-09-03 00:15:34 | 41.18494 | 2.32325 | 97° | 9km/h | 20344m | -15.9m/s | 0°C | 0% | 0hPa | 0V | 00:00:00 | 00:00:00 | 00:00:00 | |
| EA3IBE | 2026-09-03 00:15:32 | 41.18495 | 2.32317 | 96° | 15km/h | 20373m | -12.6m/s | 0°C | 0% | 0hPa | 0V | 00:00:00 | 00:00:00 | 00:00:00 | |
| EA3GEO | 2026-09-03 00:15:29 | 41.18498 | 2.32303 | 128° | 16km/h | 20417m | -15.9m/s | 0°C | 0% | 0hPa | 0V | 00:00:00 | 00:00:00 | 00:00:00 | |
| EA3GEO | 2026-09-03 00:15:23 | 41.18507 | 2.32282 | 131° | 16km/h | 20516m | -16.6m/s | 0°C | 0% | 0hPa | 0V | 00:00:00 | 00:00:00 | 00:00:00 | |
| EA3IBE | 2026-09-03 00:15:17 | 41.18525 | 2.32247 | 140° | 24km/h | 20629m | -14.0m/s | 0°C | 0% | 0hPa | 0V | 00:00:00 | 00:00:00 | 00:00:00 | |
| EA3IBE | 2026-09-03 00:15:07 | 41.18555 | 2.32220 | 142° | 7km/h | 20782m | -14.8m/s | 0°C | 0% | 0hPa | 0V | 00:00:00 | 00:00:00 | 00:00:00 | |
| EA3IBE | 2026-09-03 00:14:55 | 41.18588 | 2.32187 | 152° | 18km/h | 20957m | -13.8m/s | 0°C | 0% | 0hPa | 0V | 00:00:00 | 00:00:00 | 00:00:00 | |
| EA3GEO | 2026-09-03 00:14:49 | 41.18614 | 2.32181 | 182° | 18km/h | 21053m | -18.0m/s | 0°C | 0% | 0hPa | 0V | 00:00:00 | 00:00:00 | 00:00:00 | |
| EA3IBE | 2026-09-03 00:14:47 | 41.18622 | 2.32181 | 176° | 15km/h | 21090m | -17.7m/s | 0°C | 0% | 0hPa | 0V | 00:00:00 | 00:00:00 | 00:00:00 | |
| EA3IBE | 2026-09-03 00:14:41 | 41.18636 | 2.32168 | 138° | 15km/h | 21214m | -21.1m/s | 0°C | 0% | 0hPa | 0V | 00:00:00 | 00:00:00 | 00:00:00 | |
| EA3GEO | 2026-09-03 00:14:25 | 41.18675 | 2.32123 | 119° | 13km/h | 21510m | -15.4m/s | 0°C | 0% | 0hPa | 0V | 00:00:00 | 00:00:00 | 00:00:00 | |
| EA3IBE | 2026-09-03 00:14:24 | 41.18676 | 2.32119 | 116° | 11km/h | 21524m | -12.4m/s | 0°C | 0% | 0hPa | 0V | 00:00:00 | 00:00:00 | 00:00:00 | |
| EA3GEO | 2026-09-03 00:14:19 | 41.18686 | 2.32113 | 184° | 4km/h | 21592m | -15.6m/s | 0°C | 0% | 0hPa | 0V | 00:00:00 | 00:00:00 | 00:00:00 | |
| EA3GEO | 2026-09-03 00:14:14 | 41.18697 | 2.32116 | 194° | 13km/h | 21670m | -15.7m/s | 0°C | 0% | 0hPa | 0V | 00:00:00 | 00:00:00 | 00:00:00 | |
| EA3GEO | 2026-09-03 00:14:08 | 41.18705 | 2.32124 | 290° | 7km/h | 21758m | -14.0m/s | 0°C | 0% | 0hPa | 0V | 00:00:00 | 00:00:00 | 00:00:00 | |
| EA3GEO | 2026-09-03 00:14:03 | 41.18705 | 2.32138 | 267° | 11km/h | 21838m | -14.5m/s | 0°C | 0% | 0hPa | 0V | 00:00:00 | 00:00:00 | 00:00:00 | |
| EA3GEO | 2026-09-03 00:13:57 | 41.18698 | 2.32155 | 335° | 7km/h | 21933m | -13.9m/s | 0°C | 0% | 0hPa | 0V | 00:00:00 | 00:00:00 | 00:00:00 | |
| EA3GEO | 2026-09-03 00:13:51 | 41.18692 | 2.32154 | 296° | 4km/h | 22042m | -22.6m/s | 0°C | 0% | 0hPa | 0V | 00:00:00 | 00:00:00 | 00:00:00 | |
| EA3GEO | 2026-09-03 00:13:45 | 41.18683 | 2.32164 | 339° | 13km/h | 22137m | -12.4m/s | 0°C | 0% | 0hPa | 0V | 00:00:00 | 00:00:00 | 00:00:00 | |
| EA3IBE | 2026-09-03 00:13:44 | 41.18680 | 2.32166 | 331° | 15km/h | 22148m | -9.4m/s | 0°C | 0% | 0hPa | 0V | 00:00:00 | 00:00:00 | 00:00:00 | |
| EA3GEO | 2026-09-03 00:13:39 | 41.18669 | 2.32175 | 285° | 2km/h | 22223m | -18.4m/s | 0°C | 0% | 0hPa | 0V | 00:00:00 | 00:00:00 | 00:00:00 | |
| EA3IBE | 2026-09-03 00:13:37 | 41.18670 | 2.32176 | 226° | 4km/h | 22258m | -16.8m/s | 0°C | 0% | 0hPa | 0V | 00:00:00 | 00:00:00 | 00:00:00 | |
| EA3GEO | 2026-09-03 00:13:34 | 41.18674 | 2.32179 | 200° | 9km/h | 22313m | -17.1m/s | 0°C | 0% | 0hPa | 0V | 00:00:00 | 00:00:00 | 00:00:00 | |
| EA3IBE | 2026-09-03 00:13:30 | 41.18682 | 2.32184 | 209° | 9km/h | 22381m | -14.0m/s | 0°C | 0% | 0hPa | 0V | 00:00:00 | 00:00:00 | 00:00:00 | |
| EA3GEO | 2026-09-03 00:13:29 | 41.18685 | 2.32186 | 219° | 13km/h | 22397m | -17.0m/s | 0°C | 0% | 0hPa | 0V | 00:00:00 | 00:00:00 | 00:00:00 | |
| EA3GEO | 2026-09-03 00:13:19 | 41.18699 | 2.32218 | 271° | 11km/h | 22551m | -15.8m/s | 0°C | 0% | 0hPa | 0V | 00:00:00 | 00:00:00 | 00:00:00 | |
| EA3GEO | 2026-09-03 00:13:14 | 41.18704 | 2.32240 | 213° | 16km/h | 22652m | -17.4m/s | 0°C | 0% | 0hPa | 0V | 00:00:00 | 00:00:00 | 00:00:00 | |
| EA3GEO | 2026-09-03 00:13:04 | 41.18738 | 2.32278 | 245° | 27km/h | 22798m | -17.8m/s | 0°C | 0% | 0hPa | 0V | 00:00:00 | 00:00:00 | 00:00:00 | |
| EA3IBE | 2026-09-03 00:12:44 | 41.18752 | 2.32465 | 271° | 24km/h | 23140m | -14.9m/s | 0°C | 0% | 0hPa | 0V | 00:00:00 | 00:00:00 | 00:00:00 | |
| EA3GEO | 2026-09-03 00:12:32 | 41.18745 | 2.32542 | 266° | 11km/h | 23343m | -18.8m/s | 0°C | 0% | 0hPa | 0V | 00:00:00 | 00:00:00 | 00:00:00 | |
| EA3IBE | 2026-09-03 00:12:29 | 41.18748 | 2.32553 | 269° | 13km/h | 23397m | -18.0m/s | 0°C | 0% | 0hPa | 0V | 00:00:00 | 00:00:00 | 00:00:00 | |
| EA3GEO | 2026-09-03 00:12:25 | 41.18747 | 2.32558 | 7° | 4km/h | 23477m | -18.1m/s | 0°C | 0% | 0hPa | 0V | 00:00:00 | 00:00:00 | 00:00:00 | |
| EA3GEO | 2026-09-03 00:12:19 | 41.18743 | 2.32556 | 133° | 2km/h | 23574m | -17.2m/s | 0°C | 0% | 0hPa | 0V | 00:00:00 | 00:00:00 | 00:00:00 | |
| EA3GEO | 2026-09-03 00:12:14 | 41.18740 | 2.32558 | 323° | 11km/h | 23664m | -13.9m/s | 0°C | 0% | 0hPa | 0V | 00:00:00 | 00:00:00 | 00:00:00 | |
| EA3GEO | 2026-09-03 00:12:08 | 41.18736 | 2.32578 | 233° | 9km/h | 23761m | -13.8m/s | 0°C | 0% | 0hPa | 0V | 00:00:00 | 00:00:00 | 00:00:00 | |
| EA3GEO | 2026-09-03 00:12:01 | 41.18755 | 2.32608 | 242° | 16km/h | 23864m | -13.5m/s | 0°C | 0% | 0hPa | 0V | 00:00:00 | 00:00:00 | 00:00:00 | |
| EA3IBE | 2026-09-03 00:11:56 | 41.18756 | 2.32617 | 197° | 2km/h | 23948m | -15.7m/s | 0°C | 0% | 0hPa | 0V | 00:00:00 | 00:00:00 | 00:00:00 | |
| EA3GEO | 2026-09-03 00:11:55 | 41.18757 | 2.32617 | 164° | 5km/h | 23963m | -16.0m/s | 0°C | 0% | 0hPa | 0V | 00:00:00 | 00:00:00 | 00:00:00 | |
| EA3GEO | 2026-09-03 00:11:50 | 41.18766 | 2.32619 | 201° | 5km/h | 24040m | -11.3m/s | 0°C | 0% | 0hPa | 0V | 00:00:00 | 00:00:00 | 00:00:00 | |
| EA3GEO | 2026-09-03 00:11:43 | 41.18773 | 2.32629 | 221° | 11km/h | 24046m | 5.0m/s | 0°C | 0% | 0hPa | 0V | 00:00:00 | 00:00:00 | 00:00:00 | |
| EA3IBE | 2026-09-03 00:11:37 | 41.18784 | 2.32614 | 6° | 5km/h | 24013m | 5.4m/s | 0°C | 0% | 0hPa | 0V | 00:00:00 | 00:00:00 | 00:00:00 | |
| EA3GEO | 2026-09-03 00:11:36 | 41.18784 | 2.32615 | 284° | 7km/h | 24007m | 6.1m/s | 0°C | 0% | 0hPa | 0V | 00:00:00 | 00:00:00 | 00:00:00 | |
| EA3GEO | 2026-09-03 00:11:30 | 41.18785 | 2.32628 | 150° | 9km/h | 23973m | 6.2m/s | 0°C | 0% | 0hPa | 0V | 00:00:00 | 00:00:00 | 00:00:00 | |
| EA3GEO | 2026-09-03 00:11:23 | 41.18790 | 2.32640 | 248° | 20km/h | 23936m | 3.9m/s | 0°C | 0% | 0hPa | 0V | 00:00:00 | 00:00:00 | 00:00:00 | |
| EA3GEO | 2026-09-03 00:11:16 | 41.18796 | 2.32662 | 221° | 11km/h | 23899m | 5.6m/s | 0°C | 0% | 0hPa | 0V | 00:00:00 | 00:00:00 | 00:00:00 | |
| EA3GEO | 2026-09-03 00:11:10 | 41.18810 | 2.32680 | 252° | 13km/h | 23867m | 6.5m/s | 0°C | 0% | 0hPa | 0V | 00:00:00 | 00:00:00 | 00:00:00 | |
| EA3GEO | 2026-09-03 00:11:04 | 41.18820 | 2.32709 | 225° | 15km/h | 23834m | 6.6m/s | 0°C | 0% | 0hPa | 0V | 00:00:00 | 00:00:00 | 00:00:00 | |
| EA3GEO | 2026-09-03 00:10:58 | 41.18833 | 2.32724 | 262° | 9km/h | 23801m | 5.1m/s | 0°C | 0% | 0hPa | 0V | 00:00:00 | 00:00:00 | 00:00:00 | |
| EA3GEO | 2026-09-03 00:10:53 | 41.18845 | 2.32749 | 245° | 15km/h | 23775m | 6.5m/s | 0°C | 0% | 0hPa | 0V | 00:00:00 | 00:00:00 | 00:00:00 | |
| EA3GEO | 2026-09-03 00:10:48 | 41.18846 | 2.32764 | 257° | 11km/h | 23746m | 4.0m/s | 0°C | 0% | 0hPa | 0V | 00:00:00 | 00:00:00 | 00:00:00 | |
| EA3GEO | 2026-09-03 00:10:40 | 41.18842 | 2.32784 | 319° | 13km/h | 23702m | 4.8m/s | 0°C | 0% | 0hPa | 0V | 00:00:00 | 00:00:00 | 00:00:00 | |
| EA3GEO | 2026-09-03 00:10:35 | 41.18838 | 2.32797 | 307° | 5km/h | 23674m | 6.4m/s | 0°C | 0% | 0hPa | 0V | 00:00:00 | 00:00:00 | 00:00:00 | |
| EA3GEO | 2026-09-03 00:10:28 | 41.18835 | 2.32817 | 344° | 7km/h | 23637m | 6.4m/s | 0°C | 0% | 0hPa | 0V | 00:00:00 | 00:00:00 | 00:00:00 | |
| EA3IBE | 2026-09-03 00:10:26 | 41.18830 | 2.32815 | 38° | 9km/h | 23625m | 6.6m/s | 0°C | 0% | 0hPa | 0V | 00:00:00 | 00:00:00 | 00:00:00 | |
| EA3GEO | 2026-09-03 00:10:22 | 41.18826 | 2.32813 | 290° | 9km/h | 23603m | 5.1m/s | 0°C | 0% | 0hPa | 0V | 00:00:00 | 00:00:00 | 00:00:00 | |
| EA3GEO | 2026-09-03 00:10:17 | 41.18827 | 2.32830 | 6° | 13km/h | 23577m | 6.1m/s | 0°C | 0% | 0hPa | 0V | 00:00:00 | 00:00:00 | 00:00:00 | |
| EA3IBE | 2026-09-03 00:10:12 | 41.18818 | 2.32813 | 195° | 5km/h | 23551m | 4.9m/s | 0°C | 0% | 0hPa | 0V | 00:00:00 | 00:00:00 | 00:00:00 | |
| EA3GEO | 2026-09-03 00:10:11 | 41.18819 | 2.32815 | 262° | 7km/h | 23545m | 6.3m/s | 0°C | 0% | 0hPa | 0V | 00:00:00 | 00:00:00 | 00:00:00 | |
| EA3IBE | 2026-09-03 00:10:07 | 41.18814 | 2.32822 | 51° | 9km/h | 23524m | 5.5m/s | 0°C | 0% | 0hPa | 0V | 00:00:00 | 00:00:00 | 00:00:00 | |
| EA3GEO | 2026-09-03 00:10:05 | 41.18810 | 2.32816 | 38° | 15km/h | 23513m | 5.7m/s | 0°C | 0% | 0hPa | 0V | 00:00:00 | 00:00:00 | 00:00:00 | |
| EA3IBE | 2026-09-03 00:10:01 | 41.18808 | 2.32817 | 215° | 15km/h | 23492m | 4.6m/s | 0°C | 0% | 0hPa | 0V | 00:00:00 | 00:00:00 | 00:00:00 | |
| EA3GEO | 2026-09-03 00:10:00 | 41.18811 | 2.32820 | 236° | 15km/h | 23488m | 3.9m/s | 0°C | 0% | 0hPa | 0V | 00:00:00 | 00:00:00 | 00:00:00 | |
| EA3IBE | 2026-09-03 00:09:55 | 41.18805 | 2.32836 | 0° | 0km/h | 23461m | 5.5m/s | 0°C | 0% | 0hPa | 0V | 00:00:00 | 00:00:00 | 00:00:00 | |
| EA3GEO | 2026-09-03 00:09:54 | 41.18805 | 2.32836 | 162° | 7km/h | 23456m | 4.6m/s | 0°C | 0% | 0hPa | 0V | 00:00:00 | 00:00:00 | 00:00:00 | |
| EA3GEO | 2026-09-03 00:09:50 | 41.18809 | 2.32845 | 297° | 5km/h | 23430m | 6.1m/s | 0°C | 0% | 0hPa | 0V | 00:00:00 | 00:00:00 | 00:00:00 | |
| EA3IBE | 2026-09-03 00:09:43 | 41.18803 | 2.32860 | 247° | 7km/h | 23396m | 5.9m/s | 0°C | 0% | 0hPa | 0V | 00:00:00 | 00:00:00 | 00:00:00 | |
| EA3IBE | 2026-09-03 00:09:38 | 41.18805 | 2.32882 | 279° | 16km/h | 23370m | 5.0m/s | 0°C | 0% | 0hPa | 0V | 00:00:00 | 00:00:00 | 00:00:00 | |
| EA3GEO | 2026-09-03 00:09:37 | 41.18805 | 2.32887 | 273° | 13km/h | 23364m | 6.2m/s | 0°C | 0% | 0hPa | 0V | 00:00:00 | 00:00:00 | 00:00:00 | |
| EA3GEO | 2026-09-03 00:09:31 | 41.18805 | 2.32918 | 280° | 15km/h | 23333m | 6.4m/s | 0°C | 0% | 0hPa | 0V | 00:00:00 | 00:00:00 | 00:00:00 | |
| EA3IBE | 2026-09-03 00:09:29 | 41.18802 | 2.32927 | 304° | 15km/h | 23322m | 5.7m/s | 0°C | 0% | 0hPa | 0V | 00:00:00 | 00:00:00 | 00:00:00 | |
| EA3GEO | 2026-09-03 00:09:26 | 41.18795 | 2.32941 | 303° | 15km/h | 23305m | 6.1m/s | 0°C | 0% | 0hPa | 0V | 00:00:00 | 00:00:00 | 00:00:00 | |
| EA3IBE | 2026-09-03 00:09:24 | 41.18792 | 2.32949 | 280° | 16km/h | 23295m | 4.1m/s | 0°C | 0% | 0hPa | 0V | 00:00:00 | 00:00:00 | 00:00:00 | |
| EA3GEO | 2026-09-03 00:09:21 | 41.18788 | 2.32974 | 284° | 31km/h | 23278m | 4.6m/s | 0°C | 0% | 0hPa | 0V | 00:00:00 | 00:00:00 | 00:00:00 | |
| EA3IBE | 2026-09-03 00:09:19 | 41.18779 | 2.32999 | 314° | 18km/h | 23257m | 6.5m/s | 0°C | 0% | 0hPa | 0V | 00:00:00 | 00:00:00 | 00:00:00 | |
| EA3GEO | 2026-09-03 00:09:15 | 41.18773 | 2.33011 | 298° | 26km/h | 23246m | 4.6m/s | 0°C | 0% | 0hPa | 0V | 00:00:00 | 00:00:00 | 00:00:00 | |
| EA3IBE | 2026-09-03 00:09:12 | 41.18770 | 2.33033 | 265° | 24km/h | 23230m | 4.3m/s | 0°C | 0% | 0hPa | 0V | 00:00:00 | 00:00:00 | 00:00:00 | |
| EA3GEO | 2026-09-03 00:09:10 | 41.18772 | 2.33051 | 271° | 31km/h | 23219m | 5.6m/s | 0°C | 0% | 0hPa | 0V | 00:00:00 | 00:00:00 | 00:00:00 | |
| EA3IBE | 2026-09-03 00:09:06 | 41.18768 | 2.33081 | 294° | 15km/h | 23197m | 5.0m/s | 0°C | 0% | 0hPa | 0V | 00:00:00 | 00:00:00 | 00:00:00 | |
| EA3IBE | 2026-09-03 00:08:59 | 41.18761 | 2.33137 | 274° | 37km/h | 23159m | 6.3m/s | 0°C | 0% | 0hPa | 0V | 00:00:00 | 00:00:00 | 00:00:00 | |
| EA3IBE | 2026-09-03 00:08:52 | 41.18750 | 2.33198 | 281° | 27km/h | 23120m | 4.7m/s | 0°C | 0% | 0hPa | 0V | 00:00:00 | 00:00:00 | 00:00:00 | |
| EA3IBE | 2026-09-03 00:08:44 | 41.18740 | 2.33277 | 278° | 15km/h | 23077m | 5.1m/s | 0°C | 0% | 0hPa | 0V | 00:00:00 | 00:00:00 | 00:00:00 | |
| EA3IBE | 2026-09-03 00:08:38 | 41.18739 | 2.33338 | 271° | 35km/h | 23047m | 5.5m/s | 0°C | 0% | 0hPa | 0V | 00:00:00 | 00:00:00 | 00:00:00 | |
| EA3GEO | 2026-09-03 00:08:35 | 41.18740 | 2.33366 | 268° | 26km/h | 23032m | 6.0m/s | 0°C | 0% | 0hPa | 0V | 00:00:00 | 00:00:00 | 00:00:00 | |
| EA3IBE | 2026-09-03 00:08:31 | 41.18738 | 2.33400 | 284° | 22km/h | 23011m | 5.7m/s | 0°C | 0% | 0hPa | 0V | 00:00:00 | 00:00:00 | 00:00:00 | |
| EA3GEO | 2026-09-03 00:08:29 | 41.18736 | 2.33417 | 279° | 31km/h | 23002m | 4.3m/s | 0°C | 0% | 0hPa | 0V | 00:00:00 | 00:00:00 | 00:00:00 | |
| EA3IBE | 2026-09-03 00:08:25 | 41.18741 | 2.33469 | 248° | 37km/h | 22981m | 5.5m/s | 0°C | 0% | 0hPa | 0V | 00:00:00 | 00:00:00 | 00:00:00 | |
| EA3GEO | 2026-09-03 00:08:24 | 41.18743 | 2.33478 | 245° | 22km/h | 22976m | 5.1m/s | 0°C | 0% | 0hPa | 0V | 00:00:00 | 00:00:00 | 00:00:00 | |
| EA3IBE | 2026-09-03 00:08:20 | 41.18742 | 2.33501 | 278° | 26km/h | 22956m | 4.6m/s | 0°C | 0% | 0hPa | 0V | 00:00:00 | 00:00:00 | 00:00:00 | |
| EA3GEO | 2026-09-03 00:08:19 | 41.18742 | 2.33510 | 262° | 29km/h | 22951m | 5.9m/s | 0°C | 0% | 0hPa | 0V | 00:00:00 | 00:00:00 | 00:00:00 | |
| EA3IBE | 2026-09-03 00:08:12 | 41.18752 | 2.33585 | 263° | 31km/h | 22914m | 6.0m/s | 0°C | 0% | 0hPa | 0V | 00:00:00 | 00:00:00 | 00:00:00 | |
| EA3IBE | 2026-09-03 00:08:07 | 41.18761 | 2.33630 | 250° | 26km/h | 22887m | 5.7m/s | 0°C | 0% | 0hPa | 0V | 00:00:00 | 00:00:00 | 00:00:00 | |
| EA3GEO | 2026-09-03 00:08:03 | 41.18771 | 2.33664 | 269° | 26km/h | 22867m | 6.9m/s | 0°C | 0% | 0hPa | 0V | 00:00:00 | 00:00:00 | 00:00:00 | |
| EA3IBE | 2026-09-03 00:07:57 | 41.18783 | 2.33720 | 237° | 42km/h | 22836m | 4.0m/s | 0°C | 0% | 0hPa | 0V | 00:00:00 | 00:00:00 | 00:00:00 | |
| EA3IBE | 2026-09-03 00:07:50 | 41.18801 | 2.33768 | 251° | 24km/h | 22795m | 4.4m/s | 0°C | 0% | 0hPa | 0V | 00:00:00 | 00:00:00 | 00:00:00 | |
| EA3GEO | 2026-09-03 00:07:44 | 41.18822 | 2.33794 | 224° | 20km/h | 22769m | 6.7m/s | 0°C | 0% | 0hPa | 0V | 00:00:00 | 00:00:00 | 00:00:00 | |
| EA3GEO | 2026-09-03 00:07:37 | 41.18846 | 2.33831 | 235° | 18km/h | 22731m | 4.6m/s | 0°C | 0% | 0hPa | 0V | 00:00:00 | 00:00:00 | 00:00:00 | |
| EA3IBE | 2026-09-03 00:07:34 | 41.18859 | 2.33842 | 201° | 24km/h | 22716m | 3.9m/s | 0°C | 0% | 0hPa | 0V | 00:00:00 | 00:00:00 | 00:00:00 | |
| EA3GEO | 2026-09-03 00:07:28 | 41.18880 | 2.33864 | 220° | 15km/h | 22684m | 3.2m/s | 0°C | 0% | 0hPa | 0V | 00:00:00 | 00:00:00 | 00:00:00 | |
| EA3GEO | 2026-09-03 00:07:23 | 41.18892 | 2.33893 | 225° | 22km/h | 22659m | 5.7m/s | 0°C | 0% | 0hPa | 0V | 00:00:00 | 00:00:00 | 00:00:00 | |
| EA3IBE | 2026-09-03 00:07:22 | 41.18895 | 2.33897 | 217° | 16km/h | 22655m | 3.8m/s | 0°C | 0% | 0hPa | 0V | 00:00:00 | 00:00:00 | 00:00:00 | |
| EA3IBE | 2026-09-03 00:07:10 | 41.18903 | 2.33938 | 267° | 15km/h | 22592m | 3.6m/s | 0°C | 0% | 0hPa | 0V | 00:00:00 | 00:00:00 | 00:00:00 | |
| EA3GEO | 2026-09-03 00:07:08 | 41.18901 | 2.33948 | 306° | 16km/h | 22582m | 5.6m/s | 0°C | 0% | 0hPa | 0V | 00:00:00 | 00:00:00 | 00:00:00 | |
| EA3IBE | 2026-09-03 00:07:05 | 41.18897 | 2.33953 | 145° | 5km/h | 22566m | 6.5m/s | 0°C | 0% | 0hPa | 0V | 00:00:00 | 00:00:00 | 00:00:00 | |
| EA3GEO | 2026-09-03 00:07:02 | 41.18902 | 2.33951 | 258° | 2km/h | 22551m | 5.8m/s | 0°C | 0% | 0hPa | 0V | 00:00:00 | 00:00:00 | 00:00:00 | |
| EA3IBE | 2026-09-03 00:06:58 | 41.18897 | 2.33967 | 258° | 16km/h | 22530m | 5.5m/s | 0°C | 0% | 0hPa | 0V | 00:00:00 | 00:00:00 | 00:00:00 | |
| EA3GEO | 2026-09-03 00:06:56 | 41.18900 | 2.33975 | 247° | 9km/h | 22520m | 5.4m/s | 0°C | 0% | 0hPa | 0V | 00:00:00 | 00:00:00 | 00:00:00 | |
| EA3GEO | 2026-09-03 00:06:50 | 41.18906 | 2.33989 | 241° | 13km/h | 22487m | 5.9m/s | 0°C | 0% | 0hPa | 0V | 00:00:00 | 00:00:00 | 00:00:00 | |
| EA3GEO | 2026-09-03 00:06:45 | 41.18915 | 2.34004 | 198° | 20km/h | 22461m | 4.4m/s | 0°C | 0% | 0hPa | 0V | 00:00:00 | 00:00:00 | 00:00:00 | |
| EA3GEO | 2026-09-03 00:06:40 | 41.18926 | 2.34012 | 238° | 7km/h | 22435m | 6.0m/s | 0°C | 0% | 0hPa | 0V | 00:00:00 | 00:00:00 | 00:00:00 | |
| EA3GEO | 2026-09-03 00:06:34 | 41.18939 | 2.34025 | 200° | 16km/h | 22406m | 5.6m/s | 0°C | 0% | 0hPa | 0V | 00:00:00 | 00:00:00 | 00:00:00 | |
| EA3IBE | 2026-09-03 00:06:29 | 41.18955 | 2.34030 | 281° | 4km/h | 22380m | 4.7m/s | 0°C | 0% | 0hPa | 0V | 00:00:00 | 00:00:00 | 00:00:00 | |
| EA3GEO | 2026-09-03 00:06:28 | 41.18955 | 2.34032 | 272° | 11km/h | 22374m | 6.2m/s | 0°C | 0% | 0hPa | 0V | 00:00:00 | 00:00:00 | 00:00:00 | |
| EA3GEO | 2026-09-03 00:06:23 | 41.18959 | 2.34053 | 169° | 7km/h | 22348m | 5.6m/s | 0°C | 0% | 0hPa | 0V | 00:00:00 | 00:00:00 | 00:00:00 | |
| EA3IBE | 2026-09-03 00:06:22 | 41.18962 | 2.34052 | 157° | 13km/h | 22342m | 6.5m/s | 0°C | 0% | 0hPa | 0V | 00:00:00 | 00:00:00 | 00:00:00 | |
| EA3GEO | 2026-09-03 00:06:18 | 41.18972 | 2.34047 | 152° | 4km/h | 22323m | 5.0m/s | 0°C | 0% | 0hPa | 0V | 00:00:00 | 00:00:00 | 00:00:00 | |
| EA3IBE | 2026-09-03 00:06:15 | 41.18977 | 2.34051 | 208° | 15km/h | 22307m | 4.8m/s | 0°C | 0% | 0hPa | 0V | 00:00:00 | 00:00:00 | 00:00:00 | |
| EA3GEO | 2026-09-03 00:06:13 | 41.18982 | 2.34052 | 168° | 7km/h | 22298m | 6.2m/s | 0°C | 0% | 0hPa | 0V | 00:00:00 | 00:00:00 | 00:00:00 | |
| EA3IBE | 2026-09-03 00:06:09 | 41.18986 | 2.34045 | 178° | 7km/h | 22277m | 5.1m/s | 0°C | 0% | 0hPa | 0V | 00:00:00 | 00:00:00 | 00:00:00 | |
| EA3GEO | 2026-09-03 00:06:07 | 41.18990 | 2.34047 | 233° | 5km/h | 22267m | 6.1m/s | 0°C | 0% | 0hPa | 0V | 00:00:00 | 00:00:00 | 00:00:00 | |
| EA3IBE | 2026-09-03 00:06:04 | 41.18989 | 2.34054 | 280° | 9km/h | 22251m | 5.6m/s | 0°C | 0% | 0hPa | 0V | 00:00:00 | 00:00:00 | 00:00:00 | |
| EA3GEO | 2026-09-03 00:06:01 | 41.18990 | 2.34059 | 76° | 2km/h | 22236m | 6.3m/s | 0°C | 0% | 0hPa | 0V | 00:00:00 | 00:00:00 | 00:00:00 | |
| EA3IBE | 2026-09-03 00:05:57 | 41.18985 | 2.34050 | 352° | 2km/h | 22215m | 5.1m/s | 0°C | 0% | 0hPa | 0V | 00:00:00 | 00:00:00 | 00:00:00 | |
| EA3GEO | 2026-09-03 00:05:56 | 41.18984 | 2.34051 | 306° | 7km/h | 22210m | 4.8m/s | 0°C | 0% | 0hPa | 0V | 00:00:00 | 00:00:00 | 00:00:00 | |
| EA3IBE | 2026-09-03 00:05:50 | 41.18969 | 2.34064 | 18° | 5km/h | 22179m | 4.8m/s | 0°C | 0% | 0hPa | 0V | 00:00:00 | 00:00:00 | 00:00:00 | |
| EA3GEO | 2026-09-03 00:05:45 | 41.18951 | 2.34066 | 311° | 16km/h | 22153m | 5.1m/s | 0°C | 0% | 0hPa | 0V | 00:00:00 | 00:00:00 | 00:00:00 | |
| EA3IBE | 2026-09-03 00:05:41 | 41.18938 | 2.34076 | 352° | 15km/h | 22133m | 4.5m/s | 0°C | 0% | 0hPa | 0V | 00:00:00 | 00:00:00 | 00:00:00 | |
| EA3GEO | 2026-09-03 00:05:40 | 41.18935 | 2.34077 | 340° | 11km/h | 22128m | 6.3m/s | 0°C | 0% | 0hPa | 0V | 00:00:00 | 00:00:00 | 00:00:00 | |
| EA3GEO | 2026-09-03 00:05:34 | 41.18925 | 2.34084 | 334° | 11km/h | 22096m | 6.1m/s | 0°C | 0% | 0hPa | 0V | 00:00:00 | 00:00:00 | 00:00:00 | |
| EA3IBE | 2026-09-03 00:05:31 | 41.18919 | 2.34093 | 321° | 11km/h | 22081m | 5.8m/s | 0°C | 0% | 0hPa | 0V | 00:00:00 | 00:00:00 | 00:00:00 | |
| EA3GEO | 2026-09-03 00:05:28 | 41.18914 | 2.34093 | 86° | 4km/h | 22064m | 6.4m/s | 0°C | 0% | 0hPa | 0V | 00:00:00 | 00:00:00 | 00:00:00 | |
| EA3GEO | 2026-09-03 00:05:22 | 41.18910 | 2.34090 | 299° | 9km/h | 22033m | 6.3m/s | 0°C | 0% | 0hPa | 0V | 00:00:00 | 00:00:00 | 00:00:00 | |
| EA3GEO | 2026-09-03 00:05:16 | 41.18904 | 2.34087 | 86° | 7km/h | 22001m | 5.2m/s | 0°C | 0% | 0hPa | 0V | 00:00:00 | 00:00:00 | 00:00:00 | |
| EA3IBE | 2026-09-03 00:05:14 | 41.18901 | 2.34083 | 13° | 7km/h | 21986m | 5.1m/s | 0°C | 0% | 0hPa | 0V | 00:00:00 | 00:00:00 | 00:00:00 | |
| EA3GEO | 2026-09-03 00:05:10 | 41.18897 | 2.34088 | 266° | 9km/h | 21971m | 4.8m/s | 0°C | 0% | 0hPa | 0V | 00:00:00 | 00:00:00 | 00:00:00 | |
| EA3GEO | 2026-09-03 00:05:04 | 41.18891 | 2.34083 | 330° | 5km/h | 21942m | 5.8m/s | 0°C | 0% | 0hPa | 0V | 00:00:00 | 00:00:00 | 00:00:00 | |
| EA3IBE | 2026-09-03 00:05:01 | 41.18890 | 2.34087 | 0° | 0km/h | 21927m | 5.7m/s | 0°C | 0% | 0hPa | 0V | 00:00:00 | 00:00:00 | 00:00:00 | |
| EA3GEO | 2026-09-03 00:04:59 | 41.18889 | 2.34088 | 311° | 4km/h | 21917m | 5.1m/s | 0°C | 0% | 0hPa | 0V | 00:00:00 | 00:00:00 | 00:00:00 | |
| EA3GEO | 2026-09-03 00:04:53 | 41.18879 | 2.34106 | 308° | 15km/h | 21886m | 6.6m/s | 0°C | 0% | 0hPa | 0V | 00:00:00 | 00:00:00 | 00:00:00 | |
| EA3IBE | 2026-09-03 00:04:50 | 41.18875 | 2.34118 | 281° | 9km/h | 21870m | 5.9m/s | 0°C | 0% | 0hPa | 0V | 00:00:00 | 00:00:00 | 00:00:00 | |
| EA3GEO | 2026-09-03 00:04:48 | 41.18875 | 2.34124 | 271° | 11km/h | 21860m | 5.6m/s | 0°C | 0% | 0hPa | 0V | 00:00:00 | 00:00:00 | 00:00:00 | |
| EA3GEO | 2026-09-03 00:04:43 | 41.18871 | 2.34148 | 306° | 9km/h | 21830m | 5.1m/s | 0°C | 0% | 0hPa | 0V | 00:00:00 | 00:00:00 | 00:00:00 | |
| EA3GEO | 2026-09-03 00:04:37 | 41.18871 | 2.34164 | 242° | 7km/h | 21798m | 6.0m/s | 0°C | 0% | 0hPa | 0V | 00:00:00 | 00:00:00 | 00:00:00 | |
| EA3IBE | 2026-09-03 00:04:34 | 41.18871 | 2.34169 | 300° | 7km/h | 21788m | 4.3m/s | 0°C | 0% | 0hPa | 0V | 00:00:00 | 00:00:00 | 00:00:00 | |
| EA3GEO | 2026-09-03 00:04:32 | 41.18868 | 2.34171 | 320° | 5km/h | 21767m | 5.4m/s | 0°C | 0% | 0hPa | 0V | 00:00:00 | 00:00:00 | 00:00:00 | |
| EA3GEO | 2026-09-03 00:04:25 | 41.18878 | 2.34176 | 207° | 15km/h | 21742m | 6.0m/s | 0°C | 0% | 0hPa | 0V | 00:00:00 | 00:00:00 | 00:00:00 | |
| EA3GEO | 2026-09-03 00:04:19 | 41.18888 | 2.34179 | 84° | 4km/h | 21713m | 4.9m/s | 0°C | 0% | 0hPa | 0V | 00:00:00 | 00:00:00 | 00:00:00 | |
| EA3GEO | 2026-09-03 00:04:14 | 41.18896 | 2.34182 | 191° | 11km/h | 21685m | 5.7m/s | 0°C | 0% | 0hPa | 0V | 00:00:00 | 00:00:00 | 00:00:00 | |
| EA3GEO | 2026-09-03 00:04:10 | 41.18905 | 2.34181 | 245° | 5km/h | 21654m | 5.5m/s | 0°C | 0% | 0hPa | 0V | 00:00:00 | 00:00:00 | 00:00:00 | |
| EA3GEO | 2026-09-03 00:04:02 | 41.18918 | 2.34183 | 162° | 13km/h | 21629m | 5.9m/s | 0°C | 0% | 0hPa | 0V | 00:00:00 | 00:00:00 | 00:00:00 | |
| EA3GEO | 2026-09-03 00:03:57 | 41.18927 | 2.34181 | 254° | 9km/h | 21604m | 6.7m/s | 0°C | 0% | 0hPa | 0V | 00:00:00 | 00:00:00 | 00:00:00 | |
| EA3IBE | 2026-09-03 00:03:54 | 41.18931 | 2.34188 | 172° | 11km/h | 21590m | 5.8m/s | 0°C | 0% | 0hPa | 0V | 00:00:00 | 00:00:00 | 00:00:00 | |
| EA3GEO | 2026-09-03 00:03:51 | 41.18941 | 2.34174 | 122° | 18km/h | 21576m | 5.0m/s | 0°C | 0% | 0hPa | 0V | 00:00:00 | 00:00:00 | 00:00:00 | |
| EA3GEO | 2026-09-03 00:03:46 | 41.18945 | 2.34164 | 68° | 9km/h | 21552m | 4.8m/s | 0°C | 0% | 0hPa | 0V | 00:00:00 | 00:00:00 | 00:00:00 | |
| EA3GEO | 2026-09-03 00:03:41 | 41.18949 | 2.34141 | 134° | 22km/h | 21527m | 3.4m/s | 0°C | 0% | 0hPa | 0V | 00:00:00 | 00:00:00 | 00:00:00 | |
| EA3IBE | 2026-09-03 00:03:38 | 41.18954 | 2.34117 | 124° | 2km/h | 21502m | 5.5m/s | 0°C | 0% | 0hPa | 0V | 00:00:00 | 00:00:00 | 00:00:00 | |
| EA3GEO | 2026-09-03 00:03:37 | 41.18955 | 2.34117 | 170° | 4km/h | 21497m | 4.0m/s | 0°C | 0% | 0hPa | 0V | 00:00:00 | 00:00:00 | 00:00:00 | |
| EA3GEO | 2026-09-03 00:03:30 | 41.18961 | 2.34102 | 146° | 18km/h | 21474m | 5.5m/s | 0°C | 0% | 0hPa | 0V | 00:00:00 | 00:00:00 | 00:00:00 | |
| EA3GEO | 2026-09-03 00:03:24 | 41.18973 | 2.34085 | 219° | 5km/h | 21445m | 5.4m/s | 0°C | 0% | 0hPa | 0V | 00:00:00 | 00:00:00 | 00:00:00 | |
| EA3GEO | 2026-09-03 00:03:19 | 41.18986 | 2.34082 | 153° | 15km/h | 21420m | 5.8m/s | 0°C | 0% | 0hPa | 0V | 00:00:00 | 00:00:00 | 00:00:00 | |
| EA3GEO | 2026-09-03 00:03:13 | 41.19002 | 2.34076 | 207° | 13km/h | 21389m | 4.9m/s | 0°C | 0% | 0hPa | 0V | 00:00:00 | 00:00:00 | 00:00:00 | |
| EA3GEO | 2026-09-03 00:03:08 | 41.19013 | 2.34067 | 128° | 15km/h | 21365m | 5.8m/s | 0°C | 0% | 0hPa | 0V | 00:00:00 | 00:00:00 | 00:00:00 | |
| EA3GEO | 2026-09-03 00:02:58 | 41.19117 | 2.33976 | 195° | 7km/h | 21163m | 5.9m/s | 0°C | 0% | 0hPa | 0V | 00:00:00 | 00:00:00 | 00:00:00 | |
| EA3GEO | 2026-09-03 00:02:50 | 41.19128 | 2.33969 | 188° | 16km/h | 21132m | 5.5m/s | 0°C | 0% | 0hPa | 0V | 00:00:00 | 00:00:00 | 00:00:00 | |
| EA3GEO | 2026-09-03 00:02:39 | 41.19153 | 2.33969 | 178° | 16km/h | 21101m | 5.7m/s | 0°C | 0% | 0hPa | 0V | 00:00:00 | 00:00:00 | 00:00:00 | |
| EA3GEO | 2026-09-03 00:02:32 | 41.19177 | 2.33960 | 170° | 20km/h | 21070m | 4.7m/s | 0°C | 0% | 0hPa | 0V | 00:00:00 | 00:00:00 | 00:00:00 | |
| EA3GEO | 2026-09-03 00:02:23 | 41.19210 | 2.33953 | 173° | 24km/h | 21039m | 5.7m/s | 0°C | 0% | 0hPa | 0V | 00:00:00 | 00:00:00 | 00:00:00 | |
| EA3GEO | 2026-09-03 00:02:17 | 41.19234 | 2.33945 | 157° | 22km/h | 21014m | 5.6m/s | 0°C | 0% | 0hPa | 0V | 00:00:00 | 00:00:00 | 00:00:00 | |
| EA3GEO | 2026-09-03 00:02:10 | 41.19267 | 2.33929 | 168° | 31km/h | 20990m | 4.2m/s | 0°C | 0% | 0hPa | 0V | 00:00:00 | 00:00:00 | 00:00:00 | |
| EA3GEO | 2026-09-03 00:02:02 | 41.19286 | 2.33921 | 179° | 9km/h | 20964m | 4.1m/s | 0°C | 0% | 0hPa | 0V | 00:00:00 | 00:00:00 | 00:00:00 | |
| EA3IBE | 2026-09-03 00:02:00 | 41.19295 | 2.33914 | 150° | 24km/h | 20949m | 5.2m/s | 0°C | 0% | 0hPa | 0V | 00:00:00 | 00:00:00 | 00:00:00 | |
| EA3GEO | 2026-09-03 00:01:57 | 41.19308 | 2.33908 | 172° | 29km/h | 20937m | 4.8m/s | 0°C | 0% | 0hPa | 0V | 00:00:00 | 00:00:00 | 00:00:00 | |
| EA3GEO | 2026-09-03 00:01:50 | 41.19333 | 2.33892 | 177° | 9km/h | 20909m | 5.1m/s | 0°C | 0% | 0hPa | 0V | 00:00:00 | 00:00:00 | 00:00:00 | |
| EA3IBE | 2026-09-03 00:01:49 | 41.19336 | 2.33892 | 176° | 13km/h | 20904m | 4.4m/s | 0°C | 0% | 0hPa | 0V | 00:00:00 | 00:00:00 | 00:00:00 | |
| EA3GEO | 2026-09-03 00:01:47 | 41.19351 | 2.33880 | 148° | 18km/h | 20885m | 5.7m/s | 0°C | 0% | 0hPa | 0V | 00:00:00 | 00:00:00 | 00:00:00 | |
| EA3IBE | 2026-09-03 00:01:44 | 41.19360 | 2.33874 | 156° | 20km/h | 20874m | 4.9m/s | 0°C | 0% | 0hPa | 0V | 00:00:00 | 00:00:00 | 00:00:00 | |
| EA3GEO | 2026-09-03 00:01:40 | 41.19377 | 2.33862 | 169° | 15km/h | 20854m | 6.1m/s | 0°C | 0% | 0hPa | 0V | 00:00:00 | 00:00:00 | 00:00:00 | |
| EA3GEO | 2026-09-03 00:01:34 | 41.19397 | 2.33841 | 154° | 24km/h | 20822m | 4.9m/s | 0°C | 0% | 0hPa | 0V | 00:00:00 | 00:00:00 | 00:00:00 | |
| EA3GEO | 2026-09-03 00:01:25 | 41.19414 | 2.33821 | 113° | 11km/h | 20798m | 5.4m/s | 0°C | 0% | 0hPa | 0V | 00:00:00 | 00:00:00 | 00:00:00 | |
| EA3GEO | 2026-09-03 00:01:19 | 41.19419 | 2.33807 | 101° | 11km/h | 20769m | 4.3m/s | 0°C | 0% | 0hPa | 0V | 00:00:00 | 00:00:00 | 00:00:00 | |
| EA3IBE | 2026-09-03 00:01:09 | 41.19438 | 2.33793 | 159° | 20km/h | 20738m | 5.9m/s | 0°C | 0% | 0hPa | 0V | 00:00:00 | 00:00:00 | 00:00:00 | |
| EA3GEO | 2026-09-03 00:01:03 | 41.19448 | 2.33779 | 96° | 7km/h | 20713m | 5.6m/s | 0°C | 0% | 0hPa | 0V | 00:00:00 | 00:00:00 | 00:00:00 | |
| EA3IBE | 2026-09-03 00:00:58 | 41.19452 | 2.33775 | 157° | 16km/h | 20704m | 4.5m/s | 0°C | 0% | 0hPa | 0V | 00:00:00 | 00:00:00 | 00:00:00 | |
| EA3GEO | 2026-09-03 00:00:53 | 41.19479 | 2.33756 | 151° | 33km/h | 20682m | 4.4m/s | 0°C | 0% | 0hPa | 0V | 00:00:00 | 00:00:00 | 00:00:00 | |
| EA3IBE | 2026-09-03 00:00:49 | 41.19500 | 2.33720 | 148° | 22km/h | 20648m | 5.1m/s | 0°C | 0% | 0hPa | 0V | 00:00:00 | 00:00:00 | 00:00:00 | |
| EA3GEO | 2026-09-03 00:00:47 | 41.19522 | 2.33690 | 133° | 29km/h | 20628m | 5.0m/s | 0°C | 0% | 0hPa | 0V | 00:00:00 | 00:00:00 | 00:00:00 | |
| EA3IBE | 2026-09-03 00:00:46 | 41.19526 | 2.33683 | 129° | 26km/h | 20623m | 3.9m/s | 0°C | 0% | 0hPa | 0V | 00:00:00 | 00:00:00 | 00:00:00 | |
| EA3GEO | 2026-09-03 00:00:44 | 41.19538 | 2.33652 | 111° | 26km/h | 20604m | 4.0m/s | 0°C | 0% | 0hPa | 0V | 00:00:00 | 00:00:00 | 00:00:00 | |
| EA3GEO | 2026-09-03 00:00:37 | 41.19554 | 2.33621 | 135° | 33km/h | 20578m | 4.8m/s | 0°C | 0% | 0hPa | 0V | 00:00:00 | 00:00:00 | 00:00:00 | |
| EA3GEO | 2026-09-03 00:00:31 | 41.19576 | 2.33581 | 110° | 20km/h | 20548m | 4.5m/s | 0°C | 0% | 0hPa | 0V | 00:00:00 | 00:00:00 | 00:00:00 | |
| EA3GEO | 2026-09-03 00:00:22 | 41.19592 | 2.33546 | 141° | 24km/h | 20518m | 5.6m/s | 0°C | 0% | 0hPa | 0V | 00:00:00 | 00:00:00 | 00:00:00 | |
| EA3GEO | 2026-09-03 00:00:15 | 41.19605 | 2.33515 | 73° | 11km/h | 20487m | 4.4m/s | 0°C | 0% | 0hPa | 0V | 00:00:00 | 00:00:00 | 00:00:00 | |
| EA3IBE | 2026-09-03 00:00:12 | 41.19606 | 2.33506 | 122° | 20km/h | 20477m | 5.7m/s | 0°C | 0% | 0hPa | 0V | 00:00:00 | 00:00:00 | 00:00:00 | |
| EA3GEO | 2026-09-03 00:00:09 | 41.19623 | 2.33479 | 124° | 22km/h | 20457m | 4.4m/s | 0°C | 0% | 0hPa | 0V | 00:00:00 | 00:00:00 | 00:00:00 | |
| EA3GEO | 2026-09-02 23:59:58 | 41.19652 | 2.33430 | 113° | 16km/h | 20404m | 5.1m/s | 0°C | 0% | 0hPa | 0V | 00:00:00 | 00:00:00 | 00:00:00 | |
| EA3IBE | 2026-09-02 23:59:53 | 41.19656 | 2.33409 | 119° | 13km/h | 20384m | 4.2m/s | 0°C | 0% | 0hPa | 0V | 00:00:00 | 00:00:00 | 00:00:00 | |
| EA3GEO | 2026-09-02 23:59:51 | 41.19659 | 2.33405 | 168° | 11km/h | 20374m | 4.4m/s | 0°C | 0% | 0hPa | 0V | 00:00:00 | 00:00:00 | 00:00:00 | |
| EA3GEO | 2026-09-02 23:59:46 | 41.19673 | 2.33384 | 82° | 16km/h | 20350m | 4.9m/s | 0°C | 0% | 0hPa | 0V | 00:00:00 | 00:00:00 | 00:00:00 | |
| EA3IBE | 2026-09-02 23:59:41 | 41.19673 | 2.33366 | 155° | 2km/h | 20325m | 5.9m/s | 0°C | 0% | 0hPa | 0V | 00:00:00 | 00:00:00 | 00:00:00 | |
| EA3GEO | 2026-09-02 23:59:35 | 41.19684 | 2.33353 | 76° | 11km/h | 20296m | 5.6m/s | 0°C | 0% | 0hPa | 0V | 00:00:00 | 00:00:00 | 00:00:00 | |
| EA3IBE | 2026-09-02 23:59:32 | 41.19684 | 2.33345 | 142° | 13km/h | 20278m | 4.3m/s | 0°C | 0% | 0hPa | 0V | 00:00:00 | 00:00:00 | 00:00:00 | |
| EA3GEO | 2026-09-02 23:59:30 | 41.19687 | 2.33342 | 135° | 13km/h | 20273m | 4.7m/s | 0°C | 0% | 0hPa | 0V | 00:00:00 | 00:00:00 | 00:00:00 | |
| EA3GEO | 2026-09-02 23:59:24 | 41.19695 | 2.33326 | 99° | 15km/h | 20245m | 5.3m/s | 0°C | 0% | 0hPa | 0V | 00:00:00 | 00:00:00 | 00:00:00 | |
| EA3IBE | 2026-09-02 23:59:22 | 41.19698 | 2.33316 | 126° | 18km/h | 20236m | 5.9m/s | 0°C | 0% | 0hPa | 0V | 00:00:00 | 00:00:00 | 00:00:00 | |
| EA3GEO | 2026-09-02 23:59:19 | 41.19708 | 2.33307 | 149° | 15km/h | 20222m | 5.3m/s | 0°C | 0% | 0hPa | 0V | 00:00:00 | 00:00:00 | 00:00:00 | |
| EA3IBE | 2026-09-02 23:59:18 | 41.19712 | 2.33301 | 140° | 13km/h | 20213m | 3.6m/s | 0°C | 0% | 0hPa | 0V | 00:00:00 | 00:00:00 | 00:00:00 | |
| EA3GEO | 2026-09-02 23:59:14 | 41.19721 | 2.33297 | 169° | 11km/h | 20199m | 4.6m/s | 0°C | 0% | 0hPa | 0V | 00:00:00 | 00:00:00 | 00:00:00 | |
| EA3IBE | 2026-09-02 23:59:10 | 41.19733 | 2.33287 | 153° | 26km/h | 20179m | 5.4m/s | 0°C | 0% | 0hPa | 0V | 00:00:00 | 00:00:00 | 00:00:00 | |
| EA3GEO | 2026-09-02 23:59:08 | 41.19745 | 2.33277 | 141° | 29km/h | 20169m | 5.7m/s | 0°C | 0% | 0hPa | 0V | 00:00:00 | 00:00:00 | 00:00:00 | |
| EA3IBE | 2026-09-02 23:59:04 | 41.19762 | 2.33259 | 145° | 13km/h | 20151m | 3.8m/s | 0°C | 0% | 0hPa | 0V | 00:00:00 | 00:00:00 | 00:00:00 | |
| EA3GEO | 2026-09-02 23:59:03 | 41.19764 | 2.33256 | 122° | 13km/h | 20146m | 5.8m/s | 0°C | 0% | 0hPa | 0V | 00:00:00 | 00:00:00 | 00:00:00 | |
| EA3IBE | 2026-09-02 23:58:59 | 41.19774 | 2.33234 | 145° | 24km/h | 20126m | 4.2m/s | 0°C | 0% | 0hPa | 0V | 00:00:00 | 00:00:00 | 00:00:00 | |
| EA3GEO | 2026-09-02 23:58:57 | 41.19783 | 2.33224 | 133° | 22km/h | 20118m | 5.4m/s | 0°C | 0% | 0hPa | 0V | 00:00:00 | 00:00:00 | 00:00:00 | |
| EA3GEO | 2026-09-02 23:58:52 | 41.19793 | 2.33200 | 102° | 16km/h | 20094m | 5.6m/s | 0°C | 0% | 0hPa | 0V | 00:00:00 | 00:00:00 | 00:00:00 | |
| EA3GEO | 2026-09-02 23:58:47 | 41.19801 | 2.33171 | 127° | 16km/h | 20070m | 4.7m/s | 0°C | 0% | 0hPa | 0V | 00:00:00 | 00:00:00 | 00:00:00 | |
| EA3IBE | 2026-09-02 23:58:42 | 41.19807 | 2.33148 | 88° | 11km/h | 20045m | 4.9m/s | 0°C | 0% | 0hPa | 0V | 00:00:00 | 00:00:00 | 00:00:00 | |
| EA3GEO | 2026-09-02 23:58:41 | 41.19807 | 2.33143 | 79° | 15km/h | 20040m | 5.4m/s | 0°C | 0% | 0hPa | 0V | 00:00:00 | 00:00:00 | 00:00:00 | |
| EA3GEO | 2026-09-02 23:58:36 | 41.19812 | 2.33111 | 100° | 18km/h | 20016m | 4.7m/s | 0°C | 0% | 0hPa | 0V | 00:00:00 | 00:00:00 | 00:00:00 | |
| EA3IBE | 2026-09-02 23:58:34 | 41.19813 | 2.33101 | 101° | 13km/h | 20006m | 6.2m/s | 0°C | 0% | 0hPa | 0V | 00:00:00 | 00:00:00 | 00:00:00 | |
| EA3GEO | 2026-09-02 23:58:30 | 41.19815 | 2.33092 | 126° | 5km/h | 19986m | 3.4m/s | 0°C | 0% | 0hPa | 0V | 00:00:00 | 00:00:00 | 00:00:00 | |
| EA3IBE | 2026-09-02 23:58:28 | 41.19819 | 2.33086 | 137° | 18km/h | 19976m | 4.9m/s | 0°C | 0% | 0hPa | 0V | 00:00:00 | 00:00:00 | 00:00:00 | |
| EA3GEO | 2026-09-02 23:58:25 | 41.19826 | 2.33069 | 90° | 18km/h | 19961m | 4.4m/s | 0°C | 0% | 0hPa | 0V | 00:00:00 | 00:00:00 | 00:00:00 | |
| EA3IBE | 2026-09-02 23:58:22 | 41.19827 | 2.33055 | 122° | 11km/h | 19947m | 4.2m/s | 0°C | 0% | 0hPa | 0V | 00:00:00 | 00:00:00 | 00:00:00 | |
| EA3IBE | 2026-09-02 23:58:16 | 41.19844 | 2.33030 | 127° | 26km/h | 19917m | 5.4m/s | 0°C | 0% | 0hPa | 0V | 00:00:00 | 00:00:00 | 00:00:00 | |
| EA3GEO | 2026-09-02 23:58:14 | 41.19849 | 2.33016 | 119° | 22km/h | 19907m | 4.1m/s | 0°C | 0% | 0hPa | 0V | 00:00:00 | 00:00:00 | 00:00:00 | |
| EA3IBE | 2026-09-02 23:58:09 | 41.19859 | 2.32999 | 131° | 9km/h | 19883m | 3.7m/s | 0°C | 0% | 0hPa | 0V | 00:00:00 | 00:00:00 | 00:00:00 | |
| EA3GEO | 2026-09-02 23:58:08 | 41.19862 | 2.32996 | 143° | 15km/h | 19878m | 5.2m/s | 0°C | 0% | 0hPa | 0V | 00:00:00 | 00:00:00 | 00:00:00 | |
| EA3IBE | 2026-09-02 23:58:04 | 41.19875 | 2.32966 | 103° | 31km/h | 19860m | 3.5m/s | 0°C | 0% | 0hPa | 0V | 00:00:00 | 00:00:00 | 00:00:00 | |
| EA3GEO | 2026-09-02 23:58:02 | 41.19879 | 2.32950 | 119° | 20km/h | 19851m | 5.6m/s | 0°C | 0% | 0hPa | 0V | 00:00:00 | 00:00:00 | 00:00:00 | |
| EA3IBE | 2026-09-02 23:57:59 | 41.19886 | 2.32937 | 124° | 18km/h | 19836m | 4.8m/s | 0°C | 0% | 0hPa | 0V | 00:00:00 | 00:00:00 | 00:00:00 | |
| EA3GEO | 2026-09-02 23:57:56 | 41.19895 | 2.32913 | 106° | 33km/h | 19821m | 4.0m/s | 0°C | 0% | 0hPa | 0V | 00:00:00 | 00:00:00 | 00:00:00 | |
| EA3IBE | 2026-09-02 23:57:53 | 41.19897 | 2.32880 | 97° | 33km/h | 19807m | 5.2m/s | 0°C | 0% | 0hPa | 0V | 00:00:00 | 00:00:00 | 00:00:00 | |
| EA3GEO | 2026-09-02 23:57:50 | 41.19902 | 2.32858 | 107° | 15km/h | 19792m | 5.7m/s | 0°C | 0% | 0hPa | 0V | 00:00:00 | 00:00:00 | 00:00:00 | |
| EA3IBE | 2026-09-02 23:57:48 | 41.19903 | 2.32846 | 93° | 22km/h | 19783m | 4.0m/s | 0°C | 0% | 0hPa | 0V | 00:00:00 | 00:00:00 | 00:00:00 | |
| EA3GEO | 2026-09-02 23:57:45 | 41.19905 | 2.32817 | 91° | 35km/h | 19768m | 4.2m/s | 0°C | 0% | 0hPa | 0V | 00:00:00 | 00:00:00 | 00:00:00 | |
| EA3IBE | 2026-09-02 23:57:42 | 41.19901 | 2.32785 | 79° | 27km/h | 19754m | 5.8m/s | 0°C | 0% | 0hPa | 0V | 00:00:00 | 00:00:00 | 00:00:00 | |
| EA3GEO | 2026-09-02 23:57:39 | 41.19900 | 2.32763 | 88° | 20km/h | 19738m | 5.4m/s | 0°C | 0% | 0hPa | 0V | 00:00:00 | 00:00:00 | 00:00:00 | |
| EA3IBE | 2026-09-02 23:57:37 | 41.19900 | 2.32747 | 98° | 26km/h | 19728m | 5.9m/s | 0°C | 0% | 0hPa | 0V | 00:00:00 | 00:00:00 | 00:00:00 | |
| EA3GEO | 2026-09-02 23:57:34 | 41.19900 | 2.32715 | 80° | 38km/h | 19712m | 4.9m/s | 0°C | 0% | 0hPa | 0V | 00:00:00 | 00:00:00 | 00:00:00 | |
| EA3IBE | 2026-09-02 23:57:31 | 41.19895 | 2.32682 | 84° | 27km/h | 19697m | 4.4m/s | 0°C | 0% | 0hPa | 0V | 00:00:00 | 00:00:00 | 00:00:00 | |
| EA3GEO | 2026-09-02 23:57:29 | 41.19893 | 2.32665 | 74° | 26km/h | 19688m | 5.9m/s | 0°C | 0% | 0hPa | 0V | 00:00:00 | 00:00:00 | 00:00:00 | |
| EA3IBE | 2026-09-02 23:57:23 | 41.19878 | 2.32597 | 73° | 42km/h | 19657m | 3.6m/s | 0°C | 0% | 0hPa | 0V | 00:00:00 | 00:00:00 | 00:00:00 | |
| EA3IBE | 2026-09-02 23:57:18 | 41.19864 | 2.32547 | 50° | 26km/h | 19632m | 4.8m/s | 0°C | 0% | 0hPa | 0V | 00:00:00 | 00:00:00 | 00:00:00 | |
| EA3GEO | 2026-09-02 23:57:17 | 41.19860 | 2.32540 | 54° | 26km/h | 19628m | 5.3m/s | 0°C | 0% | 0hPa | 0V | 00:00:00 | 00:00:00 | 00:00:00 | |
| EA3GEO | 2026-09-02 23:57:12 | 41.19838 | 2.32483 | 62° | 29km/h | 19599m | 5.2m/s | 0°C | 0% | 0hPa | 0V | 00:00:00 | 00:00:00 | 00:00:00 | |
| EA3GEO | 2026-09-02 23:57:06 | 41.19815 | 2.32440 | 52° | 31km/h | 19573m | 5.7m/s | 0°C | 0% | 0hPa | 0V | 00:00:00 | 00:00:00 | 00:00:00 | |
| EA3IBE | 2026-09-02 23:57:01 | 41.19789 | 2.32398 | 56° | 27km/h | 19547m | 4.8m/s | 0°C | 0% | 0hPa | 0V | 00:00:00 | 00:00:00 | 00:00:00 | |
| EA3GEO | 2026-09-02 23:57:00 | 41.19785 | 2.32391 | 51° | 27km/h | 19543m | 4.4m/s | 0°C | 0% | 0hPa | 0V | 00:00:00 | 00:00:00 | 00:00:00 | |
| EA3IBE | 2026-09-02 23:56:55 | 41.19754 | 2.32356 | 43° | 31km/h | 19516m | 4.5m/s | 0°C | 0% | 0hPa | 0V | 00:00:00 | 00:00:00 | 00:00:00 | |
| EA3GEO | 2026-09-02 23:56:54 | 41.19748 | 2.32348 | 41° | 33km/h | 19511m | 5.9m/s | 0°C | 0% | 0hPa | 0V | 00:00:00 | 00:00:00 | 00:00:00 | |
| EA3IBE | 2026-09-02 23:56:50 | 41.19731 | 2.32327 | 39° | 18km/h | 19491m | 4.6m/s | 0°C | 0% | 0hPa | 0V | 00:00:00 | 00:00:00 | 00:00:00 | |
| EA3GEO | 2026-09-02 23:56:49 | 41.19727 | 2.32323 | 28° | 22km/h | 19486m | 5.9m/s | 0°C | 0% | 0hPa | 0V | 00:00:00 | 00:00:00 | 00:00:00 | |
| EA3IBE | 2026-09-02 23:56:44 | 41.19698 | 2.32302 | 36° | 27km/h | 19460m | 6.4m/s | 0°C | 0% | 0hPa | 0V | 00:00:00 | 00:00:00 | 00:00:00 | |
| EA3GEO | 2026-09-02 23:56:43 | 41.19693 | 2.32297 | 33° | 24km/h | 19455m | 4.2m/s | 0°C | 0% | 0hPa | 0V | 00:00:00 | 00:00:00 | 00:00:00 | |
| EA3IBE | 2026-09-02 23:56:38 | 41.19675 | 2.32285 | 29° | 22km/h | 19429m | 5.3m/s | 0°C | 0% | 0hPa | 0V | 00:00:00 | 00:00:00 | 00:00:00 | |
| EA3GEO | 2026-09-02 23:56:37 | 41.19669 | 2.32282 | 26° | 24km/h | 19425m | 4.1m/s | 0°C | 0% | 0hPa | 0V | 00:00:00 | 00:00:00 | 00:00:00 | |
| EA3IBE | 2026-09-02 23:56:33 | 41.19650 | 2.32275 | 7° | 20km/h | 19402m | 6.3m/s | 0°C | 0% | 0hPa | 0V | 00:00:00 | 00:00:00 | 00:00:00 | |
| EA3GEO | 2026-09-02 23:56:32 | 41.19645 | 2.32275 | 6° | 18km/h | 19397m | 5.1m/s | 0°C | 0% | 0hPa | 0V | 00:00:00 | 00:00:00 | 00:00:00 | |
| EA3IBE | 2026-09-02 23:56:27 | 41.19625 | 2.32269 | 30° | 22km/h | 19369m | 4.1m/s | 0°C | 0% | 0hPa | 0V | 00:00:00 | 00:00:00 | 00:00:00 | |
| EA3GEO | 2026-09-02 23:56:26 | 41.19621 | 2.32265 | 29° | 16km/h | 19365m | 4.8m/s | 0°C | 0% | 0hPa | 0V | 00:00:00 | 00:00:00 | 00:00:00 | |
| EA3IBE | 2026-09-02 23:56:21 | 41.19606 | 2.32265 | 15° | 18km/h | 19339m | 3.8m/s | 0°C | 0% | 0hPa | 0V | 00:00:00 | 00:00:00 | 00:00:00 | |
| EA3IBE | 2026-09-02 23:56:16 | 41.19591 | 2.32256 | 17° | 11km/h | 19312m | 5.2m/s | 0°C | 0% | 0hPa | 0V | 00:00:00 | 00:00:00 | 00:00:00 | |
| EA3GEO | 2026-09-02 23:56:15 | 41.19588 | 2.32255 | 15° | 7km/h | 19306m | 6.9m/s | 0°C | 0% | 0hPa | 0V | 00:00:00 | 00:00:00 | 00:00:00 | |
| EA3IBE | 2026-09-02 23:56:10 | 41.19573 | 2.32254 | 360° | 16km/h | 19280m | 4.4m/s | 0°C | 0% | 0hPa | 0V | 00:00:00 | 00:00:00 | 00:00:00 | |
| EA3GEO | 2026-09-02 23:56:05 | 41.19570 | 2.32251 | 126° | 4km/h | 19254m | 3.6m/s | 0°C | 0% | 0hPa | 0V | 00:00:00 | 00:00:00 | 00:00:00 | |
| EA3GEO | 2026-09-02 23:55:59 | 41.19562 | 2.32248 | 11° | 18km/h | 19224m | 2.3m/s | 0°C | 0% | 0hPa | 0V | 00:00:00 | 00:00:00 | 00:00:00 | |
| EA3IBE | 2026-09-02 23:55:54 | 41.19557 | 2.32259 | 190° | 4km/h | 19198m | 6.3m/s | 0°C | 0% | 0hPa | 0V | 00:00:00 | 00:00:00 | 00:00:00 | |
| EA3GEO | 2026-09-02 23:55:53 | 41.19558 | 2.32258 | 83° | 9km/h | 19192m | 6.1m/s | 0°C | 0% | 0hPa | 0V | 00:00:00 | 00:00:00 | 00:00:00 | |
| EA3IBE | 2026-09-02 23:55:48 | 41.19549 | 2.32256 | 298° | 11km/h | 19166m | 5.4m/s | 0°C | 0% | 0hPa | 0V | 00:00:00 | 00:00:00 | 00:00:00 | |
| EA3GEO | 2026-09-02 23:55:43 | 41.19547 | 2.32263 | 192° | 4km/h | 19139m | 4.8m/s | 0°C | 0% | 0hPa | 0V | 00:00:00 | 00:00:00 | 00:00:00 | |
| EA3IBE | 2026-09-02 23:55:42 | 41.19547 | 2.32263 | 137° | 7km/h | 19133m | 6.1m/s | 0°C | 0% | 0hPa | 0V | 00:00:00 | 00:00:00 | 00:00:00 | |
| EA3GEO | 2026-09-02 23:55:37 | 41.19553 | 2.32255 | 286° | 7km/h | 19107m | 5.6m/s | 0°C | 0% | 0hPa | 0V | 00:00:00 | 00:00:00 | 00:00:00 | |
| EA3IBE | 2026-09-02 23:55:36 | 41.19552 | 2.32257 | 267° | 5km/h | 19101m | 6.2m/s | 0°C | 0% | 0hPa | 0V | 00:00:00 | 00:00:00 | 00:00:00 | |
| EA3IBE | 2026-09-02 23:55:31 | 41.19555 | 2.32264 | 80° | 5km/h | 19074m | 4.4m/s | 0°C | 0% | 0hPa | 0V | 00:00:00 | 00:00:00 | 00:00:00 | |
| EA3GEO | 2026-09-02 23:55:26 | 41.19567 | 2.32266 | 180° | 20km/h | 19048m | 5.4m/s | 0°C | 0% | 0hPa | 0V | 00:00:00 | 00:00:00 | 00:00:00 | |
| EA3IBE | 2026-09-02 23:55:25 | 41.19572 | 2.32266 | 179° | 16km/h | 19043m | 4.6m/s | 0°C | 0% | 0hPa | 0V | 00:00:00 | 00:00:00 | 00:00:00 | |
| EA3GEO | 2026-09-02 23:55:21 | 41.19581 | 2.32269 | 178° | 9km/h | 19021m | 6.0m/s | 0°C | 0% | 0hPa | 0V | 00:00:00 | 00:00:00 | 00:00:00 | |
| EA3IBE | 2026-09-02 23:55:20 | 41.19584 | 2.32269 | 177° | 15km/h | 19016m | 4.0m/s | 0°C | 0% | 0hPa | 0V | 00:00:00 | 00:00:00 | 00:00:00 | |
| EA3IBE | 2026-09-02 23:55:15 | 41.19615 | 2.32270 | 183° | 24km/h | 18984m | 6.7m/s | 0°C | 0% | 0hPa | 0V | 00:00:00 | 00:00:00 | 00:00:00 | |
| EA3GEO | 2026-09-02 23:55:09 | 41.19641 | 2.32272 | 188° | 22km/h | 18959m | 5.6m/s | 0°C | 0% | 0hPa | 0V | 00:00:00 | 00:00:00 | 00:00:00 | |
| EA3IBE | 2026-09-02 23:55:07 | 41.19654 | 2.32273 | 179° | 31km/h | 18949m | 5.8m/s | 0°C | 0% | 0hPa | 0V | 00:00:00 | 00:00:00 | 00:00:00 | |
| EA3GEO | 2026-09-02 23:55:04 | 41.19684 | 2.32266 | 170° | 42km/h | 18933m | 6.1m/s | 0°C | 0% | 0hPa | 0V | 00:00:00 | 00:00:00 | 00:00:00 | |
| EA3IBE | 2026-09-02 23:55:01 | 41.19712 | 2.32260 | 166° | 35km/h | 18919m | 6.0m/s | 0°C | 0% | 0hPa | 0V | 00:00:00 | 00:00:00 | 00:00:00 | |
| EA3GEO | 2026-09-02 23:54:58 | 41.19739 | 2.32249 | 167° | 38km/h | 18902m | 4.7m/s | 0°C | 0% | 0hPa | 0V | 00:00:00 | 00:00:00 | 00:00:00 | |
| EA3IBE | 2026-09-02 23:54:56 | 41.19759 | 2.32242 | 164° | 42km/h | 18892m | 5.4m/s | 0°C | 0% | 0hPa | 0V | 00:00:00 | 00:00:00 | 00:00:00 | |
| EA3GEO | 2026-09-02 23:54:52 | 41.19795 | 2.32231 | 166° | 31km/h | 18874m | 5.4m/s | 0°C | 0% | 0hPa | 0V | 00:00:00 | 00:00:00 | 00:00:00 | |
| EA3IBE | 2026-09-02 23:54:50 | 41.19809 | 2.32222 | 152° | 29km/h | 18864m | 4.4m/s | 0°C | 0% | 0hPa | 0V | 00:00:00 | 00:00:00 | 00:00:00 | |
| EA3GEO | 2026-09-02 23:54:46 | 41.19838 | 2.32211 | 167° | 35km/h | 18844m | 5.5m/s | 0°C | 0% | 0hPa | 0V | 00:00:00 | 00:00:00 | 00:00:00 | |
| EA3IBE | 2026-09-02 23:54:44 | 41.19855 | 2.32203 | 161° | 38km/h | 18836m | 3.7m/s | 0°C | 0% | 0hPa | 0V | 00:00:00 | 00:00:00 | 00:00:00 | |
| EA3GEO | 2026-09-02 23:54:41 | 41.19877 | 2.32190 | 148° | 31km/h | 18822m | 5.4m/s | 0°C | 0% | 0hPa | 0V | 00:00:00 | 00:00:00 | 00:00:00 | |
| EA3IBE | 2026-09-02 23:54:38 | 41.19893 | 2.32177 | 157° | 18km/h | 18808m | 4.3m/s | 0°C | 0% | 0hPa | 0V | 00:00:00 | 00:00:00 | 00:00:00 | |
| EA3GEO | 2026-09-02 23:54:35 | 41.19908 | 2.32166 | 154° | 31km/h | 18793m | 4.1m/s | 0°C | 0% | 0hPa | 0V | 00:00:00 | 00:00:00 | 00:00:00 | |
| EA3IBE | 2026-09-02 23:54:33 | 41.19923 | 2.32158 | 162° | 31km/h | 18783m | 4.4m/s | 0°C | 0% | 0hPa | 0V | 00:00:00 | 00:00:00 | 00:00:00 | |
| EA3GEO | 2026-09-02 23:54:30 | 41.19942 | 2.32146 | 153° | 20km/h | 18769m | 5.9m/s | 0°C | 0% | 0hPa | 0V | 00:00:00 | 00:00:00 | 00:00:00 | |
| EA3GEO | 2026-09-02 23:54:24 | 41.19964 | 2.32129 | 170° | 22km/h | 18739m | 3.9m/s | 0°C | 0% | 0hPa | 0V | 00:00:00 | 00:00:00 | 00:00:00 | |
| EA3IBE | 2026-09-02 23:54:22 | 41.19977 | 2.32125 | 164° | 29km/h | 18730m | 5.2m/s | 0°C | 0% | 0hPa | 0V | 00:00:00 | 00:00:00 | 00:00:00 | |
| EA3GEO | 2026-09-02 23:54:18 | 41.19999 | 2.32112 | 137° | 20km/h | 18712m | 5.5m/s | 0°C | 0% | 0hPa | 0V | 00:00:00 | 00:00:00 | 00:00:00 | |
| EA3IBE | 2026-09-02 23:54:16 | 41.20005 | 2.32101 | 128° | 20km/h | 18704m | 3.7m/s | 0°C | 0% | 0hPa | 0V | 00:00:00 | 00:00:00 | 00:00:00 | |
| EA3GEO | 2026-09-02 23:54:13 | 41.20024 | 2.32087 | 153° | 29km/h | 18686m | 5.1m/s | 0°C | 0% | 0hPa | 0V | 00:00:00 | 00:00:00 | 00:00:00 | |
| EA3IBE | 2026-09-02 23:54:10 | 41.20039 | 2.32075 | 152° | 35km/h | 18677m | 5.6m/s | 0°C | 0% | 0hPa | 0V | 00:00:00 | 00:00:00 | 00:00:00 | |
| EA3GEO | 2026-09-02 23:54:07 | 41.20058 | 2.32058 | 134° | 27km/h | 18663m | 4.8m/s | 0°C | 0% | 0hPa | 0V | 00:00:00 | 00:00:00 | 00:00:00 | |
| EA3IBE | 2026-09-02 23:54:05 | 41.20067 | 2.32045 | 139° | 24km/h | 18655m | 5.5m/s | 0°C | 0% | 0hPa | 0V | 00:00:00 | 00:00:00 | 00:00:00 | |
| EA3GEO | 2026-09-02 23:54:01 | 41.20090 | 2.32022 | 148° | 38km/h | 18637m | 4.1m/s | 0°C | 0% | 0hPa | 0V | 00:00:00 | 00:00:00 | 00:00:00 | |
| EA3IBE | 2026-09-02 23:53:59 | 41.20108 | 2.32010 | 156° | 40km/h | 18628m | 3.2m/s | 0°C | 0% | 0hPa | 0V | 00:00:00 | 00:00:00 | 00:00:00 | |
| EA3GEO | 2026-09-02 23:53:55 | 41.20135 | 2.31986 | 145° | 29km/h | 18610m | 5.2m/s | 0°C | 0% | 0hPa | 0V | 00:00:00 | 00:00:00 | 00:00:00 | |
| EA3IBE | 2026-09-02 23:53:53 | 41.20146 | 2.31974 | 138° | 29km/h | 18601m | 4.3m/s | 0°C | 0% | 0hPa | 0V | 00:00:00 | 00:00:00 | 00:00:00 | |
| EA3GEO | 2026-09-02 23:53:49 | 41.20172 | 2.31942 | 146° | 42km/h | 18582m | 3.9m/s | 0°C | 0% | 0hPa | 0V | 00:00:00 | 00:00:00 | 00:00:00 | |
| EA3IBE | 2026-09-02 23:53:47 | 41.20188 | 2.31926 | 141° | 35km/h | 18573m | 4.9m/s | 0°C | 0% | 0hPa | 0V | 00:00:00 | 00:00:00 | 00:00:00 | |
| EA3GEO | 2026-09-02 23:53:44 | 41.20207 | 2.31906 | 143° | 29km/h | 18560m | 3.6m/s | 0°C | 0% | 0hPa | 0V | 00:00:00 | 00:00:00 | 00:00:00 | |
| EA3IBE | 2026-09-02 23:53:42 | 41.20216 | 2.31893 | 124° | 27km/h | 18550m | 4.5m/s | 0°C | 0% | 0hPa | 0V | 00:00:00 | 00:00:00 | 00:00:00 | |
| EA3GEO | 2026-09-02 23:53:38 | 41.20237 | 2.31864 | 141° | 33km/h | 18532m | 5.2m/s | 0°C | 0% | 0hPa | 0V | 00:00:00 | 00:00:00 | 00:00:00 | |
| EA3IBE | 2026-09-02 23:53:36 | 41.20251 | 2.31852 | 155° | 33km/h | 18522m | 6.1m/s | 0°C | 0% | 0hPa | 0V | 00:00:00 | 00:00:00 | 00:00:00 | |
| EA3GEO | 2026-09-02 23:53:32 | 41.20272 | 2.31830 | 125° | 26km/h | 18504m | 4.1m/s | 0°C | 0% | 0hPa | 0V | 00:00:00 | 00:00:00 | 00:00:00 | |
| EA3IBE | 2026-09-02 23:53:30 | 41.20281 | 2.31816 | 135° | 27km/h | 18495m | 4.0m/s | 0°C | 0% | 0hPa | 0V | 00:00:00 | 00:00:00 | 00:00:00 | |
| EA3GEO | 2026-09-02 23:53:26 | 41.20303 | 2.31793 | 155° | 31km/h | 18475m | 4.3m/s | 0°C | 0% | 0hPa | 0V | 00:00:00 | 00:00:00 | 00:00:00 | |
| EA3IBE | 2026-09-02 23:53:24 | 41.20315 | 2.31783 | 140° | 27km/h | 18466m | 5.6m/s | 0°C | 0% | 0hPa | 0V | 00:00:00 | 00:00:00 | 00:00:00 | |
| EA3IBE | 2026-09-02 23:53:18 | 41.20342 | 2.31741 | 127° | 26km/h | 18437m | 4.2m/s | 0°C | 0% | 0hPa | 0V | 00:00:00 | 00:00:00 | 00:00:00 | |
| EA3GEO | 2026-09-02 23:53:17 | 41.20346 | 2.31734 | 140° | 26km/h | 18432m | 5.7m/s | 0°C | 0% | 0hPa | 0V | 00:00:00 | 00:00:00 | 00:00:00 | |
| EA3IBE | 2026-09-02 23:53:13 | 41.20366 | 2.31712 | 132° | 24km/h | 18414m | 4.0m/s | 0°C | 0% | 0hPa | 0V | 00:00:00 | 00:00:00 | 00:00:00 | |
| EA3GEO | 2026-09-02 23:53:12 | 41.20370 | 2.31706 | 138° | 26km/h | 18410m | 4.2m/s | 0°C | 0% | 0hPa | 0V | 00:00:00 | 00:00:00 | 00:00:00 | |
| EA3IBE | 2026-09-02 23:53:07 | 41.20403 | 2.31664 | 130° | 46km/h | 18384m | 5.4m/s | 0°C | 0% | 0hPa | 0V | 00:00:00 | 00:00:00 | 00:00:00 | |
| EA3GEO | 2026-09-02 23:53:06 | 41.20410 | 2.31653 | 132° | 44km/h | 18379m | 4.9m/s | 0°C | 0% | 0hPa | 0V | 00:00:00 | 00:00:00 | 00:00:00 | |
| EA3IBE | 2026-09-02 23:53:02 | 41.20429 | 2.31613 | 123° | 27km/h | 18358m | 6.2m/s | 0°C | 0% | 0hPa | 0V | 00:00:00 | 00:00:00 | 00:00:00 | |
| EA3GEO | 2026-09-02 23:53:00 | 41.20438 | 2.31599 | 132° | 27km/h | 18349m | 4.0m/s | 0°C | 0% | 0hPa | 0V | 00:00:00 | 00:00:00 | 00:00:00 | |
| EA3IBE | 2026-09-02 23:52:56 | 41.20458 | 2.31559 | 126° | 42km/h | 18328m | 4.8m/s | 0°C | 0% | 0hPa | 0V | 00:00:00 | 00:00:00 | 00:00:00 | |
| EA3GEO | 2026-09-02 23:52:54 | 41.20469 | 2.31535 | 116° | 40km/h | 18318m | 6.1m/s | 0°C | 0% | 0hPa | 0V | 00:00:00 | 00:00:00 | 00:00:00 | |
| EA3IBE | 2026-09-02 23:52:51 | 41.20482 | 2.31501 | 125° | 37km/h | 18304m | 5.7m/s | 0°C | 0% | 0hPa | 0V | 00:00:00 | 00:00:00 | 00:00:00 | |
| EA3GEO | 2026-09-02 23:52:48 | 41.20496 | 2.31472 | 122° | 33km/h | 18289m | 4.7m/s | 0°C | 0% | 0hPa | 0V | 00:00:00 | 00:00:00 | 00:00:00 | |
| EA3IBE | 2026-09-02 23:52:45 | 41.20509 | 2.31443 | 114° | 33km/h | 18273m | 6.3m/s | 0°C | 0% | 0hPa | 0V | 00:00:00 | 00:00:00 | 00:00:00 | |
| EA3IBE | 2026-09-02 23:52:39 | 41.20532 | 2.31380 | 116° | 31km/h | 18242m | 4.9m/s | 0°C | 0% | 0hPa | 0V | 00:00:00 | 00:00:00 | 00:00:00 | |
| EA3GEO | 2026-09-02 23:52:37 | 41.20538 | 2.31362 | 114° | 29km/h | 18231m | 4.7m/s | 0°C | 0% | 0hPa | 0V | 00:00:00 | 00:00:00 | 00:00:00 | |
| EA3IBE | 2026-09-02 23:52:33 | 41.20544 | 2.31323 | 109° | 31km/h | 18210m | 6.0m/s | 0°C | 0% | 0hPa | 0V | 00:00:00 | 00:00:00 | 00:00:00 | |
| EA3GEO | 2026-09-02 23:52:31 | 41.20551 | 2.31302 | 113° | 35km/h | 18201m | 6.1m/s | 0°C | 0% | 0hPa | 0V | 00:00:00 | 00:00:00 | 00:00:00 | |
| EA3IBE | 2026-09-02 23:52:27 | 41.20564 | 2.31258 | 107° | 37km/h | 18179m | 5.8m/s | 0°C | 0% | 0hPa | 0V | 00:00:00 | 00:00:00 | 00:00:00 | |
| EA3GEO | 2026-09-02 23:52:26 | 41.20566 | 2.31246 | 95° | 35km/h | 18174m | 5.8m/s | 0°C | 0% | 0hPa | 0V | 00:00:00 | 00:00:00 | 00:00:00 | |
| EA3IBE | 2026-09-02 23:52:21 | 41.20568 | 2.31194 | 104° | 33km/h | 18147m | 5.2m/s | 0°C | 0% | 0hPa | 0V | 00:00:00 | 00:00:00 | 00:00:00 | |
| EA3GEO | 2026-09-02 23:52:20 | 41.20570 | 2.31184 | 113° | 31km/h | 18142m | 6.2m/s | 0°C | 0% | 0hPa | 0V | 00:00:00 | 00:00:00 | 00:00:00 | |
| EA3IBE | 2026-09-02 23:52:16 | 41.20584 | 2.31145 | 105° | 31km/h | 18121m | 4.1m/s | 0°C | 0% | 0hPa | 0V | 00:00:00 | 00:00:00 | 00:00:00 | |
| EA3GEO | 2026-09-02 23:52:14 | 41.20587 | 2.31127 | 94° | 22km/h | 18111m | 3.6m/s | 0°C | 0% | 0hPa | 0V | 00:00:00 | 00:00:00 | 00:00:00 | |
| EA3IBE | 2026-09-02 23:52:10 | 41.20589 | 2.31095 | 99° | 24km/h | 18090m | 4.8m/s | 0°C | 0% | 0hPa | 0V | 00:00:00 | 00:00:00 | 00:00:00 | |
| EA3GEO | 2026-09-02 23:52:09 | 41.20590 | 2.31086 | 110° | 27km/h | 18085m | 5.7m/s | 0°C | 0% | 0hPa | 0V | 00:00:00 | 00:00:00 | 00:00:00 | |
| EA3GEO | 2026-09-02 23:52:04 | 41.20605 | 2.31048 | 108° | 22km/h | 18060m | 5.6m/s | 0°C | 0% | 0hPa | 0V | 00:00:00 | 00:00:00 | 00:00:00 | |
| EA3IBE | 2026-09-02 23:51:58 | 41.20603 | 2.30995 | 96° | 33km/h | 18029m | 4.8m/s | 0°C | 0% | 0hPa | 0V | 00:00:00 | 00:00:00 | 00:00:00 | |
| EA3GEO | 2026-09-02 23:51:53 | 41.20609 | 2.30953 | 95° | 22km/h | 18004m | 4.3m/s | 0°C | 0% | 0hPa | 0V | 00:00:00 | 00:00:00 | 00:00:00 | |
| EA3IBE | 2026-09-02 23:51:52 | 41.20609 | 2.30945 | 85° | 20km/h | 17998m | 6.4m/s | 0°C | 0% | 0hPa | 0V | 00:00:00 | 00:00:00 | 00:00:00 | |
| EA3GEO | 2026-09-02 23:51:47 | 41.20605 | 2.30901 | 95° | 27km/h | 17973m | 4.8m/s | 0°C | 0% | 0hPa | 0V | 00:00:00 | 00:00:00 | 00:00:00 | |
| EA3IBE | 2026-09-02 23:51:46 | 41.20606 | 2.30892 | 106° | 27km/h | 17968m | 5.5m/s | 0°C | 0% | 0hPa | 0V | 00:00:00 | 00:00:00 | 00:00:00 | |
| EA3GEO | 2026-09-02 23:51:42 | 41.20620 | 2.30861 | 126° | 24km/h | 17946m | 2.7m/s | 0°C | 0% | 0hPa | 0V | 00:00:00 | 00:00:00 | 00:00:00 | |
| EA3IBE | 2026-09-02 23:51:41 | 41.20623 | 2.30854 | 116° | 26km/h | 17942m | 6.2m/s | 0°C | 0% | 0hPa | 0V | 00:00:00 | 00:00:00 | 00:00:00 | |
| EA3GEO | 2026-09-02 23:51:37 | 41.20629 | 2.30809 | 104° | 31km/h | 17917m | 5.9m/s | 0°C | 0% | 0hPa | 0V | 00:00:00 | 00:00:00 | 00:00:00 | |
| EA3IBE | 2026-09-02 23:51:35 | 41.20631 | 2.30799 | 109° | 31km/h | 17912m | 4.0m/s | 0°C | 0% | 0hPa | 0V | 00:00:00 | 00:00:00 | 00:00:00 | |
| EA3GEO | 2026-09-02 23:51:31 | 41.20641 | 2.30763 | 106° | 31km/h | 17892m | 4.8m/s | 0°C | 0% | 0hPa | 0V | 00:00:00 | 00:00:00 | 00:00:00 | |
| EA3IBE | 2026-09-02 23:51:29 | 41.20644 | 2.30744 | 101° | 27km/h | 17881m | 5.1m/s | 0°C | 0% | 0hPa | 0V | 00:00:00 | 00:00:00 | 00:00:00 | |
| EA3IBE | 2026-09-02 23:51:21 | 41.20658 | 2.30667 | 101° | 29km/h | 17842m | 5.8m/s | 0°C | 0% | 0hPa | 0V | 00:00:00 | 00:00:00 | 00:00:00 | |
| EA3GEO | 2026-09-02 23:51:20 | 41.20659 | 2.30658 | 100° | 27km/h | 17837m | 4.5m/s | 0°C | 0% | 0hPa | 0V | 00:00:00 | 00:00:00 | 00:00:00 | |
| EA3IBE | 2026-09-02 23:51:16 | 41.20663 | 2.30617 | 106° | 31km/h | 17816m | 4.9m/s | 0°C | 0% | 0hPa | 0V | 00:00:00 | 00:00:00 | 00:00:00 | |
| EA3GEO | 2026-09-02 23:51:15 | 41.20665 | 2.30607 | 107° | 33km/h | 17812m | 4.1m/s | 0°C | 0% | 0hPa | 0V | 00:00:00 | 00:00:00 | 00:00:00 | |
| EA3IBE | 2026-09-02 23:51:09 | 41.20680 | 2.30537 | 106° | 37km/h | 17782m | 5.1m/s | 0°C | 0% | 0hPa | 0V | 00:00:00 | 00:00:00 | 00:00:00 | |
| EA3GEO | 2026-09-02 23:51:03 | 41.20691 | 2.30472 | 104° | 33km/h | 17752m | 6.1m/s | 0°C | 0% | 0hPa | 0V | 00:00:00 | 00:00:00 | 00:00:00 | |
| EA3IBE | 2026-09-02 23:51:00 | 41.20699 | 2.30439 | 108° | 38km/h | 17737m | 5.3m/s | 0°C | 0% | 0hPa | 0V | 00:00:00 | 00:00:00 | 00:00:00 | |
| EA3GEO | 2026-09-02 23:50:57 | 41.20707 | 2.30402 | 103° | 38km/h | 17723m | 3.2m/s | 0°C | 0% | 0hPa | 0V | 00:00:00 | 00:00:00 | 00:00:00 | |
| EA3IBE | 2026-09-02 23:50:54 | 41.20711 | 2.30361 | 98° | 38km/h | 17708m | 5.9m/s | 0°C | 0% | 0hPa | 0V | 00:00:00 | 00:00:00 | 00:00:00 | |
| EA3GEO | 2026-09-02 23:50:51 | 41.20716 | 2.30321 | 104° | 47km/h | 17693m | 4.8m/s | 0°C | 0% | 0hPa | 0V | 00:00:00 | 00:00:00 | 00:00:00 | |
| EA3IBE | 2026-09-02 23:50:49 | 41.20723 | 2.30290 | 111° | 46km/h | 17684m | 5.1m/s | 0°C | 0% | 0hPa | 0V | 00:00:00 | 00:00:00 | 00:00:00 | |
| EA3GEO | 2026-09-02 23:50:45 | 41.20733 | 2.30228 | 98° | 46km/h | 17665m | 5.4m/s | 0°C | 0% | 0hPa | 0V | 00:00:00 | 00:00:00 | 00:00:00 | |
| EA3IBE | 2026-09-02 23:50:41 | 41.20740 | 2.30175 | 100° | 38km/h | 17645m | 4.6m/s | 0°C | 0% | 0hPa | 0V | 00:00:00 | 00:00:00 | 00:00:00 | |
| EA3GEO | 2026-09-02 23:50:39 | 41.20743 | 2.30151 | 101° | 37km/h | 17636m | 3.1m/s | 0°C | 0% | 0hPa | 0V | 00:00:00 | 00:00:00 | 00:00:00 | |
| EA3IBE | 2026-09-02 23:50:36 | 41.20747 | 2.30110 | 96° | 40km/h | 17622m | 4.0m/s | 0°C | 0% | 0hPa | 0V | 00:00:00 | 00:00:00 | 00:00:00 | |
| EA3GEO | 2026-09-02 23:50:34 | 41.20748 | 2.30087 | 93° | 33km/h | 17612m | 3.6m/s | 0°C | 0% | 0hPa | 0V | 00:00:00 | 00:00:00 | 00:00:00 | |
| EA3IBE | 2026-09-02 23:50:31 | 41.20750 | 2.30051 | 95° | 37km/h | 17598m | 5.0m/s | 0°C | 0% | 0hPa | 0V | 00:00:00 | 00:00:00 | 00:00:00 | |
| EA3GEO | 2026-09-02 23:50:27 | 41.20754 | 2.30003 | 101° | 38km/h | 17579m | 4.3m/s | 0°C | 0% | 0hPa | 0V | 00:00:00 | 00:00:00 | 00:00:00 | |
| EA3IBE | 2026-09-02 23:50:25 | 41.20758 | 2.29978 | 100° | 37km/h | 17571m | 3.5m/s | 0°C | 0% | 0hPa | 0V | 00:00:00 | 00:00:00 | 00:00:00 | |
| EA3GEO | 2026-09-02 23:50:21 | 41.20764 | 2.29930 | 98° | 29km/h | 17553m | 6.2m/s | 0°C | 0% | 0hPa | 0V | 00:00:00 | 00:00:00 | 00:00:00 | |
| EA3IBE | 2026-09-02 23:50:19 | 41.20765 | 2.29911 | 97° | 31km/h | 17543m | 5.8m/s | 0°C | 0% | 0hPa | 0V | 00:00:00 | 00:00:00 | 00:00:00 | |
| EA3GEO | 2026-09-02 23:50:15 | 41.20769 | 2.29866 | 100° | 38km/h | 17524m | 5.8m/s | 0°C | 0% | 0hPa | 0V | 00:00:00 | 00:00:00 | 00:00:00 | |
| EA3IBE | 2026-09-02 23:50:14 | 41.20771 | 2.29853 | 99° | 40km/h | 17519m | 3.4m/s | 0°C | 0% | 0hPa | 0V | 00:00:00 | 00:00:00 | 00:00:00 | |
| EA3IBE | 2026-09-02 23:50:05 | 41.20777 | 2.29763 | 111° | 38km/h | 17478m | 4.9m/s | 0°C | 0% | 0hPa | 0V | 00:00:00 | 00:00:00 | 00:00:00 | |
| EA3IBE | 2026-09-02 23:49:59 | 41.20792 | 2.29699 | 103° | 26km/h | 17452m | 5.6m/s | 0°C | 0% | 0hPa | 0V | 00:00:00 | 00:00:00 | 00:00:00 | |
| EA3GEO | 2026-09-02 23:49:54 | 41.20799 | 2.29648 | 96° | 37km/h | 17429m | 5.1m/s | 0°C | 0% | 0hPa | 0V | 00:00:00 | 00:00:00 | 00:00:00 | |
| EA3IBE | 2026-09-02 23:49:53 | 41.20799 | 2.29636 | 96° | 37km/h | 17425m | 3.6m/s | 0°C | 0% | 0hPa | 0V | 00:00:00 | 00:00:00 | 00:00:00 | |
| EA3IBE | 2026-09-02 23:49:48 | 41.20808 | 2.29580 | 107° | 29km/h | 17402m | 4.8m/s | 0°C | 0% | 0hPa | 0V | 00:00:00 | 00:00:00 | 00:00:00 | |
| EA3GEO | 2026-09-02 23:49:43 | 41.20816 | 2.29525 | 101° | 37km/h | 17380m | 5.5m/s | 0°C | 0% | 0hPa | 0V | 00:00:00 | 00:00:00 | 00:00:00 | |
| EA3IBE | 2026-09-02 23:49:42 | 41.20818 | 2.29513 | 106° | 38km/h | 17375m | 4.1m/s | 0°C | 0% | 0hPa | 0V | 00:00:00 | 00:00:00 | 00:00:00 | |
| EA3GEO | 2026-09-02 23:49:37 | 41.20830 | 2.29462 | 98° | 31km/h | 17354m | 3.6m/s | 0°C | 0% | 0hPa | 0V | 00:00:00 | 00:00:00 | 00:00:00 | |
| EA3IBE | 2026-09-02 23:49:31 | 41.20832 | 2.29386 | 104° | 29km/h | 17324m | 4.9m/s | 0°C | 0% | 0hPa | 0V | 00:00:00 | 00:00:00 | 00:00:00 | |
| EA3GEO | 2026-09-02 23:49:25 | 41.20832 | 2.29338 | 89° | 31km/h | 17300m | 5.9m/s | 0°C | 0% | 0hPa | 0V | 00:00:00 | 00:00:00 | 00:00:00 | |
| EA3IBE | 2026-09-02 23:49:24 | 41.20832 | 2.29328 | 91° | 29km/h | 17296m | 4.2m/s | 0°C | 0% | 0hPa | 0V | 00:00:00 | 00:00:00 | 00:00:00 | |
| EA3IBE | 2026-09-02 23:49:19 | 41.20830 | 2.29273 | 84° | 33km/h | 17271m | 4.0m/s | 0°C | 0% | 0hPa | 0V | 00:00:00 | 00:00:00 | 00:00:00 | |
| EA3IBE | 2026-09-02 23:49:13 | 41.20826 | 2.29212 | 88° | 35km/h | 17241m | 5.9m/s | 0°C | 0% | 0hPa | 0V | 00:00:00 | 00:00:00 | 00:00:00 | |
| EA3GEO | 2026-09-02 23:49:08 | 41.20824 | 2.29154 | 89° | 33km/h | 17215m | 3.7m/s | 0°C | 0% | 0hPa | 0V | 00:00:00 | 00:00:00 | 00:00:00 | |
| EA3IBE | 2026-09-02 23:49:07 | 41.20823 | 2.29144 | 79° | 29km/h | 17211m | 6.1m/s | 0°C | 0% | 0hPa | 0V | 00:00:00 | 00:00:00 | 00:00:00 | |
| EA3GEO | 2026-09-02 23:49:02 | 41.20811 | 2.29087 | 77° | 37km/h | 17186m | 6.1m/s | 0°C | 0% | 0hPa | 0V | 00:00:00 | 00:00:00 | 00:00:00 | |
| EA3IBE | 2026-09-02 23:49:01 | 41.20808 | 2.29075 | 79° | 35km/h | 17181m | 4.4m/s | 0°C | 0% | 0hPa | 0V | 00:00:00 | 00:00:00 | 00:00:00 | |
| EA3IBE | 2026-09-02 23:48:56 | 41.20798 | 2.29023 | 73° | 35km/h | 17155m | 5.8m/s | 0°C | 0% | 0hPa | 0V | 00:00:00 | 00:00:00 | 00:00:00 | |
| EA3IBE | 2026-09-02 23:48:50 | 41.20782 | 2.28948 | 78° | 37km/h | 17125m | 2.6m/s | 0°C | 0% | 0hPa | 0V | 00:00:00 | 00:00:00 | 00:00:00 | |
| EA3GEO | 2026-09-02 23:48:45 | 41.20768 | 2.28896 | 72° | 40km/h | 17102m | 3.2m/s | 0°C | 0% | 0hPa | 0V | 00:00:00 | 00:00:00 | 00:00:00 | |
| EA3IBE | 2026-09-02 23:48:44 | 41.20764 | 2.28883 | 67° | 42km/h | 17098m | 5.8m/s | 0°C | 0% | 0hPa | 0V | 00:00:00 | 00:00:00 | 00:00:00 | |
| EA3GEO | 2026-09-02 23:48:39 | 41.20749 | 2.28827 | 86° | 26km/h | 17073m | 5.0m/s | 0°C | 0% | 0hPa | 0V | 00:00:00 | 00:00:00 | 00:00:00 | |
| EA3IBE | 2026-09-02 23:48:38 | 41.20749 | 2.28819 | 75° | 24km/h | 17068m | 5.0m/s | 0°C | 0% | 0hPa | 0V | 00:00:00 | 00:00:00 | 00:00:00 | |
| EA3IBE | 2026-09-02 23:48:33 | 41.20736 | 2.28766 | 64° | 40km/h | 17043m | 5.5m/s | 0°C | 0% | 0hPa | 0V | 00:00:00 | 00:00:00 | 00:00:00 | |
| EA3GEO | 2026-09-02 23:48:28 | 41.20722 | 2.28717 | 69° | 20km/h | 17019m | 4.8m/s | 0°C | 0% | 0hPa | 0V | 00:00:00 | 00:00:00 | 00:00:00 | |
| EA3IBE | 2026-09-02 23:48:27 | 41.20720 | 2.28711 | 72° | 20km/h | 17014m | 3.9m/s | 0°C | 0% | 0hPa | 0V | 00:00:00 | 00:00:00 | 00:00:00 | |
| EA3IBE | 2026-09-02 23:48:22 | 41.20710 | 2.28661 | 60° | 37km/h | 16990m | 4.4m/s | 0°C | 0% | 0hPa | 0V | 00:00:00 | 00:00:00 | 00:00:00 | |
| EA3IBE | 2026-09-02 23:48:16 | 41.20697 | 2.28603 | 60° | 26km/h | 16961m | 4.8m/s | 0°C | 0% | 0hPa | 0V | 00:00:00 | 00:00:00 | 00:00:00 | |
| EA3GEO | 2026-09-02 23:48:11 | 41.20685 | 2.28557 | 79° | 35km/h | 16936m | 5.3m/s | 0°C | 0% | 0hPa | 0V | 00:00:00 | 00:00:00 | 00:00:00 | |
| EA3IBE | 2026-09-02 23:48:10 | 41.20683 | 2.28546 | 78° | 33km/h | 16931m | 3.6m/s | 0°C | 0% | 0hPa | 0V | 00:00:00 | 00:00:00 | 00:00:00 | |
| EA3IBE | 2026-09-02 23:48:05 | 41.20679 | 2.28502 | 64° | 29km/h | 16906m | 4.7m/s | 0°C | 0% | 0hPa | 0V | 00:00:00 | 00:00:00 | 00:00:00 | |
| EA3GEO | 2026-09-02 23:47:59 | 41.20655 | 2.28449 | 94° | 37km/h | 16878m | 5.3m/s | 0°C | 0% | 0hPa | 0V | 00:00:00 | 00:00:00 | 00:00:00 | |
| EA3IBE | 2026-09-02 23:47:58 | 41.20655 | 2.28437 | 97° | 37km/h | 16872m | 6.1m/s | 0°C | 0% | 0hPa | 0V | 00:00:00 | 00:00:00 | 00:00:00 | |
| EA3GEO | 2026-09-02 23:47:54 | 41.20656 | 2.28403 | 91° | 20km/h | 16848m | 7.5m/s | 0°C | 0% | 0hPa | 0V | 00:00:00 | 00:00:00 | 00:00:00 | |
| EA3GEO | 2026-09-02 23:47:48 | 41.20659 | 2.28357 | 107° | 31km/h | 16819m | 3.3m/s | 0°C | 0% | 0hPa | 0V | 00:00:00 | 00:00:00 | 00:00:00 | |
| EA3IBE | 2026-09-02 23:47:47 | 41.20661 | 2.28347 | 107° | 31km/h | 16814m | 5.4m/s | 0°C | 0% | 0hPa | 0V | 00:00:00 | 00:00:00 | 00:00:00 | |
| EA3GEO | 2026-09-02 23:47:43 | 41.20665 | 2.28311 | 99° | 27km/h | 16794m | 3.5m/s | 0°C | 0% | 0hPa | 0V | 00:00:00 | 00:00:00 | 00:00:00 | |
| EA3IBE | 2026-09-02 23:47:42 | 41.20666 | 2.28302 | 97° | 24km/h | 16790m | 5.8m/s | 0°C | 0% | 0hPa | 0V | 00:00:00 | 00:00:00 | 00:00:00 | |
| EA3GEO | 2026-09-02 23:47:37 | 41.20676 | 2.28259 | 125° | 31km/h | 16765m | 6.2m/s | 0°C | 0% | 0hPa | 0V | 00:00:00 | 00:00:00 | 00:00:00 | |
| EA3IBE | 2026-09-02 23:47:36 | 41.20680 | 2.28251 | 129° | 31km/h | 16760m | 3.5m/s | 0°C | 0% | 0hPa | 0V | 00:00:00 | 00:00:00 | 00:00:00 | |
| EA3GEO | 2026-09-02 23:47:32 | 41.20694 | 2.28218 | 103° | 27km/h | 16740m | 4.2m/s | 0°C | 0% | 0hPa | 0V | 00:00:00 | 00:00:00 | 00:00:00 | |
| EA3IBE | 2026-09-02 23:47:31 | 41.20696 | 2.28208 | 100° | 31km/h | 16735m | 6.0m/s | 0°C | 0% | 0hPa | 0V | 00:00:00 | 00:00:00 | 00:00:00 | |
| EA3GEO | 2026-09-02 23:47:26 | 41.20710 | 2.28156 | 120° | 35km/h | 16712m | 5.6m/s | 0°C | 0% | 0hPa | 0V | 00:00:00 | 00:00:00 | 00:00:00 | |
| EA3IBE | 2026-09-02 23:47:23 | 41.20723 | 2.28127 | 117° | 29km/h | 16697m | 3.6m/s | 0°C | 0% | 0hPa | 0V | 00:00:00 | 00:00:00 | 00:00:00 | |
| EA3GEO | 2026-09-02 23:47:20 | 41.20730 | 2.28093 | 106° | 38km/h | 16681m | 6.0m/s | 0°C | 0% | 0hPa | 0V | 00:00:00 | 00:00:00 | 00:00:00 | |
| EA3GEO | 2026-09-02 23:47:14 | 41.20757 | 2.28026 | 128° | 35km/h | 16652m | 3.6m/s | 0°C | 0% | 0hPa | 0V | 00:00:00 | 00:00:00 | 00:00:00 | |
| EA3IBE | 2026-09-02 23:47:12 | 41.20768 | 2.28005 | 120° | 44km/h | 16642m | 4.1m/s | 0°C | 0% | 0hPa | 0V | 00:00:00 | 00:00:00 | 00:00:00 | |
| EA3GEO | 2026-09-02 23:47:09 | 41.20784 | 2.27968 | 121° | 42km/h | 16626m | 4.3m/s | 0°C | 0% | 0hPa | 0V | 00:00:00 | 00:00:00 | 00:00:00 | |
| EA3IBE | 2026-09-02 23:47:05 | 41.20809 | 2.27915 | 129° | 44km/h | 16606m | 3.7m/s | 0°C | 0% | 0hPa | 0V | 00:00:00 | 00:00:00 | 00:00:00 | |
| EA3GEO | 2026-09-02 23:47:04 | 41.20815 | 2.27903 | 126° | 46km/h | 16602m | 6.1m/s | 0°C | 0% | 0hPa | 0V | 00:00:00 | 00:00:00 | 00:00:00 | |
| EA3GEO | 2026-09-02 23:46:58 | 41.20858 | 2.27817 | 121° | 60km/h | 16572m | 4.7m/s | 0°C | 0% | 0hPa | 0V | 00:00:00 | 00:00:00 | 00:00:00 | |
| EA3IBE | 2026-09-02 23:46:54 | 41.20887 | 2.27754 | 119° | 53km/h | 16551m | 5.7m/s | 0°C | 0% | 0hPa | 0V | 00:00:00 | 00:00:00 | 00:00:00 | |
| EA3GEO | 2026-09-02 23:46:52 | 41.20899 | 2.27724 | 121° | 49km/h | 16541m | 4.4m/s | 0°C | 0% | 0hPa | 0V | 00:00:00 | 00:00:00 | 00:00:00 | |
| EA3IBE | 2026-09-02 23:46:48 | 41.20925 | 2.27660 | 123° | 57km/h | 16522m | 6.5m/s | 0°C | 0% | 0hPa | 0V | 00:00:00 | 00:00:00 | 00:00:00 | |
| EA3GEO | 2026-09-02 23:46:46 | 41.20940 | 2.27628 | 120° | 55km/h | 16512m | 6.4m/s | 0°C | 0% | 0hPa | 0V | 00:00:00 | 00:00:00 | 00:00:00 | |
| EA3IBE | 2026-09-02 23:46:40 | 41.20971 | 2.27529 | 110° | 53km/h | 16481m | 3.9m/s | 0°C | 0% | 0hPa | 0V | 00:00:00 | 00:00:00 | 00:00:00 | |
| EA3IBE | 2026-09-02 23:46:34 | 41.21006 | 2.27440 | 120° | 53km/h | 16454m | 5.3m/s | 0°C | 0% | 0hPa | 0V | 00:00:00 | 00:00:00 | 00:00:00 | |
| EA3GEO | 2026-09-02 23:46:29 | 41.21030 | 2.27360 | 111° | 53km/h | 16428m | 3.4m/s | 0°C | 0% | 0hPa | 0V | 00:00:00 | 00:00:00 | 00:00:00 | |
| EA3IBE | 2026-09-02 23:46:28 | 41.21034 | 2.27342 | 108° | 55km/h | 16424m | 6.0m/s | 0°C | 0% | 0hPa | 0V | 00:00:00 | 00:00:00 | 00:00:00 | |
| EA3IBE | 2026-09-02 23:46:24 | 41.21055 | 2.27265 | 109° | 46km/h | 16398m | 4.6m/s | 0°C | 0% | 0hPa | 0V | 00:00:00 | 00:00:00 | 00:00:00 | |
| EA3IBE | 2026-09-02 23:46:18 | 41.21069 | 2.27189 | 96° | 47km/h | 16374m | 3.6m/s | 0°C | 0% | 0hPa | 0V | 00:00:00 | 00:00:00 | 00:00:00 | |
| EA3IBE | 2026-09-02 23:46:12 | 41.21085 | 2.27100 | 107° | 49km/h | 16345m | 4.2m/s | 0°C | 0% | 0hPa | 0V | 00:00:00 | 00:00:00 | 00:00:00 | |
| EA3GEO | 2026-09-02 23:46:07 | 41.21094 | 2.27025 | 107° | 42km/h | 16322m | 4.6m/s | 0°C | 0% | 0hPa | 0V | 00:00:00 | 00:00:00 | 00:00:00 | |
| EA3IBE | 2026-09-02 23:46:05 | 41.21101 | 2.27000 | 113° | 37km/h | 16311m | 4.7m/s | 0°C | 0% | 0hPa | 0V | 00:00:00 | 00:00:00 | 00:00:00 | |
| EA3GEO | 2026-09-02 23:46:01 | 41.21115 | 2.26951 | 105° | 40km/h | 16291m | 6.4m/s | 0°C | 0% | 0hPa | 0V | 00:00:00 | 00:00:00 | 00:00:00 | |
| EA3IBE | 2026-09-02 23:45:57 | 41.21123 | 2.26898 | 114° | 40km/h | 16270m | 4.2m/s | 0°C | 0% | 0hPa | 0V | 00:00:00 | 00:00:00 | 00:00:00 | |
| EA3GEO | 2026-09-02 23:45:55 | 41.21133 | 2.26877 | 134° | 35km/h | 16260m | 4.7m/s | 0°C | 0% | 0hPa | 0V | 00:00:00 | 00:00:00 | 00:00:00 | |
| EA3IBE | 2026-09-02 23:45:52 | 41.21153 | 2.26848 | 122° | 40km/h | 16247m | 4.2m/s | 0°C | 0% | 0hPa | 0V | 00:00:00 | 00:00:00 | 00:00:00 | |
| EA3GEO | 2026-09-02 23:45:50 | 41.21158 | 2.26824 | 86° | 37km/h | 16235m | 5.0m/s | 0°C | 0% | 0hPa | 0V | 00:00:00 | 00:00:00 | 00:00:00 | |
| EA3GEO | 2026-09-02 23:45:45 | 41.21172 | 2.26769 | 137° | 44km/h | 16209m | 4.8m/s | 0°C | 0% | 0hPa | 0V | 00:00:00 | 00:00:00 | 00:00:00 | |
| EA3GEO | 2026-09-02 23:45:39 | 41.21214 | 2.26706 | 142° | 44km/h | 16176m | 4.7m/s | 0°C | 0% | 0hPa | 0V | 00:00:00 | 00:00:00 | 00:00:00 | |
| EA3IBE | 2026-09-02 23:45:37 | 41.21231 | 2.26688 | 138° | 40km/h | 16166m | 5.1m/s | 0°C | 0% | 0hPa | 0V | 00:00:00 | 00:00:00 | 00:00:00 | |
| EA3GEO | 2026-09-02 23:45:33 | 41.21264 | 2.26651 | 139° | 51km/h | 16146m | 6.5m/s | 0°C | 0% | 0hPa | 0V | 00:00:00 | 00:00:00 | 00:00:00 | |
| EA3IBE | 2026-09-02 23:45:31 | 41.21284 | 2.26625 | 139° | 60km/h | 16137m | 4.9m/s | 0°C | 0% | 0hPa | 0V | 00:00:00 | 00:00:00 | 00:00:00 | |
| EA3GEO | 2026-09-02 23:45:27 | 41.21330 | 2.26575 | 139° | 53km/h | 16119m | 4.0m/s | 0°C | 0% | 0hPa | 0V | 00:00:00 | 00:00:00 | 00:00:00 | |
| EA3GEO | 2026-09-02 23:45:22 | 41.21376 | 2.26517 | 131° | 53km/h | 16096m | 4.6m/s | 0°C | 0% | 0hPa | 0V | 00:00:00 | 00:00:00 | 00:00:00 | |
| EA3GEO | 2026-09-02 23:45:17 | 41.21432 | 2.26446 | 145° | 49km/h | 16069m | 3.1m/s | 0°C | 0% | 0hPa | 0V | 00:00:00 | 00:00:00 | 00:00:00 | |
| EA3IBE | 2026-09-02 23:45:14 | 41.21450 | 2.26424 | 133° | 51km/h | 16059m | 4.9m/s | 0°C | 0% | 0hPa | 0V | 00:00:00 | 00:00:00 | 00:00:00 | |
| EA3GEO | 2026-09-02 23:45:10 | 41.21483 | 2.26368 | 127° | 53km/h | 16044m | 3.7m/s | 0°C | 0% | 0hPa | 0V | 00:00:00 | 00:00:00 | 00:00:00 | |
| EA3IBE | 2026-09-02 23:45:08 | 41.21501 | 2.26343 | 140° | 51km/h | 16034m | 5.7m/s | 0°C | 0% | 0hPa | 0V | 00:00:00 | 00:00:00 | 00:00:00 | |
| EA3GEO | 2026-09-02 23:45:04 | 41.21536 | 2.26298 | 134° | 44km/h | 16016m | 6.4m/s | 0°C | 0% | 0hPa | 0V | 00:00:00 | 00:00:00 | 00:00:00 | |
| EA3IBE | 2026-09-02 23:44:59 | 41.21574 | 2.26237 | 136° | 49km/h | 15992m | 3.6m/s | 0°C | 0% | 0hPa | 0V | 00:00:00 | 00:00:00 | 00:00:00 | |
| EA3GEO | 2026-09-02 23:44:58 | 41.21582 | 2.26225 | 132° | 47km/h | 15987m | 5.6m/s | 0°C | 0% | 0hPa | 0V | 00:00:00 | 00:00:00 | 00:00:00 | |
| EA3GEO | 2026-09-02 23:44:52 | 41.21628 | 2.26161 | 132° | 44km/h | 15959m | 5.6m/s | 0°C | 0% | 0hPa | 0V | 00:00:00 | 00:00:00 | 00:00:00 | |
| EA3IBE | 2026-09-02 23:44:48 | 41.21660 | 2.26114 | 132° | 47km/h | 15940m | 3.2m/s | 0°C | 0% | 0hPa | 0V | 00:00:00 | 00:00:00 | 00:00:00 | |
| EA3GEO | 2026-09-02 23:44:46 | 41.21677 | 2.26092 | 140° | 44km/h | 15931m | 3.9m/s | 0°C | 0% | 0hPa | 0V | 00:00:00 | 00:00:00 | 00:00:00 | |
| EA3GEO | 2026-09-02 23:44:41 | 41.21719 | 2.26040 | 135° | 49km/h | 15907m | 6.3m/s | 0°C | 0% | 0hPa | 0V | 00:00:00 | 00:00:00 | 00:00:00 | |
| EA3IBE | 2026-09-02 23:44:39 | 41.21736 | 2.26016 | 134° | 47km/h | 15898m | 4.5m/s | 0°C | 0% | 0hPa | 0V | 00:00:00 | 00:00:00 | 00:00:00 | |
| EA3GEO | 2026-09-02 23:44:35 | 41.21770 | 2.25975 | 137° | 44km/h | 15881m | 4.6m/s | 0°C | 0% | 0hPa | 0V | 00:00:00 | 00:00:00 | 00:00:00 | |
| EA3IBE | 2026-09-02 23:44:33 | 41.21785 | 2.25955 | 135° | 42km/h | 15871m | 4.2m/s | 0°C | 0% | 0hPa | 0V | 00:00:00 | 00:00:00 | 00:00:00 | |
| EA3GEO | 2026-09-02 23:44:30 | 41.21809 | 2.25923 | 139° | 42km/h | 15857m | 6.3m/s | 0°C | 0% | 0hPa | 0V | 00:00:00 | 00:00:00 | 00:00:00 | |
| EA3GEO | 2026-09-02 23:44:24 | 41.21860 | 2.25864 | 142° | 46km/h | 15827m | 5.6m/s | 0°C | 0% | 0hPa | 0V | 00:00:00 | 00:00:00 | 00:00:00 | |
| EA3GEO | 2026-09-02 23:44:19 | 41.21903 | 2.25811 | 131° | 47km/h | 15803m | 4.4m/s | 0°C | 0% | 0hPa | 0V | 00:00:00 | 00:00:00 | 00:00:00 | |
| EA3IBE | 2026-09-02 23:44:18 | 41.21910 | 2.25799 | 134° | 46km/h | 15798m | 4.3m/s | 0°C | 0% | 0hPa | 0V | 00:00:00 | 00:00:00 | 00:00:00 | |
| EA3GEO | 2026-09-02 23:44:13 | 41.21953 | 2.25748 | 144° | 47km/h | 15776m | 5.2m/s | 0°C | 0% | 0hPa | 0V | 00:00:00 | 00:00:00 | 00:00:00 | |
| EA3IBE | 2026-09-02 23:44:09 | 41.21991 | 2.25702 | 132° | 49km/h | 15755m | 6.4m/s | 0°C | 0% | 0hPa | 0V | 00:00:00 | 00:00:00 | 00:00:00 | |
| EA3GEO | 2026-09-02 23:44:08 | 41.21999 | 2.25690 | 132° | 46km/h | 15750m | 3.9m/s | 0°C | 0% | 0hPa | 0V | 00:00:00 | 00:00:00 | 00:00:00 | |
| EA3GEO | 2026-09-02 23:44:02 | 41.22048 | 2.25622 | 136° | 58km/h | 15723m | 4.2m/s | 0°C | 0% | 0hPa | 0V | 00:00:00 | 00:00:00 | 00:00:00 | |
| EA3IBE | 2026-09-02 23:44:00 | 41.22069 | 2.25595 | 135° | 53km/h | 15715m | 3.7m/s | 0°C | 0% | 0hPa | 0V | 00:00:00 | 00:00:00 | 00:00:00 | |
| EA3GEO | 2026-09-02 23:43:57 | 41.22096 | 2.25557 | 134° | 47km/h | 15701m | 5.4m/s | 0°C | 0% | 0hPa | 0V | 00:00:00 | 00:00:00 | 00:00:00 | |
| EA3IBE | 2026-09-02 23:43:55 | 41.22112 | 2.25536 | 137° | 47km/h | 15694m | 5.5m/s | 0°C | 0% | 0hPa | 0V | 00:00:00 | 00:00:00 | 00:00:00 | |
| EA3GEO | 2026-09-02 23:43:51 | 41.22151 | 2.25483 | 136° | 62km/h | 15674m | 6.4m/s | 0°C | 0% | 0hPa | 0V | 00:00:00 | 00:00:00 | 00:00:00 | |
| EA3IBE | 2026-09-02 23:43:49 | 41.22174 | 2.25454 | 140° | 60km/h | 15663m | 3.8m/s | 0°C | 0% | 0hPa | 0V | 00:00:00 | 00:00:00 | 00:00:00 | |
| EA3GEO | 2026-09-02 23:43:45 | 41.22212 | 2.25408 | 136° | 51km/h | 15647m | 5.1m/s | 0°C | 0% | 0hPa | 0V | 00:00:00 | 00:00:00 | 00:00:00 | |
| EA3IBE | 2026-09-02 23:43:44 | 41.22222 | 2.25395 | 138° | 55km/h | 15643m | 4.5m/s | 0°C | 0% | 0hPa | 0V | 00:00:00 | 00:00:00 | 00:00:00 | |
| EA3GEO | 2026-09-02 23:43:40 | 41.22263 | 2.25334 | 128° | 69km/h | 15623m | 5.8m/s | 0°C | 0% | 0hPa | 0V | 00:00:00 | 00:00:00 | 00:00:00 | |
| EA3IBE | 2026-09-02 23:43:39 | 41.22273 | 2.25317 | 131° | 66km/h | 15619m | 3.8m/s | 0°C | 0% | 0hPa | 0V | 00:00:00 | 00:00:00 | 00:00:00 | |
| EA3GEO | 2026-09-02 23:43:34 | 41.22319 | 2.25241 | 129° | 60km/h | 15593m | 4.0m/s | 0°C | 0% | 0hPa | 0V | 00:00:00 | 00:00:00 | 00:00:00 | |
| EA3IBE | 2026-09-02 23:43:31 | 41.22351 | 2.25190 | 127° | 69km/h | 15580m | 8.0m/s | 0°C | 0% | 0hPa | 0V | 00:00:00 | 00:00:00 | 00:00:00 | |
| EA3GEO | 2026-09-02 23:43:29 | 41.22369 | 2.25156 | 129° | 60km/h | 15572m | 3.7m/s | 0°C | 0% | 0hPa | 0V | 00:00:00 | 00:00:00 | 00:00:00 | |
| EA3IBE | 2026-09-02 23:43:26 | 41.22401 | 2.25110 | 132° | 66km/h | 15552m | 4.8m/s | 0°C | 0% | 0hPa | 0V | 00:00:00 | 00:00:00 | 00:00:00 | |
| EA3GEO | 2026-09-02 23:43:23 | 41.22432 | 2.25060 | 125° | 60km/h | 15536m | 7.7m/s | 0°C | 0% | 0hPa | 0V | 00:00:00 | 00:00:00 | 00:00:00 | |
| EA3IBE | 2026-09-02 23:43:20 | 41.22451 | 2.25014 | 125° | 44km/h | 15517m | 4.8m/s | 0°C | 0% | 0hPa | 0V | 00:00:00 | 00:00:00 | 00:00:00 | |
| EA3GEO | 2026-09-02 23:43:17 | 41.22470 | 2.24975 | 120° | 53km/h | 15499m | 4.1m/s | 0°C | 0% | 0hPa | 0V | 00:00:00 | 00:00:00 | 00:00:00 | |
| EA3IBE | 2026-09-02 23:43:14 | 41.22490 | 2.24923 | 117° | 62km/h | 15484m | 7.7m/s | 0°C | 0% | 0hPa | 0V | 00:00:00 | 00:00:00 | 00:00:00 | |
| EA3GEO | 2026-09-02 23:43:11 | 41.22510 | 2.24882 | 133° | 44km/h | 15466m | 6.5m/s | 0°C | 0% | 0hPa | 0V | 00:00:00 | 00:00:00 | 00:00:00 | |
| EA3IBE | 2026-09-02 23:43:08 | 41.22534 | 2.24849 | 131° | 49km/h | 15448m | 4.8m/s | 0°C | 0% | 0hPa | 0V | 00:00:00 | 00:00:00 | 00:00:00 | |
| EA3GEO | 2026-09-02 23:43:06 | 41.22546 | 2.24822 | 118° | 46km/h | 15435m | 1.4m/s | 0°C | 0% | 0hPa | 0V | 00:00:00 | 00:00:00 | 00:00:00 | |
| EA3IBE | 2026-09-02 23:43:02 | 41.22570 | 2.24771 | 133° | 44km/h | 15416m | 4.6m/s | 0°C | 0% | 0hPa | 0V | 00:00:00 | 00:00:00 | 00:00:00 | |
| EA3GEO | 2026-09-02 23:43:00 | 41.22587 | 2.24749 | 143° | 49km/h | 15403m | 5.8m/s | 0°C | 0% | 0hPa | 0V | 00:00:00 | 00:00:00 | 00:00:00 | |
| EA3IBE | 2026-09-02 23:42:57 | 41.22616 | 2.24716 | 133° | 55km/h | 15388m | 4.5m/s | 0°C | 0% | 0hPa | 0V | 00:00:00 | 00:00:00 | 00:00:00 | |
| EA3GEO | 2026-09-02 23:42:55 | 41.22634 | 2.24688 | 134° | 51km/h | 15378m | 4.1m/s | 0°C | 0% | 0hPa | 0V | 00:00:00 | 00:00:00 | 00:00:00 | |
| EA3IBE | 2026-09-02 23:42:51 | 41.22667 | 2.24645 | 135° | 42km/h | 15355m | 5.8m/s | 0°C | 0% | 0hPa | 0V | 00:00:00 | 00:00:00 | 00:00:00 | |
| EA3GEO | 2026-09-02 23:42:50 | 41.22674 | 2.24634 | 134° | 46km/h | 15349m | 5.7m/s | 0°C | 0% | 0hPa | 0V | 00:00:00 | 00:00:00 | 00:00:00 | |
| EA3IBE | 2026-09-02 23:42:45 | 41.22713 | 2.24564 | 122° | 62km/h | 15320m | 6.0m/s | 0°C | 0% | 0hPa | 0V | 00:00:00 | 00:00:00 | 00:00:00 | |
| EA3GEO | 2026-09-02 23:42:44 | 41.22721 | 2.24547 | 125° | 55km/h | 15313m | 7.6m/s | 0°C | 0% | 0hPa | 0V | 00:00:00 | 00:00:00 | 00:00:00 | |
| EA3IBE | 2026-09-02 23:42:38 | 41.22758 | 2.24473 | 112° | 51km/h | 15276m | 6.2m/s | 0°C | 0% | 0hPa | 0V | 00:00:00 | 00:00:00 | 00:00:00 | |
| EA3GEO | 2026-09-02 23:42:33 | 41.22784 | 2.24393 | 116° | 53km/h | 15249m | 6.8m/s | 0°C | 0% | 0hPa | 0V | 00:00:00 | 00:00:00 | 00:00:00 | |
| EA3IBE | 2026-09-02 23:42:32 | 41.22790 | 2.24378 | 119° | 46km/h | 15243m | 5.8m/s | 0°C | 0% | 0hPa | 0V | 00:00:00 | 00:00:00 | 00:00:00 | |
| EA3GEO | 2026-09-02 23:42:27 | 41.22810 | 2.24309 | 118° | 57km/h | 15214m | 7.6m/s | 0°C | 0% | 0hPa | 0V | 00:00:00 | 00:00:00 | 00:00:00 | |
| EA3IBE | 2026-09-02 23:42:24 | 41.22830 | 2.24256 | 119° | 62km/h | 15196m | 3.2m/s | 0°C | 0% | 0hPa | 0V | 00:00:00 | 00:00:00 | 00:00:00 | |
| EA3GEO | 2026-09-02 23:42:21 | 41.22846 | 2.24204 | 103° | 47km/h | 15182m | 3.9m/s | 0°C | 0% | 0hPa | 0V | 00:00:00 | 00:00:00 | 00:00:00 | |
| EA3IBE | 2026-09-02 23:42:18 | 41.22855 | 2.24155 | 102° | 49km/h | 15161m | 7.7m/s | 0°C | 0% | 0hPa | 0V | 00:00:00 | 00:00:00 | 00:00:00 | |
| EA3GEO | 2026-09-02 23:42:15 | 41.22863 | 2.24113 | 114° | 47km/h | 15145m | 4.5m/s | 0°C | 0% | 0hPa | 0V | 00:00:00 | 00:00:00 | 00:00:00 | |
| EA3IBE | 2026-09-02 23:42:13 | 41.22880 | 2.24062 | 113° | 62km/h | 15129m | 6.6m/s | 0°C | 0% | 0hPa | 0V | 00:00:00 | 00:00:00 | 00:00:00 | |
| EA3GEO | 2026-09-02 23:42:09 | 41.22890 | 2.24013 | 104° | 46km/h | 15112m | 5.0m/s | 0°C | 0% | 0hPa | 0V | 00:00:00 | 00:00:00 | 00:00:00 | |
| EA3IBE | 2026-09-02 23:42:06 | 41.22895 | 2.23969 | 95° | 49km/h | 15092m | 6.3m/s | 0°C | 0% | 0hPa | 0V | 00:00:00 | 00:00:00 | 00:00:00 | |
| EA3GEO | 2026-09-02 23:42:04 | 41.22898 | 2.23933 | 100° | 55km/h | 15082m | 5.2m/s | 0°C | 0% | 0hPa | 0V | 00:00:00 | 00:00:00 | 00:00:00 | |
| EA3IBE | 2026-09-02 23:42:01 | 41.22910 | 2.23889 | 126° | 37km/h | 15066m | 4.0m/s | 0°C | 0% | 0hPa | 0V | 00:00:00 | 00:00:00 | 00:00:00 | |
| EA3GEO | 2026-09-02 23:41:59 | 41.22917 | 2.23869 | 110° | 35km/h | 15056m | 5.7m/s | 0°C | 0% | 0hPa | 0V | 00:00:00 | 00:00:00 | 00:00:00 | |
| EA3IBE | 2026-09-02 23:41:55 | 41.22922 | 2.23801 | 97° | 66km/h | 15032m | 7.9m/s | 0°C | 0% | 0hPa | 0V | 00:00:00 | 00:00:00 | 00:00:00 | |
| EA3GEO | 2026-09-02 23:41:53 | 41.22929 | 2.23762 | 107° | 51km/h | 15023m | 6.0m/s | 0°C | 0% | 0hPa | 0V | 00:00:00 | 00:00:00 | 00:00:00 | |
| EA3IBE | 2026-09-02 23:41:48 | 41.22943 | 2.23700 | 95° | 44km/h | 14995m | 4.1m/s | 0°C | 0% | 0hPa | 0V | 00:00:00 | 00:00:00 | 00:00:00 | |
| EA3GEO | 2026-09-02 23:41:43 | 41.22947 | 2.23629 | 102° | 49km/h | 14965m | 6.5m/s | 0°C | 0% | 0hPa | 0V | 00:00:00 | 00:00:00 | 00:00:00 | |
| EA3IBE | 2026-09-02 23:41:42 | 41.22949 | 2.23614 | 101° | 42km/h | 14960m | 4.5m/s | 0°C | 0% | 0hPa | 0V | 00:00:00 | 00:00:00 | 00:00:00 | |
| EA3GEO | 2026-09-02 23:41:37 | 41.22959 | 2.23548 | 104° | 46km/h | 14936m | 1.7m/s | 0°C | 0% | 0hPa | 0V | 00:00:00 | 00:00:00 | 00:00:00 | |
| EA3IBE | 2026-09-02 23:41:35 | 41.22962 | 2.23520 | 96° | 40km/h | 14928m | 9.4m/s | 0°C | 0% | 0hPa | 0V | 00:00:00 | 00:00:00 | 00:00:00 | |
| EA3GEO | 2026-09-02 23:41:32 | 41.22960 | 2.23484 | 92° | 38km/h | 14905m | 5.5m/s | 0°C | 0% | 0hPa | 0V | 00:00:00 | 00:00:00 | 00:00:00 | |
| EA3IBE | 2026-09-02 23:41:29 | 41.22966 | 2.23443 | 100° | 44km/h | 14889m | 4.2m/s | 0°C | 0% | 0hPa | 0V | 00:00:00 | 00:00:00 | 00:00:00 | |
| EA3GEO | 2026-09-02 23:41:26 | 41.22962 | 2.23403 | 75° | 40km/h | 14869m | 9.8m/s | 0°C | 0% | 0hPa | 0V | 00:00:00 | 00:00:00 | 00:00:00 | |
| EA3IBE | 2026-09-02 23:41:24 | 41.22961 | 2.23378 | 107° | 37km/h | 14856m | 5.1m/s | 0°C | 0% | 0hPa | 0V | 00:00:00 | 00:00:00 | 00:00:00 | |
| EA3GEO | 2026-09-02 23:41:20 | 41.22977 | 2.23327 | 94° | 42km/h | 14828m | 5.4m/s | 0°C | 0% | 0hPa | 0V | 00:00:00 | 00:00:00 | 00:00:00 | |
| EA3IBE | 2026-09-02 23:41:18 | 41.22977 | 2.23301 | 94° | 37km/h | 14814m | 5.5m/s | 0°C | 0% | 0hPa | 0V | 00:00:00 | 00:00:00 | 00:00:00 | |
| EA3GEO | 2026-09-02 23:41:15 | 41.22978 | 2.23271 | 94° | 26km/h | 14796m | 6.1m/s | 0°C | 0% | 0hPa | 0V | 00:00:00 | 00:00:00 | 00:00:00 | |
| EA3IBE | 2026-09-02 23:41:13 | 41.22983 | 2.23248 | 111° | 40km/h | 14788m | 5.7m/s | 0°C | 0% | 0hPa | 0V | 00:00:00 | 00:00:00 | 00:00:00 | |
| EA3GEO | 2026-09-02 23:41:10 | 41.22996 | 2.23213 | 115° | 38km/h | 14767m | 6.2m/s | 0°C | 0% | 0hPa | 0V | 00:00:00 | 00:00:00 | 00:00:00 | |
| EA3IBE | 2026-09-02 23:41:06 | 41.22998 | 2.23169 | 90° | 29km/h | 14747m | 7.8m/s | 0°C | 0% | 0hPa | 0V | 00:00:00 | 00:00:00 | 00:00:00 | |
| EA3GEO | 2026-09-02 23:41:04 | 41.23003 | 2.23149 | 115° | 33km/h | 14736m | 6.4m/s | 0°C | 0% | 0hPa | 0V | 00:00:00 | 00:00:00 | 00:00:00 | |
| EA3GEO | 2026-09-02 23:40:59 | 41.23027 | 2.23100 | 122° | 33km/h | 14702m | 2.6m/s | 0°C | 0% | 0hPa | 0V | 00:00:00 | 00:00:00 | 00:00:00 | |
| EA3IBE | 2026-09-02 23:40:57 | 41.23035 | 2.23081 | 122° | 33km/h | 14691m | 2.8m/s | 0°C | 0% | 0hPa | 0V | 00:00:00 | 00:00:00 | 00:00:00 | |
| EA3GEO | 2026-09-02 23:40:53 | 41.23044 | 2.23052 | 118° | 18km/h | 14666m | 6.6m/s | 0°C | 0% | 0hPa | 0V | 00:00:00 | 00:00:00 | 00:00:00 | |
| EA3IBE | 2026-09-02 23:40:52 | 41.23047 | 2.23047 | 134° | 20km/h | 14659m | 8.7m/s | 0°C | 0% | 0hPa | 0V | 00:00:00 | 00:00:00 | 00:00:00 | |
| EA3GEO | 2026-09-02 23:40:48 | 41.23072 | 2.23019 | 129° | 35km/h | 14631m | 0.8m/s | 0°C | 0% | 0hPa | 0V | 00:00:00 | 00:00:00 | 00:00:00 | |
| EA3IBE | 2026-09-02 23:40:46 | 41.23078 | 2.23003 | 124° | 29km/h | 14622m | 7.3m/s | 0°C | 0% | 0hPa | 0V | 00:00:00 | 00:00:00 | 00:00:00 | |
| EA3GEO | 2026-09-02 23:40:42 | 41.23104 | 2.22973 | 152° | 31km/h | 14600m | 7.4m/s | 0°C | 0% | 0hPa | 0V | 00:00:00 | 00:00:00 | 00:00:00 | |
| EA3IBE | 2026-09-02 23:40:39 | 41.23126 | 2.22957 | 150° | 35km/h | 14583m | 8.1m/s | 0°C | 0% | 0hPa | 0V | 00:00:00 | 00:00:00 | 00:00:00 | |
| EA3GEO | 2026-09-02 23:40:36 | 41.23146 | 2.22937 | 135° | 40km/h | 14563m | 7.0m/s | 0°C | 0% | 0hPa | 0V | 00:00:00 | 00:00:00 | 00:00:00 | |
| EA3IBE | 2026-09-02 23:40:33 | 41.23171 | 2.22908 | 157° | 40km/h | 14541m | 5.6m/s | 0°C | 0% | 0hPa | 0V | 00:00:00 | 00:00:00 | 00:00:00 | |
| EA3GEO | 2026-09-02 23:40:30 | 41.23200 | 2.22899 | 165° | 42km/h | 14526m | 3.8m/s | 0°C | 0% | 0hPa | 0V | 00:00:00 | 00:00:00 | 00:00:00 | |
| EA3IBE | 2026-09-02 23:40:28 | 41.23219 | 2.22889 | 154° | 38km/h | 14516m | 2.4m/s | 0°C | 0% | 0hPa | 0V | 00:00:00 | 00:00:00 | 00:00:00 | |
| EA3GEO | 2026-09-02 23:40:25 | 41.23247 | 2.22869 | 155° | 49km/h | 14500m | 4.6m/s | 0°C | 0% | 0hPa | 0V | 00:00:00 | 00:00:00 | 00:00:00 | |
| EA3IBE | 2026-09-02 23:40:20 | 41.23290 | 2.22826 | 143° | 42km/h | 14470m | 5.6m/s | 0°C | 0% | 0hPa | 0V | 00:00:00 | 00:00:00 | 00:00:00 | |
| EA3GEO | 2026-09-02 23:40:19 | 41.23299 | 2.22818 | 157° | 46km/h | 14464m | 6.2m/s | 0°C | 0% | 0hPa | 0V | 00:00:00 | 00:00:00 | 00:00:00 | |
| EA3IBE | 2026-09-02 23:40:14 | 41.23351 | 2.22790 | 142° | 46km/h | 14434m | 5.1m/s | 0°C | 0% | 0hPa | 0V | 00:00:00 | 00:00:00 | 00:00:00 | |
| EA3GEO | 2026-09-02 23:40:13 | 41.23359 | 2.22779 | 129° | 47km/h | 14426m | 6.9m/s | 0°C | 0% | 0hPa | 0V | 00:00:00 | 00:00:00 | 00:00:00 | |
| EA3IBE | 2026-09-02 23:40:08 | 41.23393 | 2.22723 | 143° | 35km/h | 14398m | 8.6m/s | 0°C | 0% | 0hPa | 0V | 00:00:00 | 00:00:00 | 00:00:00 | |
| EA3GEO | 2026-09-02 23:40:07 | 41.23401 | 2.22716 | 152° | 42km/h | 14391m | 5.3m/s | 0°C | 0% | 0hPa | 0V | 00:00:00 | 00:00:00 | 00:00:00 | |
| EA3IBE | 2026-09-02 23:40:02 | 41.23442 | 2.22679 | 130° | 38km/h | 14362m | 6.1m/s | 0°C | 0% | 0hPa | 0V | 00:00:00 | 00:00:00 | 00:00:00 | |
| EA3GEO | 2026-09-02 23:40:01 | 41.23448 | 2.22669 | 122° | 35km/h | 14355m | 8.2m/s | 0°C | 0% | 0hPa | 0V | 00:00:00 | 00:00:00 | 00:00:00 | |
| EA3IBE | 2026-09-02 23:39:57 | 41.23473 | 2.22631 | 142° | 42km/h | 14328m | 11.1m/s | 0°C | 0% | 0hPa | 0V | 00:00:00 | 00:00:00 | 00:00:00 | |
| EA3GEO | 2026-09-02 23:39:56 | 41.23481 | 2.22622 | 142° | 42km/h | 14320m | 5.2m/s | 0°C | 0% | 0hPa | 0V | 00:00:00 | 00:00:00 | 00:00:00 | |
| EA3IBE | 2026-09-02 23:39:50 | 41.23517 | 2.22561 | 126° | 37km/h | 14286m | 3.4m/s | 0°C | 0% | 0hPa | 0V | 00:00:00 | 00:00:00 | 00:00:00 | |
| EA3GEO | 2026-09-02 23:39:45 | 41.23549 | 2.22516 | 136° | 38km/h | 14259m | 9.2m/s | 0°C | 0% | 0hPa | 0V | 00:00:00 | 00:00:00 | 00:00:00 | |
| EA3IBE | 2026-09-02 23:39:42 | 41.23568 | 2.22492 | 131° | 40km/h | 14241m | 5.0m/s | 0°C | 0% | 0hPa | 0V | 00:00:00 | 00:00:00 | 00:00:00 | |
| EA3GEO | 2026-09-02 23:39:39 | 41.23587 | 2.22463 | 133° | 29km/h | 14226m | 6.4m/s | 0°C | 0% | 0hPa | 0V | 00:00:00 | 00:00:00 | 00:00:00 | |
| EA3IBE | 2026-09-02 23:39:34 | 41.23611 | 2.22422 | 121° | 33km/h | 14192m | 10.9m/s | 0°C | 0% | 0hPa | 0V | 00:00:00 | 00:00:00 | 00:00:00 | |
| EA3GEO | 2026-09-02 23:39:33 | 41.23616 | 2.22412 | 118° | 37km/h | 14185m | 4.4m/s | 0°C | 0% | 0hPa | 0V | 00:00:00 | 00:00:00 | 00:00:00 | |
| EA3GEO | 2026-09-02 23:39:28 | 41.23643 | 2.22368 | 124° | 27km/h | 14149m | 7.2m/s | 0°C | 0% | 0hPa | 0V | 00:00:00 | 00:00:00 | 00:00:00 | |
| EA3GEO | 2026-09-02 23:39:22 | 41.23672 | 2.22315 | 133° | 33km/h | 14111m | 4.5m/s | 0°C | 0% | 0hPa | 0V | 00:00:00 | 00:00:00 | 00:00:00 | |
| EA3GEO | 2026-09-02 23:39:16 | 41.23700 | 2.22276 | 126° | 29km/h | 14075m | 4.2m/s | 0°C | 0% | 0hPa | 0V | 00:00:00 | 00:00:00 | 00:00:00 | |
| EA3IBE | 2026-09-02 23:39:15 | 41.23704 | 2.22268 | 122° | 31km/h | 14069m | 8.4m/s | 0°C | 0% | 0hPa | 0V | 00:00:00 | 00:00:00 | 00:00:00 | |
| EA3GEO | 2026-09-02 23:39:10 | 41.23727 | 2.22234 | 146° | 20km/h | 14035m | 6.4m/s | 0°C | 0% | 0hPa | 0V | 00:00:00 | 00:00:00 | 00:00:00 | |
| EA3GEO | 2026-09-02 23:39:05 | 41.23758 | 2.22216 | 134° | 31km/h | 13999m | 4.7m/s | 0°C | 0% | 0hPa | 0V | 00:00:00 | 00:00:00 | 00:00:00 | |
| EA3IBE | 2026-09-02 23:39:04 | 41.23764 | 2.22208 | 128° | 33km/h | 13993m | 6.8m/s | 0°C | 0% | 0hPa | 0V | 00:00:00 | 00:00:00 | 00:00:00 | |
| EA3GEO | 2026-09-02 23:38:58 | 41.23810 | 2.22168 | 163° | 37km/h | 13958m | 5.4m/s | 0°C | 0% | 0hPa | 0V | 00:00:00 | 00:00:00 | 00:00:00 | |
| EA3IBE | 2026-09-02 23:38:57 | 41.23818 | 2.22164 | 156° | 35km/h | 13954m | 4.1m/s | 0°C | 0% | 0hPa | 0V | 00:00:00 | 00:00:00 | 00:00:00 | |
| EA3GEO | 2026-09-02 23:38:52 | 41.23858 | 2.22136 | 149° | 42km/h | 13927m | 7.9m/s | 0°C | 0% | 0hPa | 0V | 00:00:00 | 00:00:00 | 00:00:00 | |
| EA3IBE | 2026-09-02 23:38:50 | 41.23874 | 2.22120 | 146° | 40km/h | 13913m | 10.0m/s | 0°C | 0% | 0hPa | 0V | 00:00:00 | 00:00:00 | 00:00:00 | |
| EA3GEO | 2026-09-02 23:38:47 | 41.23890 | 2.22109 | 154° | 16km/h | 13887m | 6.4m/s | 0°C | 0% | 0hPa | 0V | 00:00:00 | 00:00:00 | 00:00:00 | |
| EA3IBE | 2026-09-02 23:38:44 | 41.23908 | 2.22094 | 137° | 37km/h | 13872m | 4.6m/s | 0°C | 0% | 0hPa | 0V | 00:00:00 | 00:00:00 | 00:00:00 | |
| EA3GEO | 2026-09-02 23:38:42 | 41.23923 | 2.22078 | 150° | 38km/h | 13860m | 2.5m/s | 0°C | 0% | 0hPa | 0V | 00:00:00 | 00:00:00 | 00:00:00 | |
| EA3IBE | 2026-09-02 23:38:38 | 41.23946 | 2.22063 | 152° | 18km/h | 13834m | 5.6m/s | 0°C | 0% | 0hPa | 0V | 00:00:00 | 00:00:00 | 00:00:00 | |
| EA3IBE | 2026-09-02 23:38:32 | 41.23973 | 2.22036 | 147° | 11km/h | 13796m | 5.6m/s | 0°C | 0% | 0hPa | 0V | 00:00:00 | 00:00:00 | 00:00:00 | |
| EA3GEO | 2026-09-02 23:38:30 | 41.23980 | 2.22034 | 157° | 13km/h | 13784m | 7.5m/s | 0°C | 0% | 0hPa | 0V | 00:00:00 | 00:00:00 | 00:00:00 | |
| EA3IBE | 2026-09-02 23:38:27 | 41.23993 | 2.22025 | 162° | 24km/h | 13765m | 4.2m/s | 0°C | 0% | 0hPa | 0V | 00:00:00 | 00:00:00 | 00:00:00 | |
| EA3GEO | 2026-09-02 23:38:24 | 41.24010 | 2.22011 | 148° | 24km/h | 13752m | 7.8m/s | 0°C | 0% | 0hPa | 0V | 00:00:00 | 00:00:00 | 00:00:00 | |
| EA3IBE | 2026-09-02 23:38:21 | 41.24024 | 2.22006 | 202° | 13km/h | 13731m | 8.0m/s | 0°C | 0% | 0hPa | 0V | 00:00:00 | 00:00:00 | 00:00:00 | |
| EA3GEO | 2026-09-02 23:38:18 | 41.24036 | 2.22008 | 159° | 26km/h | 13713m | 5.1m/s | 0°C | 0% | 0hPa | 0V | 00:00:00 | 00:00:00 | 00:00:00 | |
| EA3IBE | 2026-09-02 23:38:15 | 41.24058 | 2.21994 | 155° | 27km/h | 13698m | 3.8m/s | 0°C | 0% | 0hPa | 0V | 00:00:00 | 00:00:00 | 00:00:00 | |
| EA3GEO | 2026-09-02 23:38:12 | 41.24075 | 2.21989 | 181° | 18km/h | 13679m | 6.2m/s | 0°C | 0% | 0hPa | 0V | 00:00:00 | 00:00:00 | 00:00:00 | |
| EA3IBE | 2026-09-02 23:38:08 | 41.24096 | 2.21987 | 159° | 31km/h | 13654m | 6.0m/s | 0°C | 0% | 0hPa | 0V | 00:00:00 | 00:00:00 | 00:00:00 | |
| EA3GEO | 2026-09-02 23:38:06 | 41.24112 | 2.21978 | 156° | 37km/h | 13643m | 5.9m/s | 0°C | 0% | 0hPa | 0V | 00:00:00 | 00:00:00 | 00:00:00 | |
| EA3GEO | 2026-09-02 23:37:39 | 41.24368 | 2.21985 | 183° | 46km/h | 13474m | 6.5m/s | 0°C | 0% | 0hPa | 0V | 00:00:00 | 00:00:00 | 00:00:00 | |
| EA3GEO | 2026-09-02 23:37:33 | 41.24445 | 2.21982 | 184° | 53km/h | 13444m | 5.3m/s | 0°C | 0% | 0hPa | 0V | 00:00:00 | 00:00:00 | 00:00:00 | |
| EA3GEO | 2026-09-02 23:37:26 | 41.24536 | 2.21976 | 192° | 51km/h | 13406m | 5.6m/s | 0°C | 0% | 0hPa | 0V | 00:00:00 | 00:00:00 | 00:00:00 | |
| EA3GEO | 2026-09-02 23:37:18 | 41.24642 | 2.21966 | 187° | 51km/h | 13363m | 5.8m/s | 0°C | 0% | 0hPa | 0V | 00:00:00 | 00:00:00 | 00:00:00 | |
| EA3GEO | 2026-09-02 23:37:07 | 41.24782 | 2.21953 | 176° | 42km/h | 13300m | 2.0m/s | 0°C | 0% | 0hPa | 0V | 00:00:00 | 00:00:00 | 00:00:00 | |
| EA3GEO | 2026-09-02 23:36:56 | 41.24929 | 2.21942 | 177° | 60km/h | 13240m | 0.3m/s | 0°C | 0% | 0hPa | 0V | 00:00:00 | 00:00:00 | 00:00:00 | |
| EA3GEO | 2026-09-02 23:36:50 | 41.25017 | 2.21919 | 181° | 55km/h | 13207m | 4.8m/s | 0°C | 0% | 0hPa | 0V | 00:00:00 | 00:00:00 | 00:00:00 | |
| EA3GEO | 2026-09-02 23:36:45 | 41.25091 | 2.21910 | 166° | 64km/h | 13179m | 4.6m/s | 0°C | 0% | 0hPa | 0V | 00:00:00 | 00:00:00 | 00:00:00 | |
| EA3GEO | 2026-09-02 23:36:39 | 41.25164 | 2.21888 | 170° | 42km/h | 13147m | 5.7m/s | 0°C | 0% | 0hPa | 0V | 00:00:00 | 00:00:00 | 00:00:00 | |
| EA3GEO | 2026-09-02 23:36:32 | 41.25265 | 2.21868 | 174° | 55km/h | 13111m | 7.2m/s | 0°C | 0% | 0hPa | 0V | 00:00:00 | 00:00:00 | 00:00:00 | |
| EA3GEO | 2026-09-02 23:36:22 | 41.25389 | 2.21831 | 153° | 40km/h | 13057m | 4.4m/s | 0°C | 0% | 0hPa | 0V | 00:00:00 | 00:00:00 | 00:00:00 | |
| EA3GEO | 2026-09-02 23:36:15 | 41.25462 | 2.21802 | 177° | 44km/h | 13021m | 3.2m/s | 0°C | 0% | 0hPa | 0V | 00:00:00 | 00:00:00 | 00:00:00 | |
| EA3GEO | 2026-09-02 23:36:09 | 41.25524 | 2.21778 | 156° | 49km/h | 12986m | 6.1m/s | 0°C | 0% | 0hPa | 0V | 00:00:00 | 00:00:00 | 00:00:00 | |
| EA3GEO | 2026-09-02 23:36:03 | 41.25593 | 2.21753 | 190° | 44km/h | 12956m | 3.9m/s | 0°C | 0% | 0hPa | 0V | 00:00:00 | 00:00:00 | 00:00:00 | |
| EA3GEO | 2026-09-02 23:35:58 | 41.25646 | 2.21736 | 147° | 51km/h | 12929m | 7.5m/s | 0°C | 0% | 0hPa | 0V | 00:00:00 | 00:00:00 | 00:00:00 | |
| EA3GEO | 2026-09-02 23:35:52 | 41.25712 | 2.21712 | 181° | 58km/h | 12895m | 2.7m/s | 0°C | 0% | 0hPa | 0V | 00:00:00 | 00:00:00 | 00:00:00 | |
| EA3GEO | 2026-09-02 23:35:46 | 41.25791 | 2.21701 | 166° | 55km/h | 12858m | 4.6m/s | 0°C | 0% | 0hPa | 0V | 00:00:00 | 00:00:00 | 00:00:00 | |
| EA3GEO | 2026-09-02 23:35:41 | 41.25860 | 2.21691 | 186° | 55km/h | 12831m | 5.4m/s | 0°C | 0% | 0hPa | 0V | 00:00:00 | 00:00:00 | 00:00:00 | |
| EA3GEO | 2026-09-02 23:35:35 | 41.25942 | 2.21690 | 180° | 46km/h | 12799m | 5.6m/s | 0°C | 0% | 0hPa | 0V | 00:00:00 | 00:00:00 | 00:00:00 | |
| EA3GEO | 2026-09-02 23:35:26 | 41.26057 | 2.21698 | 180° | 51km/h | 12751m | 4.0m/s | 0°C | 0% | 0hPa | 0V | 00:00:00 | 00:00:00 | 00:00:00 | |
| EA3GEO | 2026-09-02 23:35:18 | 41.26164 | 2.21713 | 186° | 51km/h | 12705m | 3.6m/s | 0°C | 0% | 0hPa | 0V | 00:00:00 | 00:00:00 | 00:00:00 | |
| EA3GEO | 2026-09-02 23:34:05 | 41.27199 | 2.21953 | 181° | 53km/h | 12283m | 6.5m/s | 0°C | 0% | 0hPa | 0V | 00:00:00 | 00:00:00 | 00:00:00 | |
| EA3GEO | 2026-09-02 23:33:59 | 41.27286 | 2.21966 | 183° | 62km/h | 12248m | 3.8m/s | 0°C | 0% | 0hPa | 0V | 00:00:00 | 00:00:00 | 00:00:00 | |
| EA3GEO | 2026-09-02 23:33:52 | 41.27391 | 2.21981 | 190° | 57km/h | 12206m | 3.8m/s | 0°C | 0% | 0hPa | 0V | 00:00:00 | 00:00:00 | 00:00:00 | |
| EA3GEO | 2026-09-02 23:33:41 | 41.27543 | 2.22021 | 195° | 57km/h | 12141m | 6.7m/s | 0°C | 0% | 0hPa | 0V | 00:00:00 | 00:00:00 | 00:00:00 | |
| EA3GEO | 2026-09-02 23:33:35 | 41.27629 | 2.22043 | 183° | 55km/h | 12108m | 3.1m/s | 0°C | 0% | 0hPa | 0V | 00:00:00 | 00:00:00 | 00:00:00 | |
| EA3GEO | 2026-09-02 23:33:30 | 41.27704 | 2.22060 | 199° | 53km/h | 12079m | 4.3m/s | 0°C | 0% | 0hPa | 0V | 00:00:00 | 00:00:00 | 00:00:00 | |
| EA3GEO | 2026-09-02 23:33:24 | 41.27787 | 2.22082 | 193° | 64km/h | 12041m | 9.0m/s | 0°C | 0% | 0hPa | 0V | 00:00:00 | 00:00:00 | 00:00:00 | |
| EA3GEO | 2026-09-02 23:33:17 | 41.27885 | 2.22114 | 188° | 57km/h | 11997m | 6.8m/s | 0°C | 0% | 0hPa | 0V | 00:00:00 | 00:00:00 | 00:00:00 | |
| EA3GEO | 2026-09-02 23:33:12 | 41.27960 | 2.22140 | 194° | 66km/h | 11971m | 2.8m/s | 0°C | 0% | 0hPa | 0V | 00:00:00 | 00:00:00 | 00:00:00 | |
| EA3GEO | 2026-09-02 23:33:05 | 41.28057 | 2.22160 | 195° | 58km/h | 11930m | 3.3m/s | 0°C | 0% | 0hPa | 0V | 00:00:00 | 00:00:00 | 00:00:00 | |
| EA3GEO | 2026-09-02 23:32:58 | 41.28160 | 2.22188 | 192° | 51km/h | 11883m | 6.9m/s | 0°C | 0% | 0hPa | 0V | 00:00:00 | 00:00:00 | 00:00:00 | |
| EA3GEO | 2026-09-02 23:32:51 | 41.28259 | 2.22207 | 184° | 64km/h | 11841m | 4.2m/s | 0°C | 0% | 0hPa | 0V | 00:00:00 | 00:00:00 | 00:00:00 | |
| EA3GEO | 2026-09-02 23:32:44 | 41.28357 | 2.22235 | 189° | 53km/h | 11801m | 6.8m/s | 0°C | 0% | 0hPa | 0V | 00:00:00 | 00:00:00 | 00:00:00 | |
| EA3GEO | 2026-09-02 23:32:37 | 41.28455 | 2.22257 | 186° | 58km/h | 11755m | 5.3m/s | 0°C | 0% | 0hPa | 0V | 00:00:00 | 00:00:00 | 00:00:00 | |
| EA3GEO | 2026-09-02 23:32:32 | 41.28521 | 2.22272 | 193° | 47km/h | 11725m | 7.4m/s | 0°C | 0% | 0hPa | 0V | 00:00:00 | 00:00:00 | 00:00:00 | |
| EA3GEO | 2026-09-02 23:32:27 | 41.28596 | 2.22280 | 189° | 64km/h | 11694m | 6.1m/s | 0°C | 0% | 0hPa | 0V | 00:00:00 | 00:00:00 | 00:00:00 | |
| EA3GEO | 2026-09-02 23:32:21 | 41.28671 | 2.22297 | 183° | 60km/h | 11659m | 3.2m/s | 0°C | 0% | 0hPa | 0V | 00:00:00 | 00:00:00 | 00:00:00 | |
| EA3GEO | 2026-09-02 23:32:15 | 41.28763 | 2.22303 | 186° | 47km/h | 11622m | 4.3m/s | 0°C | 0% | 0hPa | 0V | 00:00:00 | 00:00:00 | 00:00:00 | |
| EA3GEO | 2026-09-02 23:32:08 | 41.28854 | 2.22319 | 187° | 55km/h | 11583m | 2.6m/s | 0°C | 0% | 0hPa | 0V | 00:00:00 | 00:00:00 | 00:00:00 | |
| EA3GEO | 2026-09-02 23:32:01 | 41.28951 | 2.22336 | 187° | 55km/h | 11534m | 3.2m/s | 0°C | 0% | 0hPa | 0V | 00:00:00 | 00:00:00 | 00:00:00 | |
| EA3GEO | 2026-09-02 23:31:54 | 41.29045 | 2.22357 | 179° | 55km/h | 11491m | 5.5m/s | 0°C | 0% | 0hPa | 0V | 00:00:00 | 00:00:00 | 00:00:00 | |
| EA3GEO | 2026-09-02 23:31:41 | 41.29222 | 2.22371 | 192° | 60km/h | 11414m | 2.1m/s | 0°C | 0% | 0hPa | 0V | 00:00:00 | 00:00:00 | 00:00:00 | |
| EA3GEO | 2026-09-02 23:31:35 | 41.29291 | 2.22387 | 177° | 42km/h | 11377m | 10.4m/s | 0°C | 0% | 0hPa | 0V | 00:00:00 | 00:00:00 | 00:00:00 | |
| EA3GEO | 2026-09-02 23:31:28 | 41.29374 | 2.22399 | 193° | 46km/h | 11328m | 3.8m/s | 0°C | 0% | 0hPa | 0V | 00:00:00 | 00:00:00 | 00:00:00 | |
| EA3GEO | 2026-09-02 23:31:21 | 41.29452 | 2.22402 | 191° | 46km/h | 11285m | 4.7m/s | 0°C | 0% | 0hPa | 0V | 00:00:00 | 00:00:00 | 00:00:00 | |
| EA3GEO | 2026-09-02 23:31:17 | 41.29507 | 2.22409 | 183° | 44km/h | 11257m | 2.6m/s | 0°C | 0% | 0hPa | 0V | 00:00:00 | 00:00:00 | 00:00:00 | |
| EA3GEO | 2026-09-02 23:31:11 | 41.29565 | 2.22413 | 182° | 42km/h | 11230m | 2.3m/s | 0°C | 0% | 0hPa | 0V | 00:00:00 | 00:00:00 | 00:00:00 | |
| EA3GEO | 2026-09-02 23:31:02 | 41.29653 | 2.22415 | 190° | 37km/h | 11175m | 6.3m/s | 0°C | 0% | 0hPa | 0V | 00:00:00 | 00:00:00 | 00:00:00 | |
| EA3GEO | 2026-09-02 23:30:56 | 41.29716 | 2.22429 | 180° | 44km/h | 11139m | 5.4m/s | 0°C | 0% | 0hPa | 0V | 00:00:00 | 00:00:00 | 00:00:00 | |
| EA3GEO | 2026-09-02 23:30:49 | 41.29794 | 2.22439 | 177° | 42km/h | 11099m | 10.7m/s | 0°C | 0% | 0hPa | 0V | 00:00:00 | 00:00:00 | 00:00:00 | |
| EA3GEO | 2026-09-02 23:30:44 | 41.29846 | 2.22443 | 184° | 47km/h | 11069m | 8.2m/s | 0°C | 0% | 0hPa | 0V | 00:00:00 | 00:00:00 | 00:00:00 | |
| EA3GEO | 2026-09-02 23:30:33 | 41.29965 | 2.22463 | 196° | 42km/h | 11001m | 4.1m/s | 0°C | 0% | 0hPa | 0V | 00:00:00 | 00:00:00 | 00:00:00 | |
| EA3GEO | 2026-09-02 23:30:28 | 41.30016 | 2.22468 | 184° | 49km/h | 10969m | 4.0m/s | 0°C | 0% | 0hPa | 0V | 00:00:00 | 00:00:00 | 00:00:00 | |
| EA3GEO | 2026-09-02 23:30:22 | 41.30081 | 2.22477 | 180° | 35km/h | 10932m | 8.0m/s | 0°C | 0% | 0hPa | 0V | 00:00:00 | 00:00:00 | 00:00:00 | |
| EA3GEO | 2026-09-02 23:30:17 | 41.30143 | 2.22486 | 190° | 46km/h | 10896m | 4.3m/s | 0°C | 0% | 0hPa | 0V | 00:00:00 | 00:00:00 | 00:00:00 | |
| EA3GEO | 2026-09-02 23:30:09 | 41.30212 | 2.22499 | 185° | 38km/h | 10852m | 6.9m/s | 0°C | 0% | 0hPa | 0V | 00:00:00 | 00:00:00 | 00:00:00 | |
| EA3GEO | 2026-09-02 23:29:57 | 41.30320 | 2.22520 | 183° | 31km/h | 10775m | 4.8m/s | 0°C | 0% | 0hPa | 0V | 00:00:00 | 00:00:00 | 00:00:00 | |
| EA3GEO | 2026-09-02 23:29:51 | 41.30377 | 2.22532 | 186° | 33km/h | 10742m | 9.1m/s | 0°C | 0% | 0hPa | 0V | 00:00:00 | 00:00:00 | 00:00:00 | |
| EA3GEO | 2026-09-02 23:29:44 | 41.30445 | 2.22545 | 194° | 35km/h | 10701m | 7.8m/s | 0°C | 0% | 0hPa | 0V | 00:00:00 | 00:00:00 | 00:00:00 | |
| EA3GEO | 2026-09-02 23:29:38 | 41.30505 | 2.22558 | 192° | 40km/h | 10666m | 2.6m/s | 0°C | 0% | 0hPa | 0V | 00:00:00 | 00:00:00 | 00:00:00 | |
| EA3GEO | 2026-09-02 23:29:31 | 41.30577 | 2.22573 | 187° | 38km/h | 10626m | 4.2m/s | 0°C | 0% | 0hPa | 0V | 00:00:00 | 00:00:00 | 00:00:00 | |
| EA3GEO | 2026-09-02 23:29:21 | 41.30678 | 2.22592 | 193° | 38km/h | 10567m | 2.0m/s | 0°C | 0% | 0hPa | 0V | 00:00:00 | 00:00:00 | 00:00:00 | |
| EA3GEO | 2026-09-02 23:29:11 | 41.30777 | 2.22612 | 179° | 46km/h | 10502m | 4.9m/s | 0°C | 0% | 0hPa | 0V | 00:00:00 | 00:00:00 | 00:00:00 | |
| EA3GEO | 2026-09-02 23:29:06 | 41.30829 | 2.22614 | 183° | 42km/h | 10475m | 3.4m/s | 0°C | 0% | 0hPa | 0V | 00:00:00 | 00:00:00 | 00:00:00 | |
| EA3GEO | 2026-09-02 23:28:59 | 41.30902 | 2.22627 | 184° | 44km/h | 10436m | 2.5m/s | 0°C | 0% | 0hPa | 0V | 00:00:00 | 00:00:00 | 00:00:00 | |
| EA3GEO | 2026-09-02 23:28:50 | 41.30995 | 2.22641 | 183° | 44km/h | 10382m | 3.4m/s | 0°C | 0% | 0hPa | 0V | 00:00:00 | 00:00:00 | 00:00:00 | |
| EA3GEO | 2026-09-02 23:28:44 | 41.31058 | 2.22636 | 196° | 37km/h | 10343m | 3.8m/s | 0°C | 0% | 0hPa | 0V | 00:00:00 | 00:00:00 | 00:00:00 | |
| EA3GEO | 2026-09-02 23:28:35 | 41.31153 | 2.22643 | 188° | 35km/h | 10295m | 6.3m/s | 0°C | 0% | 0hPa | 0V | 00:00:00 | 00:00:00 | 00:00:00 | |
| EA3GEO | 2026-09-02 23:28:25 | 41.31252 | 2.22641 | 171° | 40km/h | 10238m | 8.0m/s | 0°C | 0% | 0hPa | 0V | 00:00:00 | 00:00:00 | 00:00:00 | |
| EA3GEO | 2026-09-02 23:28:19 | 41.31305 | 2.22640 | 176° | 40km/h | 10200m | 2.7m/s | 0°C | 0% | 0hPa | 0V | 00:00:00 | 00:00:00 | 00:00:00 | |
| EA3GEO | 2026-09-02 23:28:14 | 41.31351 | 2.22632 | 181° | 40km/h | 10175m | 7.1m/s | 0°C | 0% | 0hPa | 0V | 00:00:00 | 00:00:00 | 00:00:00 | |
| EA3GEO | 2026-09-02 23:28:03 | 41.31456 | 2.22618 | 172° | 38km/h | 10103m | 7.1m/s | 0°C | 0% | 0hPa | 0V | 00:00:00 | 00:00:00 | 00:00:00 | |
| EA3GEO | 2026-09-02 23:27:54 | 41.31545 | 2.22603 | 162° | 38km/h | 10047m | 1.2m/s | 0°C | 0% | 0hPa | 0V | 00:00:00 | 00:00:00 | 00:00:00 | |
| EA3GEO | 2026-09-02 23:27:49 | 41.31595 | 2.22585 | 174° | 40km/h | 10018m | 2.5m/s | 0°C | 0% | 0hPa | 0V | 00:00:00 | 00:00:00 | 00:00:00 | |
| EA3GEO | 2026-09-02 23:27:42 | 41.31664 | 2.22568 | 174° | 38km/h | 9977m | 1.2m/s | 0°C | 0% | 0hPa | 0V | 00:00:00 | 00:00:00 | 00:00:00 | |
| EA3GEO | 2026-09-02 23:27:36 | 41.31725 | 2.22558 | 171° | 42km/h | 9939m | 2.6m/s | 0°C | 0% | 0hPa | 0V | 00:00:00 | 00:00:00 | 00:00:00 | |
| EA3GEO | 2026-09-02 23:27:20 | 41.31872 | 2.22523 | 176° | 40km/h | 9843m | 5.9m/s | 0°C | 0% | 0hPa | 0V | 00:00:00 | 00:00:00 | 00:00:00 | |
| EA3GEO | 2026-09-02 23:27:14 | 41.31930 | 2.22515 | 165° | 46km/h | 9814m | 11.0m/s | 0°C | 0% | 0hPa | 0V | 00:00:00 | 00:00:00 | 00:00:00 | |
| EA3GEO | 2026-09-02 23:27:08 | 41.31988 | 2.22505 | 178° | 35km/h | 9771m | 5.4m/s | 0°C | 0% | 0hPa | 0V | 00:00:00 | 00:00:00 | 00:00:00 | |
| EA3GEO | 2026-09-02 23:27:02 | 41.32044 | 2.22493 | 180° | 37km/h | 9735m | 9.9m/s | 0°C | 0% | 0hPa | 0V | 00:00:00 | 00:00:00 | 00:00:00 | |
| EA3GEO | 2026-09-02 23:26:56 | 41.32098 | 2.22475 | 178° | 35km/h | 9703m | 1.9m/s | 0°C | 0% | 0hPa | 0V | 00:00:00 | 00:00:00 | 00:00:00 | |
| EA3GEO | 2026-09-02 23:26:50 | 41.32158 | 2.22455 | 166° | 46km/h | 9666m | 6.4m/s | 0°C | 0% | 0hPa | 0V | 00:00:00 | 00:00:00 | 00:00:00 | |
| EA3GEO | 2026-09-02 23:26:45 | 41.32203 | 2.22447 | 174° | 40km/h | 9630m | 5.3m/s | 0°C | 0% | 0hPa | 0V | 00:00:00 | 00:00:00 | 00:00:00 | |
| EA3GEO | 2026-09-02 23:26:39 | 41.32261 | 2.22434 | 174° | 29km/h | 9597m | 4.3m/s | 0°C | 0% | 0hPa | 0V | 00:00:00 | 00:00:00 | 00:00:00 | |
| EA3GEO | 2026-09-02 23:26:34 | 41.32310 | 2.22428 | 170° | 31km/h | 9569m | 3.0m/s | 0°C | 0% | 0hPa | 0V | 00:00:00 | 00:00:00 | 00:00:00 | |
| EA3GEO | 2026-09-02 23:26:29 | 41.32352 | 2.22417 | 180° | 35km/h | 9539m | 12.0m/s | 0°C | 0% | 0hPa | 0V | 00:00:00 | 00:00:00 | 00:00:00 | |
| EA3GEO | 2026-09-02 23:26:23 | 41.32410 | 2.22406 | 170° | 40km/h | 9500m | 4.6m/s | 0°C | 0% | 0hPa | 0V | 00:00:00 | 00:00:00 | 00:00:00 | |
| EA3GEO | 2026-09-02 23:26:18 | 41.32455 | 2.22397 | 159° | 42km/h | 9473m | 5.7m/s | 0°C | 0% | 0hPa | 0V | 00:00:00 | 00:00:00 | 00:00:00 | |
| EA3GEO | 2026-09-02 23:26:12 | 41.32511 | 2.22381 | 174° | 33km/h | 9442m | 3.6m/s | 0°C | 0% | 0hPa | 0V | 00:00:00 | 00:00:00 | 00:00:00 | |
| EA3GEO | 2026-09-02 23:26:07 | 41.32556 | 2.22371 | 172° | 27km/h | 9410m | 5.9m/s | 0°C | 0% | 0hPa | 0V | 00:00:00 | 00:00:00 | 00:00:00 | |
| EA3GEO | 2026-09-02 23:25:55 | 41.32656 | 2.22343 | 168° | 42km/h | 9332m | 3.2m/s | 0°C | 0% | 0hPa | 0V | 00:00:00 | 00:00:00 | 00:00:00 | |
| EA3GEO | 2026-09-02 23:25:49 | 41.32706 | 2.22337 | 173° | 16km/h | 9298m | 2.4m/s | 0°C | 0% | 0hPa | 0V | 00:00:00 | 00:00:00 | 00:00:00 | |
| EA3GEO | 2026-09-02 23:25:43 | 41.32750 | 2.22325 | 170° | 37km/h | 9262m | 5.8m/s | 0°C | 0% | 0hPa | 0V | 00:00:00 | 00:00:00 | 00:00:00 | |
| EA3GEO | 2026-09-02 23:25:37 | 41.32797 | 2.22316 | 166° | 42km/h | 9227m | 3.0m/s | 0°C | 0% | 0hPa | 0V | 00:00:00 | 00:00:00 | 00:00:00 | |
| EA3GEO | 2026-09-02 23:25:31 | 41.32847 | 2.22310 | 188° | 27km/h | 9190m | 11.0m/s | 0°C | 0% | 0hPa | 0V | 00:00:00 | 00:00:00 | 00:00:00 | |
| EA3GEO | 2026-09-02 23:25:26 | 41.32895 | 2.22297 | 165° | 37km/h | 9148m | 5.9m/s | 0°C | 0% | 0hPa | 0V | 00:00:00 | 00:00:00 | 00:00:00 | |
| EA3GEO | 2026-09-02 23:25:19 | 41.32943 | 2.22286 | 180° | 37km/h | 9110m | 9.6m/s | 0°C | 0% | 0hPa | 0V | 00:00:00 | 00:00:00 | 00:00:00 | |
| EA3GEO | 2026-09-02 23:25:13 | 41.32995 | 2.22276 | 176° | 26km/h | 9071m | 4.9m/s | 0°C | 0% | 0hPa | 0V | 00:00:00 | 00:00:00 | 00:00:00 | |
| EA3GEO | 2026-09-02 23:25:06 | 41.33042 | 2.22266 | 164° | 26km/h | 9030m | 3.5m/s | 0°C | 0% | 0hPa | 0V | 00:00:00 | 00:00:00 | 00:00:00 | |
| EA3GEO | 2026-09-02 23:25:01 | 41.33078 | 2.22253 | 176° | 31km/h | 9003m | 4.8m/s | 0°C | 0% | 0hPa | 0V | 00:00:00 | 00:00:00 | 00:00:00 | |
| EA3GEO | 2026-09-02 23:24:55 | 41.33123 | 2.22251 | 175° | 26km/h | 8961m | 7.8m/s | 0°C | 0% | 0hPa | 0V | 00:00:00 | 00:00:00 | 00:00:00 | |
| EA3GEO | 2026-09-02 23:24:50 | 41.33157 | 2.22237 | 148° | 35km/h | 8931m | 10.4m/s | 0°C | 0% | 0hPa | 0V | 00:00:00 | 00:00:00 | 00:00:00 | |
| EA3GEO | 2026-09-02 23:24:44 | 41.33209 | 2.22222 | 167° | 24km/h | 8893m | 6.3m/s | 0°C | 0% | 0hPa | 0V | 00:00:00 | 00:00:00 | 00:00:00 | |
| EA3GEO | 2026-09-02 23:24:39 | 41.33249 | 2.22208 | 175° | 33km/h | 8861m | 2.8m/s | 0°C | 0% | 0hPa | 0V | 00:00:00 | 00:00:00 | 00:00:00 | |
| EA3GEO | 2026-09-02 23:24:33 | 41.33296 | 2.22195 | 164° | 42km/h | 8819m | 6.1m/s | 0°C | 0% | 0hPa | 0V | 00:00:00 | 00:00:00 | 00:00:00 | |
| EA3GEO | 2026-09-02 23:24:28 | 41.33344 | 2.22173 | 168° | 42km/h | 8790m | 6.0m/s | 0°C | 0% | 0hPa | 0V | 00:00:00 | 00:00:00 | 00:00:00 | |
| EA3GEO | 2026-09-02 23:24:21 | 41.33400 | 2.22157 | 169° | 29km/h | 8743m | 6.6m/s | 0°C | 0% | 0hPa | 0V | 00:00:00 | 00:00:00 | 00:00:00 | |
| EA3GEO | 2026-09-02 23:24:16 | 41.33444 | 2.22141 | 169° | 38km/h | 8714m | 9.0m/s | 0°C | 0% | 0hPa | 0V | 00:00:00 | 00:00:00 | 00:00:00 | |
| EA3GEO | 2026-09-02 23:24:10 | 41.33499 | 2.22122 | 173° | 33km/h | 8673m | 8.0m/s | 0°C | 0% | 0hPa | 0V | 00:00:00 | 00:00:00 | 00:00:00 | |
| EA3GEO | 2026-09-02 23:24:05 | 41.33544 | 2.22112 | 180° | 29km/h | 8640m | 9.1m/s | 0°C | 0% | 0hPa | 0V | 00:00:00 | 00:00:00 | 00:00:00 | |
| EA3GEO | 2026-09-02 23:23:59 | 41.33587 | 2.22087 | 143° | 40km/h | 8593m | 4.9m/s | 0°C | 0% | 0hPa | 0V | 00:00:00 | 00:00:00 | 00:00:00 | |
| EA3GEO | 2026-09-02 23:23:53 | 41.33647 | 2.22069 | 184° | 42km/h | 8563m | 4.8m/s | 0°C | 0% | 0hPa | 0V | 00:00:00 | 00:00:00 | 00:00:00 | |
| EA3GEO | 2026-09-02 23:23:48 | 41.33684 | 2.22038 | 126° | 49km/h | 8525m | 5.0m/s | 0°C | 0% | 0hPa | 0V | 00:00:00 | 00:00:00 | 00:00:00 | |
| EA3GEO | 2026-09-02 23:23:42 | 41.33723 | 2.21979 | 150° | 13km/h | 8488m | 9.0m/s | 0°C | 0% | 0hPa | 0V | 00:00:00 | 00:00:00 | 00:00:00 | |
| EA3GEO | 2026-09-02 23:23:37 | 41.33763 | 2.21965 | 167° | 46km/h | 8456m | 6.3m/s | 0°C | 0% | 0hPa | 0V | 00:00:00 | 00:00:00 | 00:00:00 | |
| EA3GEO | 2026-09-02 23:23:31 | 41.33827 | 2.21931 | 143° | 49km/h | 8411m | 7.1m/s | 0°C | 0% | 0hPa | 0V | 00:00:00 | 00:00:00 | 00:00:00 | |
| EA3GEO | 2026-09-02 23:23:26 | 41.33865 | 2.21888 | 146° | 35km/h | 8377m | 5.4m/s | 0°C | 0% | 0hPa | 0V | 00:00:00 | 00:00:00 | 00:00:00 | |
| EA3GEO | 2026-09-02 23:23:20 | 41.33914 | 2.21842 | 139° | 38km/h | 8346m | 4.2m/s | 0°C | 0% | 0hPa | 0V | 00:00:00 | 00:00:00 | 00:00:00 | |
| EA3GEO | 2026-09-02 23:23:12 | 41.33958 | 2.21767 | 134° | 35km/h | 8296m | 4.0m/s | 0°C | 0% | 0hPa | 0V | 00:00:00 | 00:00:00 | 00:00:00 | |
| EA3GEO | 2026-09-02 23:23:06 | 41.33999 | 2.21709 | 125° | 40km/h | 8254m | 7.8m/s | 0°C | 0% | 0hPa | 0V | 00:00:00 | 00:00:00 | 00:00:00 | |
| EA3GEO | 2026-09-02 23:23:01 | 41.34030 | 2.21669 | 140° | 35km/h | 8219m | 6.0m/s | 0°C | 0% | 0hPa | 0V | 00:00:00 | 00:00:00 | 00:00:00 | |
| EA3GEO | 2026-09-02 23:22:56 | 41.34068 | 2.21623 | 153° | 35km/h | 8192m | 4.8m/s | 0°C | 0% | 0hPa | 0V | 00:00:00 | 00:00:00 | 00:00:00 | |
| EA3GEO | 2026-09-02 23:22:49 | 41.34107 | 2.21561 | 137° | 40km/h | 8141m | 5.7m/s | 0°C | 0% | 0hPa | 0V | 00:00:00 | 00:00:00 | 00:00:00 | |
| EA3GEO | 2026-09-02 23:22:43 | 41.34147 | 2.21513 | 145° | 40km/h | 8095m | 6.5m/s | 0°C | 0% | 0hPa | 0V | 00:00:00 | 00:00:00 | 00:00:00 | |
| EA3GEO | 2026-09-02 23:22:37 | 41.34184 | 2.21464 | 129° | 40km/h | 8060m | 9.0m/s | 0°C | 0% | 0hPa | 0V | 00:00:00 | 00:00:00 | 00:00:00 | |
| EA3GEO | 2026-09-02 23:22:30 | 41.34228 | 2.21389 | 119° | 37km/h | 8010m | 5.0m/s | 0°C | 0% | 0hPa | 0V | 00:00:00 | 00:00:00 | 00:00:00 | |
| EA3GEO | 2026-09-02 23:22:23 | 41.34269 | 2.21325 | 126° | 27km/h | 7967m | 5.7m/s | 0°C | 0% | 0hPa | 0V | 00:00:00 | 00:00:00 | 00:00:00 | |
| EA3GEO | 2026-09-02 23:22:18 | 41.34285 | 2.21276 | 118° | 33km/h | 7942m | 10.5m/s | 0°C | 0% | 0hPa | 0V | 00:00:00 | 00:00:00 | 00:00:00 | |
| EA3GEO | 2026-09-02 23:22:13 | 41.34313 | 2.21237 | 143° | 35km/h | 7909m | 4.8m/s | 0°C | 0% | 0hPa | 0V | 00:00:00 | 00:00:00 | 00:00:00 | |
| EA3GEO | 2026-09-02 23:22:01 | 41.34378 | 2.21117 | 115° | 40km/h | 7831m | 7.3m/s | 0°C | 0% | 0hPa | 0V | 00:00:00 | 00:00:00 | 00:00:00 | |
| EA3GEO | 2026-09-02 23:21:56 | 41.34395 | 2.21067 | 140° | 38km/h | 7807m | 4.1m/s | 0°C | 0% | 0hPa | 0V | 00:00:00 | 00:00:00 | 00:00:00 | |
| EA3GEO | 2026-09-02 23:21:50 | 41.34425 | 2.21008 | 110° | 35km/h | 7768m | 6.5m/s | 0°C | 0% | 0hPa | 0V | 00:00:00 | 00:00:00 | 00:00:00 | |
| EA3GEO | 2026-09-02 23:21:45 | 41.34451 | 2.20961 | 130° | 38km/h | 7732m | 5.2m/s | 0°C | 0% | 0hPa | 0V | 00:00:00 | 00:00:00 | 00:00:00 | |
| EA3GEO | 2026-09-02 23:21:38 | 41.34485 | 2.20895 | 135° | 35km/h | 7695m | 4.1m/s | 0°C | 0% | 0hPa | 0V | 00:00:00 | 00:00:00 | 00:00:00 | |
| EA3GEO | 2026-09-02 23:21:32 | 41.34528 | 2.20843 | 134° | 40km/h | 7650m | 7.3m/s | 0°C | 0% | 0hPa | 0V | 00:00:00 | 00:00:00 | 00:00:00 | |
| EA3GEO | 2026-09-02 23:21:19 | 41.34612 | 2.20731 | 130° | 35km/h | 7572m | 8.8m/s | 0°C | 0% | 0hPa | 0V | 00:00:00 | 00:00:00 | 00:00:00 | |
| EA3GEO | 2026-09-02 23:21:14 | 41.34655 | 2.20697 | 150° | 40km/h | 7530m | 5.8m/s | 0°C | 0% | 0hPa | 0V | 00:00:00 | 00:00:00 | 00:00:00 | |
| EA3GEO | 2026-09-02 23:21:08 | 41.34694 | 2.20636 | 137° | 42km/h | 7490m | 7.1m/s | 0°C | 0% | 0hPa | 0V | 00:00:00 | 00:00:00 | 00:00:00 | |
| EA3GEO | 2026-09-02 23:21:02 | 41.34745 | 2.20575 | 138° | 33km/h | 7452m | 4.6m/s | 0°C | 0% | 0hPa | 0V | 00:00:00 | 00:00:00 | 00:00:00 | |
| EA3GEO | 2026-09-02 23:20:57 | 41.34772 | 2.20543 | 140° | 42km/h | 7424m | 8.6m/s | 0°C | 0% | 0hPa | 0V | 00:00:00 | 00:00:00 | 00:00:00 | |
| EA3GEO | 2026-09-02 23:20:51 | 41.34818 | 2.20486 | 140° | 24km/h | 7384m | 6.2m/s | 0°C | 0% | 0hPa | 0V | 00:00:00 | 00:00:00 | 00:00:00 | |
| EA3GEO | 2026-09-02 23:20:45 | 41.34854 | 2.20435 | 135° | 35km/h | 7345m | 10.3m/s | 0°C | 0% | 0hPa | 0V | 00:00:00 | 00:00:00 | 00:00:00 | |
| EA3GEO | 2026-09-02 23:20:39 | 41.34892 | 2.20386 | 135° | 42km/h | 7294m | 7.8m/s | 0°C | 0% | 0hPa | 0V | 00:00:00 | 00:00:00 | 00:00:00 | |
| EA3GEO | 2026-09-02 23:20:33 | 41.34935 | 2.20323 | 147° | 35km/h | 7258m | 4.3m/s | 0°C | 0% | 0hPa | 0V | 00:00:00 | 00:00:00 | 00:00:00 | |
| EA3GEO | 2026-09-02 23:20:28 | 41.34971 | 2.20286 | 132° | 38km/h | 7240m | 4.6m/s | 0°C | 0% | 0hPa | 0V | 00:00:00 | 00:00:00 | 00:00:00 | |
| EA3GEO | 2026-09-02 23:20:23 | 41.35008 | 2.20243 | 143° | 31km/h | 7201m | 7.2m/s | 0°C | 0% | 0hPa | 0V | 00:00:00 | 00:00:00 | 00:00:00 | |
| EA3GEO | 2026-09-02 23:20:12 | 41.35075 | 2.20129 | 131° | 51km/h | 7128m | 4.9m/s | 0°C | 0% | 0hPa | 0V | 00:00:00 | 00:00:00 | 00:00:00 | |
| EA3GEO | 2026-09-02 23:20:06 | 41.35111 | 2.20065 | 119° | 24km/h | 7103m | 8.2m/s | 0°C | 0% | 0hPa | 0V | 00:00:00 | 00:00:00 | 00:00:00 | |
| EA3GEO | 2026-09-02 23:20:01 | 41.35126 | 2.20015 | 114° | 47km/h | 7072m | 6.2m/s | 0°C | 0% | 0hPa | 0V | 00:00:00 | 00:00:00 | 00:00:00 | |
| EA3GEO | 2026-09-02 23:19:55 | 41.35156 | 2.19962 | 146° | 24km/h | 7031m | 6.8m/s | 0°C | 0% | 0hPa | 0V | 00:00:00 | 00:00:00 | 00:00:00 | |
| EA3GEO | 2026-09-02 23:19:50 | 41.35180 | 2.19920 | 122° | 35km/h | 6990m | 6.6m/s | 0°C | 0% | 0hPa | 0V | 00:00:00 | 00:00:00 | 00:00:00 | |
| EA3GEO | 2026-09-02 23:19:44 | 41.35196 | 2.19862 | 124° | 29km/h | 6943m | 4.1m/s | 0°C | 0% | 0hPa | 0V | 00:00:00 | 00:00:00 | 00:00:00 | |
| EA3GEO | 2026-09-02 23:19:38 | 41.35221 | 2.19814 | 120° | 35km/h | 6911m | 4.2m/s | 0°C | 0% | 0hPa | 0V | 00:00:00 | 00:00:00 | 00:00:00 | |
| EA3GEO | 2026-09-02 23:19:32 | 41.35243 | 2.19745 | 119° | 37km/h | 6873m | 6.9m/s | 0°C | 0% | 0hPa | 0V | 00:00:00 | 00:00:00 | 00:00:00 | |
| EA3GEO | 2026-09-02 23:19:27 | 41.35273 | 2.19692 | 114° | 33km/h | 6840m | 4.4m/s | 0°C | 0% | 0hPa | 0V | 00:00:00 | 00:00:00 | 00:00:00 | |
| EA3GEO | 2026-09-02 23:19:21 | 41.35284 | 2.19634 | 112° | 35km/h | 6810m | 7.3m/s | 0°C | 0% | 0hPa | 0V | 00:00:00 | 00:00:00 | 00:00:00 | |
| EA3GEO | 2026-09-02 23:19:15 | 41.35319 | 2.19563 | 134° | 40km/h | 6765m | 5.7m/s | 0°C | 0% | 0hPa | 0V | 00:00:00 | 00:00:00 | 00:00:00 | |
| EA3GEO | 2026-09-02 23:19:09 | 41.35332 | 2.19503 | 106° | 29km/h | 6734m | 3.0m/s | 0°C | 0% | 0hPa | 0V | 00:00:00 | 00:00:00 | 00:00:00 | |
| EA3GEO | 2026-09-02 23:19:03 | 41.35359 | 2.19442 | 116° | 35km/h | 6700m | 7.9m/s | 0°C | 0% | 0hPa | 0V | 00:00:00 | 00:00:00 | 00:00:00 | |
| EA3GEO | 2026-09-02 23:18:58 | 41.35368 | 2.19391 | 94° | 24km/h | 6676m | 11.7m/s | 0°C | 0% | 0hPa | 0V | 00:00:00 | 00:00:00 | 00:00:00 | |
| EA3GEO | 2026-09-02 23:18:46 | 41.35393 | 2.19255 | 121° | 38km/h | 6596m | 6.9m/s | 0°C | 0% | 0hPa | 0V | 00:00:00 | 00:00:00 | 00:00:00 | |
| EA3GEO | 2026-09-02 23:18:41 | 41.35409 | 2.19207 | 126° | 18km/h | 6566m | 5.7m/s | 0°C | 0% | 0hPa | 0V | 00:00:00 | 00:00:00 | 00:00:00 | |
| EA3GEO | 2026-09-02 23:18:35 | 41.35427 | 2.19158 | 104° | 40km/h | 6525m | 6.0m/s | 0°C | 0% | 0hPa | 0V | 00:00:00 | 00:00:00 | 00:00:00 | |
| EA3GEO | 2026-09-02 23:18:29 | 41.35454 | 2.19107 | 148° | 29km/h | 6495m | 4.8m/s | 0°C | 0% | 0hPa | 0V | 00:00:00 | 00:00:00 | 00:00:00 | |
| EA3GEO | 2026-09-02 23:18:24 | 41.35480 | 2.19074 | 132° | 27km/h | 6459m | 6.7m/s | 0°C | 0% | 0hPa | 0V | 00:00:00 | 00:00:00 | 00:00:00 | |
| EA3GEO | 2026-09-02 23:18:18 | 41.35521 | 2.19032 | 140° | 29km/h | 6417m | 5.2m/s | 0°C | 0% | 0hPa | 0V | 00:00:00 | 00:00:00 | 00:00:00 | |
| EA3GEO | 2026-09-02 23:18:12 | 41.35559 | 2.18988 | 148° | 35km/h | 6383m | 5.3m/s | 0°C | 0% | 0hPa | 0V | 00:00:00 | 00:00:00 | 00:00:00 | |
| EA3GEO | 2026-09-02 23:18:07 | 41.35580 | 2.18957 | 106° | 20km/h | 6357m | 4.1m/s | 0°C | 0% | 0hPa | 0V | 00:00:00 | 00:00:00 | 00:00:00 | |
| EA3GEO | 2026-09-02 23:18:01 | 41.35602 | 2.18912 | 128° | 26km/h | 6319m | 4.6m/s | 0°C | 0% | 0hPa | 0V | 00:00:00 | 00:00:00 | 00:00:00 | |
| EA3GEO | 2026-09-02 23:17:55 | 41.35631 | 2.18891 | 149° | 31km/h | 6291m | 7.3m/s | 0°C | 0% | 0hPa | 0V | 00:00:00 | 00:00:00 | 00:00:00 | |
| EA3GEO | 2026-09-02 23:17:49 | 41.35667 | 2.18860 | 164° | 22km/h | 6246m | 6.2m/s | 0°C | 0% | 0hPa | 0V | 00:00:00 | 00:00:00 | 00:00:00 | |
| EA3GEO | 2026-09-02 23:17:44 | 41.35695 | 2.18837 | 136° | 31km/h | 6207m | 5.0m/s | 0°C | 0% | 0hPa | 0V | 00:00:00 | 00:00:00 | 00:00:00 | |
| EA3GEO | 2026-09-02 23:17:38 | 41.35732 | 2.18782 | 149° | 26km/h | 6180m | 4.0m/s | 0°C | 0% | 0hPa | 0V | 00:00:00 | 00:00:00 | 00:00:00 | |
| EA3GEO | 2026-09-02 23:17:33 | 41.35745 | 2.18762 | 97° | 24km/h | 6161m | 5.2m/s | 0°C | 0% | 0hPa | 0V | 00:00:00 | 00:00:00 | 00:00:00 | |
| EA3GEO | 2026-09-02 23:17:27 | 41.35781 | 2.18718 | 156° | 46km/h | 6116m | 4.0m/s | 0°C | 0% | 0hPa | 0V | 00:00:00 | 00:00:00 | 00:00:00 | |
| EA3GEO | 2026-09-02 23:17:22 | 41.35808 | 2.18683 | 132° | 24km/h | 6089m | 5.9m/s | 0°C | 0% | 0hPa | 0V | 00:00:00 | 00:00:00 | 00:00:00 | |
| EA3GEO | 2026-09-02 23:17:16 | 41.35855 | 2.18641 | 152° | 40km/h | 6057m | 6.1m/s | 0°C | 0% | 0hPa | 0V | 00:00:00 | 00:00:00 | 00:00:00 | |
| EA3GEO | 2026-09-02 23:17:10 | 41.35889 | 2.18608 | 154° | 24km/h | 6016m | 7.1m/s | 0°C | 0% | 0hPa | 0V | 00:00:00 | 00:00:00 | 00:00:00 | |
| EA3GEO | 2026-09-02 23:17:04 | 41.35908 | 2.18586 | 133° | 24km/h | 5989m | 6.8m/s | 0°C | 0% | 0hPa | 0V | 00:00:00 | 00:00:00 | 00:00:00 | |
| EA3GEO | 2026-09-02 23:16:58 | 41.35932 | 2.18559 | 138° | 27km/h | 5945m | 4.8m/s | 0°C | 0% | 0hPa | 0V | 00:00:00 | 00:00:00 | 00:00:00 | |
| EA3GEO | 2026-09-02 23:16:53 | 41.35958 | 2.18529 | 148° | 20km/h | 5919m | 3.9m/s | 0°C | 0% | 0hPa | 0V | 00:00:00 | 00:00:00 | 00:00:00 | |
| EA3GEO | 2026-09-02 23:16:47 | 41.35992 | 2.18493 | 132° | 37km/h | 5900m | 3.2m/s | 0°C | 0% | 0hPa | 0V | 00:00:00 | 00:00:00 | 00:00:00 | |
| EA3GEO | 2026-09-02 23:16:42 | 41.36006 | 2.18476 | 123° | 9km/h | 5883m | 2.5m/s | 0°C | 0% | 0hPa | 0V | 00:00:00 | 00:00:00 | 00:00:00 | |
| EA3GEO | 2026-09-02 23:16:31 | 41.36066 | 2.18440 | 140° | 24km/h | 5810m | 8.6m/s | 0°C | 0% | 0hPa | 0V | 00:00:00 | 00:00:00 | 00:00:00 | |
| EA3GEO | 2026-09-02 23:16:25 | 41.36091 | 2.18399 | 126° | 27km/h | 5768m | 7.2m/s | 0°C | 0% | 0hPa | 0V | 00:00:00 | 00:00:00 | 00:00:00 | |
| EA3GEO | 2026-09-02 23:16:20 | 41.36115 | 2.18365 | 135° | 27km/h | 5732m | 4.4m/s | 0°C | 0% | 0hPa | 0V | 00:00:00 | 00:00:00 | 00:00:00 | |
| EA3GEO | 2026-09-02 23:16:14 | 41.36135 | 2.18316 | 117° | 24km/h | 5702m | 4.0m/s | 0°C | 0% | 0hPa | 0V | 00:00:00 | 00:00:00 | 00:00:00 | |
| EA3GEO | 2026-09-02 23:16:09 | 41.36160 | 2.18291 | 147° | 26km/h | 5680m | 2.9m/s | 0°C | 0% | 0hPa | 0V | 00:00:00 | 00:00:00 | 00:00:00 | |
| EA3GEO | 2026-09-02 23:16:04 | 41.36187 | 2.18275 | 157° | 26km/h | 5652m | 4.9m/s | 0°C | 0% | 0hPa | 0V | 00:00:00 | 00:00:00 | 00:00:00 | |
| EA3GEO | 2026-09-02 23:15:59 | 41.36216 | 2.18247 | 133° | 18km/h | 5623m | 7.9m/s | 0°C | 0% | 0hPa | 0V | 00:00:00 | 00:00:00 | 00:00:00 | |
| EA3GEO | 2026-09-02 23:15:53 | 41.36225 | 2.18219 | 114° | 11km/h | 5588m | 5.1m/s | 0°C | 0% | 0hPa | 0V | 00:00:00 | 00:00:00 | 00:00:00 | |
| EA3GEO | 2026-09-02 23:15:48 | 41.36234 | 2.18195 | 113° | 26km/h | 5564m | 4.1m/s | 0°C | 0% | 0hPa | 0V | 00:00:00 | 00:00:00 | 00:00:00 | |
| EA3GEO | 2026-09-02 23:15:42 | 41.36247 | 2.18157 | 101° | 24km/h | 5524m | 7.7m/s | 0°C | 0% | 0hPa | 0V | 00:00:00 | 00:00:00 | 00:00:00 | |
| EA3GEO | 2026-09-02 23:15:36 | 41.36269 | 2.18121 | 136° | 18km/h | 5486m | 7.3m/s | 0°C | 0% | 0hPa | 0V | 00:00:00 | 00:00:00 | 00:00:00 | |
| EA3GEO | 2026-09-02 23:15:30 | 41.36293 | 2.18094 | 142° | 20km/h | 5455m | 4.8m/s | 0°C | 0% | 0hPa | 0V | 00:00:00 | 00:00:00 | 00:00:00 | |
| EA3GEO | 2026-09-02 23:15:25 | 41.36316 | 2.18084 | 152° | 24km/h | 5432m | 3.7m/s | 0°C | 0% | 0hPa | 0V | 00:00:00 | 00:00:00 | 00:00:00 | |
| EA3GEO | 2026-09-02 23:15:19 | 41.36338 | 2.18066 | 101° | 11km/h | 5390m | 5.9m/s | 0°C | 0% | 0hPa | 0V | 00:00:00 | 00:00:00 | 00:00:00 | |
| EA3GEO | 2026-09-02 23:15:14 | 41.36340 | 2.18045 | 97° | 11km/h | 5365m | 7.8m/s | 0°C | 0% | 0hPa | 0V | 00:00:00 | 00:00:00 | 00:00:00 | |
| EA3GEO | 2026-09-02 23:15:09 | 41.36348 | 2.18016 | 121° | 24km/h | 5332m | 7.5m/s | 0°C | 0% | 0hPa | 0V | 00:00:00 | 00:00:00 | 00:00:00 | |
| EA3GEO | 2026-09-02 23:15:03 | 41.36355 | 2.18001 | 156° | 13km/h | 5300m | 3.9m/s | 0°C | 0% | 0hPa | 0V | 00:00:00 | 00:00:00 | 00:00:00 | |
| EA3GEO | 2026-09-02 23:14:58 | 41.36374 | 2.17969 | 98° | 18km/h | 5278m | 1.6m/s | 0°C | 0% | 0hPa | 0V | 00:00:00 | 00:00:00 | 00:00:00 | |
| EA3GEO | 2026-09-02 23:14:52 | 41.36387 | 2.17955 | 151° | 31km/h | 5241m | 8.1m/s | 0°C | 0% | 0hPa | 0V | 00:00:00 | 00:00:00 | 00:00:00 | |
| EA3GEO | 2026-09-02 23:14:46 | 41.36408 | 2.17934 | 120° | 18km/h | 5197m | 7.3m/s | 0°C | 0% | 0hPa | 0V | 00:00:00 | 00:00:00 | 00:00:00 | |
| EA3GEO | 2026-09-02 23:14:35 | 41.36438 | 2.17863 | 130° | 24km/h | 5129m | 6.1m/s | 0°C | 0% | 0hPa | 0V | 00:00:00 | 00:00:00 | 00:00:00 | |
| EA3GEO | 2026-09-02 23:14:30 | 41.36475 | 2.17837 | 159° | 35km/h | 5107m | 4.9m/s | 0°C | 0% | 0hPa | 0V | 00:00:00 | 00:00:00 | 00:00:00 | |
| EA3GEO | 2026-09-02 23:14:24 | 41.36494 | 2.17817 | 103° | 9km/h | 5072m | 4.3m/s | 0°C | 0% | 0hPa | 0V | 00:00:00 | 00:00:00 | 00:00:00 | |
| EA3GEO | 2026-09-02 23:14:18 | 41.36509 | 2.17792 | 168° | 27km/h | 5036m | 6.4m/s | 0°C | 0% | 0hPa | 0V | 00:00:00 | 00:00:00 | 00:00:00 | |
| EA3GEO | 2026-09-02 23:14:13 | 41.36534 | 2.17760 | 113° | 24km/h | 5008m | 7.4m/s | 0°C | 0% | 0hPa | 0V | 00:00:00 | 00:00:00 | 00:00:00 | |
| EA3GEO | 2026-09-02 23:14:07 | 41.36533 | 2.17727 | 95° | 15km/h | 4969m | 6.3m/s | 0°C | 0% | 0hPa | 0V | 00:00:00 | 00:00:00 | 00:00:00 | |
| EA3GEO | 2026-09-02 23:14:01 | 41.36546 | 2.17681 | 104° | 29km/h | 4935m | 5.4m/s | 0°C | 0% | 0hPa | 0V | 00:00:00 | 00:00:00 | 00:00:00 | |
| EA3GEO | 2026-09-02 23:13:55 | 41.36564 | 2.17625 | 147° | 24km/h | 4909m | 4.0m/s | 0°C | 0% | 0hPa | 0V | 00:00:00 | 00:00:00 | 00:00:00 | |
| EA3GEO | 2026-09-02 23:13:50 | 41.36579 | 2.17595 | 108° | 18km/h | 4880m | 6.6m/s | 0°C | 0% | 0hPa | 0V | 00:00:00 | 00:00:00 | 00:00:00 | |
| EA3GEO | 2026-09-02 23:13:44 | 41.36586 | 2.17570 | 86° | 16km/h | 4852m | 4.4m/s | 0°C | 0% | 0hPa | 0V | 00:00:00 | 00:00:00 | 00:00:00 | |
| EA3GEO | 2026-09-02 23:13:39 | 41.36595 | 2.17515 | 114° | 35km/h | 4820m | 7.6m/s | 0°C | 0% | 0hPa | 0V | 00:00:00 | 00:00:00 | 00:00:00 | |
| EA3GEO | 2026-09-02 23:13:33 | 41.36612 | 2.17468 | 109° | 27km/h | 4774m | 5.0m/s | 0°C | 0% | 0hPa | 0V | 00:00:00 | 00:00:00 | 00:00:00 | |
| EA3GEO | 2026-09-02 23:13:28 | 41.36632 | 2.17416 | 125° | 46km/h | 4750m | 3.4m/s | 0°C | 0% | 0hPa | 0V | 00:00:00 | 00:00:00 | 00:00:00 | |
| EA3GEO | 2026-09-02 23:13:22 | 41.36656 | 2.17366 | 95° | 15km/h | 4710m | 7.6m/s | 0°C | 0% | 0hPa | 0V | 00:00:00 | 00:00:00 | 00:00:00 | |
| EA3GEO | 2026-09-02 23:13:16 | 41.36677 | 2.17316 | 149° | 37km/h | 4667m | 5.9m/s | 0°C | 0% | 0hPa | 0V | 00:00:00 | 00:00:00 | 00:00:00 | |
| EA3GEO | 2026-09-02 23:13:10 | 41.36712 | 2.17293 | 120° | 27km/h | 4632m | 6.2m/s | 0°C | 0% | 0hPa | 0V | 00:00:00 | 00:00:00 | 00:00:00 | |
| EA3GEO | 2026-09-02 23:13:04 | 41.36738 | 2.17230 | 141° | 24km/h | 4588m | 6.5m/s | 0°C | 0% | 0hPa | 0V | 00:00:00 | 00:00:00 | 00:00:00 | |
| EA3GEO | 2026-09-02 23:12:58 | 41.36781 | 2.17195 | 133° | 24km/h | 4544m | 5.7m/s | 0°C | 0% | 0hPa | 0V | 00:00:00 | 00:00:00 | 00:00:00 | |
| EA3GEO | 2026-09-02 23:12:53 | 41.36792 | 2.17144 | 99° | 26km/h | 4520m | 7.2m/s | 0°C | 0% | 0hPa | 0V | 00:00:00 | 00:00:00 | 00:00:00 | |
| EA3GEO | 2026-09-02 23:12:47 | 41.36816 | 2.17102 | 128° | 33km/h | 4477m | 8.9m/s | 0°C | 0% | 0hPa | 0V | 00:00:00 | 00:00:00 | 00:00:00 | |
| EA3GEO | 2026-09-02 23:12:42 | 41.36845 | 2.17053 | 131° | 47km/h | 4443m | 3.2m/s | 0°C | 0% | 0hPa | 0V | 00:00:00 | 00:00:00 | 00:00:00 | |
| EA3GEO | 2026-09-02 23:12:36 | 41.36881 | 2.16980 | 134° | 33km/h | 4402m | 8.0m/s | 0°C | 0% | 0hPa | 0V | 00:00:00 | 00:00:00 | 00:00:00 | |
| EA3GEO | 2026-09-02 23:12:30 | 41.36908 | 2.16924 | 113° | 38km/h | 4364m | 7.7m/s | 0°C | 0% | 0hPa | 0V | 00:00:00 | 00:00:00 | 00:00:00 | |
| EA3GEO | 2026-09-02 23:12:25 | 41.36921 | 2.16875 | 120° | 42km/h | 4335m | 5.6m/s | 0°C | 0% | 0hPa | 0V | 00:00:00 | 00:00:00 | 00:00:00 | |
| EA3GEO | 2026-09-02 23:12:19 | 41.36952 | 2.16799 | 115° | 49km/h | 4294m | 7.6m/s | 0°C | 0% | 0hPa | 0V | 00:00:00 | 00:00:00 | 00:00:00 | |
| EA3GEO | 2026-09-02 23:12:14 | 41.36979 | 2.16726 | 128° | 33km/h | 4265m | 4.8m/s | 0°C | 0% | 0hPa | 0V | 00:00:00 | 00:00:00 | 00:00:00 | |
| EA3GEO | 2026-09-02 23:12:08 | 41.37006 | 2.16665 | 105° | 42km/h | 4232m | 8.2m/s | 0°C | 0% | 0hPa | 0V | 00:00:00 | 00:00:00 | 00:00:00 | |
| EA3GEO | 2026-09-02 23:12:03 | 41.37024 | 2.16585 | 120° | 53km/h | 4198m | 5.2m/s | 0°C | 0% | 0hPa | 0V | 00:00:00 | 00:00:00 | 00:00:00 | |
| EA3GEO | 2026-09-02 23:11:57 | 41.37053 | 2.16521 | 134° | 40km/h | 4165m | 3.4m/s | 0°C | 0% | 0hPa | 0V | 00:00:00 | 00:00:00 | 00:00:00 | |
| EA3GEO | 2026-09-02 23:11:51 | 41.37072 | 2.16448 | 96° | 35km/h | 4129m | 3.9m/s | 0°C | 0% | 0hPa | 0V | 00:00:00 | 00:00:00 | 00:00:00 | |
| EA3GEO | 2026-09-02 23:11:45 | 41.37097 | 2.16357 | 124° | 49km/h | 4095m | 6.3m/s | 0°C | 0% | 0hPa | 0V | 00:00:00 | 00:00:00 | 00:00:00 | |
| EA3GEO | 2026-09-02 23:11:40 | 41.37108 | 2.16282 | 97° | 55km/h | 4058m | 3.8m/s | 0°C | 0% | 0hPa | 0V | 00:00:00 | 00:00:00 | 00:00:00 | |
| EA3GEO | 2026-09-02 23:11:35 | 41.37139 | 2.16203 | 130° | 42km/h | 4029m | 6.6m/s | 0°C | 0% | 0hPa | 0V | 00:00:00 | 00:00:00 | 00:00:00 | |
| EA3GEO | 2026-09-02 23:11:29 | 41.37161 | 2.16106 | 113° | 60km/h | 4001m | 3.4m/s | 0°C | 0% | 0hPa | 0V | 00:00:00 | 00:00:00 | 00:00:00 | |
| EA3GEO | 2026-09-02 23:11:23 | 41.37190 | 2.16029 | 105° | 49km/h | 3970m | 7.2m/s | 0°C | 0% | 0hPa | 0V | 00:00:00 | 00:00:00 | 00:00:00 | |
| EA3GEO | 2026-09-02 23:11:18 | 41.37219 | 2.15942 | 118° | 58km/h | 3932m | 6.3m/s | 0°C | 0% | 0hPa | 0V | 00:00:00 | 00:00:00 | 00:00:00 | |
| EA3GEO | 2026-09-02 23:11:12 | 41.37261 | 2.15858 | 116° | 51km/h | 3903m | 6.9m/s | 0°C | 0% | 0hPa | 0V | 00:00:00 | 00:00:00 | 00:00:00 | |
| EA3GEO | 2026-09-02 23:11:06 | 41.37299 | 2.15758 | 118° | 44km/h | 3868m | 3.0m/s | 0°C | 0% | 0hPa | 0V | 00:00:00 | 00:00:00 | 00:00:00 | |
| EA3GEO | 2026-09-02 23:11:01 | 41.37334 | 2.15694 | 127° | 47km/h | 3835m | 3.2m/s | 0°C | 0% | 0hPa | 0V | 00:00:00 | 00:00:00 | 00:00:00 | |
| EA3GEO | 2026-09-02 23:10:56 | 41.37358 | 2.15616 | 116° | 60km/h | 3804m | 8.3m/s | 0°C | 0% | 0hPa | 0V | 00:00:00 | 00:00:00 | 00:00:00 | |
| EA3GEO | 2026-09-02 23:10:50 | 41.37395 | 2.15495 | 122° | 57km/h | 3773m | 4.3m/s | 0°C | 0% | 0hPa | 0V | 00:00:00 | 00:00:00 | 00:00:00 | |
| EA3GEO | 2026-09-02 23:10:44 | 41.37429 | 2.15376 | 108° | 71km/h | 3739m | 8.1m/s | 0°C | 0% | 0hPa | 0V | 00:00:00 | 00:00:00 | 00:00:00 | |
| EA3GEO | 2026-09-02 23:10:39 | 41.37448 | 2.15267 | 100° | 55km/h | 3712m | 3.6m/s | 0°C | 0% | 0hPa | 0V | 00:00:00 | 00:00:00 | 00:00:00 | |
| EA3GEO | 2026-09-02 23:10:33 | 41.37468 | 2.15157 | 101° | 66km/h | 3680m | 5.2m/s | 0°C | 0% | 0hPa | 0V | 00:00:00 | 00:00:00 | 00:00:00 | |
| EA3GEO | 2026-09-02 23:10:27 | 41.37500 | 2.15063 | 127° | 53km/h | 3641m | 6.5m/s | 0°C | 0% | 0hPa | 0V | 00:00:00 | 00:00:00 | 00:00:00 | |
| EA3GEO | 2026-09-02 23:10:22 | 41.37536 | 2.14964 | 104° | 71km/h | 3613m | 4.7m/s | 0°C | 0% | 0hPa | 0V | 00:00:00 | 00:00:00 | 00:00:00 | |
| EA3GEO | 2026-09-02 23:10:16 | 41.37559 | 2.14852 | 111° | 58km/h | 3574m | 5.2m/s | 0°C | 0% | 0hPa | 0V | 00:00:00 | 00:00:00 | 00:00:00 | |
| EA3GEO | 2026-09-02 23:10:10 | 41.37571 | 2.14732 | 105° | 64km/h | 3540m | 6.6m/s | 0°C | 0% | 0hPa | 0V | 00:00:00 | 00:00:00 | 00:00:00 | |
| EA3GEO | 2026-09-02 23:10:04 | 41.37587 | 2.14602 | 97° | 49km/h | 3506m | 4.1m/s | 0°C | 0% | 0hPa | 0V | 00:00:00 | 00:00:00 | 00:00:00 | |
| EA3GEO | 2026-09-02 23:09:59 | 41.37612 | 2.14525 | 124° | 51km/h | 3481m | 3.4m/s | 0°C | 0% | 0hPa | 0V | 00:00:00 | 00:00:00 | 00:00:00 | |
| EA3GEO | 2026-09-02 23:09:53 | 41.37629 | 2.14404 | 107° | 75km/h | 3448m | 4.8m/s | 0°C | 0% | 0hPa | 0V | 00:00:00 | 00:00:00 | 00:00:00 | |
| EA3GEO | 2026-09-02 23:09:48 | 41.37646 | 2.14292 | 100° | 71km/h | 3419m | 4.9m/s | 0°C | 0% | 0hPa | 0V | 00:00:00 | 00:00:00 | 00:00:00 | |
| EA3GEO | 2026-09-02 23:09:42 | 41.37660 | 2.14190 | 109° | 49km/h | 3393m | 5.7m/s | 0°C | 0% | 0hPa | 0V | 00:00:00 | 00:00:00 | 00:00:00 | |
| EA3GEO | 2026-09-02 23:09:37 | 41.37689 | 2.14092 | 97° | 62km/h | 3364m | 7.3m/s | 0°C | 0% | 0hPa | 0V | 00:00:00 | 00:00:00 | 00:00:00 | |
| EA3GEO | 2026-09-02 23:09:32 | 41.37694 | 2.13998 | 100° | 73km/h | 3334m | 4.4m/s | 0°C | 0% | 0hPa | 0V | 00:00:00 | 00:00:00 | 00:00:00 | |
| EA3GEO | 2026-09-02 23:09:26 | 41.37723 | 2.13899 | 107° | 51km/h | 3297m | 5.7m/s | 0°C | 0% | 0hPa | 0V | 00:00:00 | 00:00:00 | 00:00:00 | |
| EA3GEO | 2026-09-02 23:09:21 | 41.37741 | 2.13799 | 113° | 60km/h | 3270m | 5.6m/s | 0°C | 0% | 0hPa | 0V | 00:00:00 | 00:00:00 | 00:00:00 | |
| EA3GEO | 2026-09-02 23:09:15 | 41.37760 | 2.13695 | 126° | 40km/h | 3232m | 5.8m/s | 0°C | 0% | 0hPa | 0V | 00:00:00 | 00:00:00 | 00:00:00 | |
| EA3GEO | 2026-09-02 23:09:09 | 41.37792 | 2.13586 | 95° | 60km/h | 3196m | 7.0m/s | 0°C | 0% | 0hPa | 0V | 00:00:00 | 00:00:00 | 00:00:00 | |
| EA3GEO | 2026-09-02 23:09:03 | 41.37821 | 2.13490 | 108° | 57km/h | 3166m | 4.6m/s | 0°C | 0% | 0hPa | 0V | 00:00:00 | 00:00:00 | 00:00:00 | |
| EA3GEO | 2026-09-02 23:08:58 | 41.37843 | 2.13414 | 128° | 60km/h | 3138m | 4.8m/s | 0°C | 0% | 0hPa | 0V | 00:00:00 | 00:00:00 | 00:00:00 | |
| EA3GEO | 2026-09-02 23:08:52 | 41.37880 | 2.13321 | 101° | 51km/h | 3100m | 3.8m/s | 0°C | 0% | 0hPa | 0V | 00:00:00 | 00:00:00 | 00:00:00 | |
| EA3GEO | 2026-09-02 23:08:46 | 41.37910 | 2.13233 | 116° | 42km/h | 3065m | 7.7m/s | 0°C | 0% | 0hPa | 0V | 00:00:00 | 00:00:00 | 00:00:00 | |
| EA3GEO | 2026-09-02 23:08:40 | 41.37939 | 2.13159 | 113° | 44km/h | 3029m | 4.8m/s | 0°C | 0% | 0hPa | 0V | 00:00:00 | 00:00:00 | 00:00:00 | |
| EA3GEO | 2026-09-02 23:08:35 | 41.37956 | 2.13088 | 116° | 33km/h | 3002m | 4.6m/s | 0°C | 0% | 0hPa | 0V | 00:00:00 | 00:00:00 | 00:00:00 | |
| EA3GEO | 2026-09-02 23:08:29 | 41.37997 | 2.13012 | 113° | 42km/h | 2962m | 4.8m/s | 0°C | 0% | 0hPa | 0V | 00:00:00 | 00:00:00 | 00:00:00 | |
| EA3GEO | 2026-09-02 23:08:23 | 41.38015 | 2.12941 | 103° | 42km/h | 2928m | 6.1m/s | 0°C | 0% | 0hPa | 0V | 00:00:00 | 00:00:00 | 00:00:00 | |
| EA3GEO | 2026-09-02 23:08:18 | 41.38044 | 2.12873 | 129° | 46km/h | 2897m | 7.1m/s | 0°C | 0% | 0hPa | 0V | 00:00:00 | 00:00:00 | 00:00:00 | |
| EA3GEO | 2026-09-02 23:08:12 | 41.38082 | 2.12804 | 127° | 47km/h | 2858m | 8.1m/s | 0°C | 0% | 0hPa | 0V | 00:00:00 | 00:00:00 | 00:00:00 | |
| EA3GEO | 2026-09-02 23:07:56 | 41.38195 | 2.12614 | 136° | 40km/h | 2764m | 7.7m/s | 0°C | 0% | 0hPa | 0V | 00:00:00 | 00:00:00 | 00:00:00 | |
| EA3GEO | 2026-09-02 23:07:51 | 41.38235 | 2.12566 | 122° | 58km/h | 2727m | 4.4m/s | 0°C | 0% | 0hPa | 0V | 00:00:00 | 00:00:00 | 00:00:00 | |
| EA3GEO | 2026-09-02 23:07:45 | 41.38282 | 2.12472 | 126° | 49km/h | 2698m | 5.2m/s | 0°C | 0% | 0hPa | 0V | 00:00:00 | 00:00:00 | 00:00:00 | |
| EA3GEO | 2026-09-02 23:07:40 | 41.38319 | 2.12420 | 133° | 51km/h | 2669m | 4.3m/s | 0°C | 0% | 0hPa | 0V | 00:00:00 | 00:00:00 | 00:00:00 | |
| EA3GEO | 2026-09-02 23:07:35 | 41.38350 | 2.12365 | 134° | 47km/h | 2637m | 5.8m/s | 0°C | 0% | 0hPa | 0V | 00:00:00 | 00:00:00 | 00:00:00 | |
| EA3GEO | 2026-09-02 23:07:28 | 41.38394 | 2.12285 | 117° | 38km/h | 2594m | 7.5m/s | 0°C | 0% | 0hPa | 0V | 00:00:00 | 00:00:00 | 00:00:00 | |
| EA3GEO | 2026-09-02 23:07:23 | 41.38418 | 2.12238 | 118° | 44km/h | 2564m | 7.1m/s | 0°C | 0% | 0hPa | 0V | 00:00:00 | 00:00:00 | 00:00:00 | |
| EA3GEO | 2026-09-02 23:07:17 | 41.38447 | 2.12185 | 125° | 46km/h | 2533m | 4.0m/s | 0°C | 0% | 0hPa | 0V | 00:00:00 | 00:00:00 | 00:00:00 | |
| EA3GEO | 2026-09-02 23:07:11 | 41.38476 | 2.12123 | 127° | 44km/h | 2501m | 5.8m/s | 0°C | 0% | 0hPa | 0V | 00:00:00 | 00:00:00 | 00:00:00 | |
| EA3GEO | 2026-09-02 23:07:06 | 41.38488 | 2.12078 | 127° | 26km/h | 2471m | 6.8m/s | 0°C | 0% | 0hPa | 0V | 00:00:00 | 00:00:00 | 00:00:00 | |
| EA3GEO | 2026-09-02 23:07:01 | 41.38522 | 2.12034 | 137° | 29km/h | 2434m | 5.7m/s | 0°C | 0% | 0hPa | 0V | 00:00:00 | 00:00:00 | 00:00:00 | |
| EA3GEO | 2026-09-02 23:06:55 | 41.38548 | 2.11981 | 146° | 33km/h | 2397m | 6.5m/s | 0°C | 0% | 0hPa | 0V | 00:00:00 | 00:00:00 | 00:00:00 | |
| EA3GEO | 2026-09-02 23:06:49 | 41.38572 | 2.11930 | 131° | 27km/h | 2363m | 4.8m/s | 0°C | 0% | 0hPa | 0V | 00:00:00 | 00:00:00 | 00:00:00 | |
| EA3GEO | 2026-09-02 23:06:44 | 41.38589 | 2.11888 | 125° | 37km/h | 2339m | 6.1m/s | 0°C | 0% | 0hPa | 0V | 00:00:00 | 00:00:00 | 00:00:00 | |
| EA3GEO | 2026-09-02 23:06:38 | 41.38603 | 2.11833 | 121° | 27km/h | 2300m | 5.2m/s | 0°C | 0% | 0hPa | 0V | 00:00:00 | 00:00:00 | 00:00:00 | |
| EA3GEO | 2026-09-02 23:06:32 | 41.38617 | 2.11782 | 106° | 44km/h | 2264m | 5.4m/s | 0°C | 0% | 0hPa | 0V | 00:00:00 | 00:00:00 | 00:00:00 | |
| EA3GEO | 2026-09-02 23:06:27 | 41.38626 | 2.11743 | 101° | 29km/h | 2239m | 3.8m/s | 0°C | 0% | 0hPa | 0V | 00:00:00 | 00:00:00 | 00:00:00 | |
| EA3GEO | 2026-09-02 23:06:22 | 41.38632 | 2.11683 | 106° | 31km/h | 2200m | 7.1m/s | 0°C | 0% | 0hPa | 0V | 00:00:00 | 00:00:00 | 00:00:00 | |
| EA3GEO | 2026-09-02 23:06:15 | 41.38639 | 2.11649 | 120° | 26km/h | 2166m | 4.7m/s | 0°C | 0% | 0hPa | 0V | 00:00:00 | 00:00:00 | 00:00:00 | |
| EA3GEO | 2026-09-02 23:06:09 | 41.38641 | 2.11600 | 67° | 16km/h | 2131m | 4.9m/s | 0°C | 0% | 0hPa | 0V | 00:00:00 | 00:00:00 | 00:00:00 | |
| EA3GEO | 2026-09-02 23:06:04 | 41.38638 | 2.11562 | 69° | 13km/h | 2106m | 5.0m/s | 0°C | 0% | 0hPa | 0V | 00:00:00 | 00:00:00 | 00:00:00 | |
| EA3GEO | 2026-09-02 23:05:59 | 41.38639 | 2.11526 | 123° | 16km/h | 2078m | 6.4m/s | 0°C | 0% | 0hPa | 0V | 00:00:00 | 00:00:00 | 00:00:00 | |
| EA3GEO | 2026-09-02 23:05:53 | 41.38633 | 2.11508 | 74° | 15km/h | 2047m | 4.2m/s | 0°C | 0% | 0hPa | 0V | 00:00:00 | 00:00:00 | 00:00:00 | |
| EA3GEO | 2026-09-02 23:05:47 | 41.38627 | 2.11462 | 93° | 29km/h | 2013m | 4.6m/s | 0°C | 0% | 0hPa | 0V | 00:00:00 | 00:00:00 | 00:00:00 | |
| EA3GEO | 2026-09-02 23:05:42 | 41.38636 | 2.11429 | 120° | 22km/h | 1983m | 6.8m/s | 0°C | 0% | 0hPa | 0V | 00:00:00 | 00:00:00 | 00:00:00 | |
| EA3GEO | 2026-09-02 23:05:36 | 41.38637 | 2.11396 | 119° | 18km/h | 1947m | 3.4m/s | 0°C | 0% | 0hPa | 0V | 00:00:00 | 00:00:00 | 00:00:00 | |
| EA3GEO | 2026-09-02 23:05:30 | 41.38638 | 2.11376 | 127° | 16km/h | 1913m | 5.8m/s | 0°C | 0% | 0hPa | 0V | 00:00:00 | 00:00:00 | 00:00:00 | |
| EA3GEO | 2026-09-02 23:05:25 | 41.38644 | 2.11358 | 134° | 15km/h | 1884m | 6.4m/s | 0°C | 0% | 0hPa | 0V | 00:00:00 | 00:00:00 | 00:00:00 | |
| EA3GEO | 2026-09-02 23:05:20 | 41.38647 | 2.11333 | 112° | 5km/h | 1854m | 5.2m/s | 0°C | 0% | 0hPa | 0V | 00:00:00 | 00:00:00 | 00:00:00 | |
| EA3GEO | 2026-09-02 23:05:14 | 41.38648 | 2.11310 | 124° | 9km/h | 1824m | 6.8m/s | 0°C | 0% | 0hPa | 0V | 00:00:00 | 00:00:00 | 00:00:00 | |
| EA3GEO | 2026-09-02 23:05:09 | 41.38658 | 2.11286 | 115° | 13km/h | 1791m | 6.7m/s | 0°C | 0% | 0hPa | 0V | 00:00:00 | 00:00:00 | 00:00:00 | |
| EA3GEO | 2026-09-02 23:05:03 | 41.38662 | 2.11256 | 105° | 22km/h | 1752m | 5.3m/s | 0°C | 0% | 0hPa | 0V | 00:00:00 | 00:00:00 | 00:00:00 | |
| EA3GEO | 2026-09-02 23:04:57 | 41.38678 | 2.11228 | 130° | 22km/h | 1716m | 4.7m/s | 0°C | 0% | 0hPa | 0V | 00:00:00 | 00:00:00 | 00:00:00 | |
| EA3GEO | 2026-09-02 23:04:51 | 41.38685 | 2.11204 | 88° | 16km/h | 1682m | 6.3m/s | 0°C | 0% | 0hPa | 0V | 00:00:00 | 00:00:00 | 00:00:00 | |
| EA3GEO | 2026-09-02 23:04:46 | 41.38694 | 2.11183 | 106° | 13km/h | 1653m | 6.6m/s | 0°C | 0% | 0hPa | 0V | 00:00:00 | 00:00:00 | 00:00:00 | |
| EA3GEO | 2026-09-02 23:04:41 | 41.38698 | 2.11163 | 47° | 11km/h | 1626m | 5.7m/s | 0°C | 0% | 0hPa | 0V | 00:00:00 | 00:00:00 | 00:00:00 | |
| EA3GEO | 2026-09-02 23:04:36 | 41.38698 | 2.11146 | 36° | 15km/h | 1595m | 6.7m/s | 0°C | 0% | 0hPa | 0V | 00:00:00 | 00:00:00 | 00:00:00 | |
| EA3GEO | 2026-09-02 23:04:30 | 41.38703 | 2.11128 | 106° | 13km/h | 1563m | 5.5m/s | 0°C | 0% | 0hPa | 0V | 00:00:00 | 00:00:00 | 00:00:00 | |
| EA3GEO | 2026-09-02 23:04:25 | 41.38703 | 2.11102 | 43° | 15km/h | 1536m | 5.2m/s | 0°C | 0% | 0hPa | 0V | 00:00:00 | 00:00:00 | 00:00:00 | |
| EA3GEO | 2026-09-02 23:04:19 | 41.38707 | 2.11090 | 111° | 13km/h | 1499m | 4.9m/s | 0°C | 0% | 0hPa | 0V | 00:00:00 | 00:00:00 | 00:00:00 | |
| EA3GEO | 2026-09-02 23:04:13 | 41.38701 | 2.11078 | 291° | 4km/h | 1466m | 4.1m/s | 0°C | 0% | 0hPa | 0V | 00:00:00 | 00:00:00 | 00:00:00 | |
| EA3GEO | 2026-09-02 23:04:07 | 41.38695 | 2.11070 | 36° | 9km/h | 1431m | 6.6m/s | 0°C | 0% | 0hPa | 0V | 00:00:00 | 00:00:00 | 00:00:00 | |
| EA3GEO | 2026-09-02 23:04:01 | 41.38693 | 2.11065 | 197° | 7km/h | 1397m | 7.3m/s | 0°C | 0% | 0hPa | 0V | 00:00:00 | 00:00:00 | 00:00:00 | |
| EA3GEO | 2026-09-02 23:03:49 | 41.38695 | 2.11086 | 285° | 7km/h | 1328m | 4.5m/s | 0°C | 0% | 0hPa | 0V | 00:00:00 | 00:00:00 | 00:00:00 | |
| EA3GEO | 2026-09-02 23:03:44 | 41.38693 | 2.11105 | 271° | 5km/h | 1299m | 6.9m/s | 0°C | 0% | 0hPa | 0V | 00:00:00 | 00:00:00 | 00:00:00 | |
| EA3GEO | 2026-09-02 23:03:38 | 41.38707 | 2.11125 | 218° | 11km/h | 1268m | 5.5m/s | 0°C | 0% | 0hPa | 0V | 00:00:00 | 00:00:00 | 00:00:00 | |
| EA3GEO | 2026-09-02 23:03:33 | 41.38709 | 2.11141 | 243° | 22km/h | 1239m | 7.8m/s | 0°C | 0% | 0hPa | 0V | 00:00:00 | 00:00:00 | 00:00:00 | |
| EA3GEO | 2026-09-02 23:03:28 | 41.38708 | 2.11164 | 232° | 4km/h | 1209m | 5.8m/s | 0°C | 0% | 0hPa | 0V | 00:00:00 | 00:00:00 | 00:00:00 | |
| EA3GEO | 2026-09-02 23:03:22 | 41.38718 | 2.11181 | 316° | 15km/h | 1177m | 5.6m/s | 0°C | 0% | 0hPa | 0V | 00:00:00 | 00:00:00 | 00:00:00 | |
| EA3GEO | 2026-09-02 23:03:16 | 41.38715 | 2.11200 | 250° | 20km/h | 1142m | 7.2m/s | 0°C | 0% | 0hPa | 0V | 00:00:00 | 00:00:00 | 00:00:00 | |
| EA3GEO | 2026-09-02 23:03:11 | 41.38711 | 2.11217 | 317° | 26km/h | 1113m | 5.1m/s | 0°C | 0% | 0hPa | 0V | 00:00:00 | 00:00:00 | 00:00:00 | |
| EA3GEO | 2026-09-02 23:03:05 | 41.38693 | 2.11242 | 323° | 20km/h | 1080m | 6.8m/s | 0°C | 0% | 0hPa | 0V | 00:00:00 | 00:00:00 | 00:00:00 | |
| EA3GEO | 2026-09-02 23:03:00 | 41.38681 | 2.11257 | 308° | 16km/h | 1051m | 6.6m/s | 0°C | 0% | 0hPa | 0V | 00:00:00 | 00:00:00 | 00:00:00 | |
| EA3GEO | 2026-09-02 23:02:55 | 41.38667 | 2.11269 | 286° | 22km/h | 1024m | 4.5m/s | 0°C | 0% | 0hPa | 0V | 00:00:00 | 00:00:00 | 00:00:00 | |
| EA3GEO | 2026-09-02 23:02:49 | 41.38652 | 2.11310 | 319° | 27km/h | 989m | 8.4m/s | 0°C | 0% | 0hPa | 0V | 00:00:00 | 00:00:00 | 00:00:00 | |
| EA3GEO | 2026-09-02 23:02:43 | 41.38625 | 2.11345 | 295° | 31km/h | 953m | 6.5m/s | 0°C | 0% | 0hPa | 0V | 00:00:00 | 00:00:00 | 00:00:00 | |
| EA3GEO | 2026-09-02 23:02:38 | 41.38607 | 2.11379 | 301° | 31km/h | 925m | 5.5m/s | 0°C | 0% | 0hPa | 0V | 00:00:00 | 00:00:00 | 00:00:00 | |
| EA3GEO | 2026-09-02 23:02:33 | 41.38595 | 2.11427 | 294° | 31km/h | 896m | 4.3m/s | 0°C | 0% | 0hPa | 0V | 00:00:00 | 00:00:00 | 00:00:00 | |
| EA3GEO | 2026-09-02 23:02:27 | 41.38578 | 2.11465 | 312° | 22km/h | 861m | 8.4m/s | 0°C | 0% | 0hPa | 0V | 00:00:00 | 00:00:00 | 00:00:00 | |
| EA3GEO | 2026-09-02 23:02:21 | 41.38560 | 2.11506 | 321° | 20km/h | 830m | 3.8m/s | 0°C | 0% | 0hPa | 0V | 00:00:00 | 00:00:00 | 00:00:00 | |
| EA3GEO | 2026-09-02 23:02:10 | 41.38540 | 2.11566 | 316° | 24km/h | 770m | 6.7m/s | 0°C | 0% | 0hPa | 0V | 00:00:00 | 00:00:00 | 00:00:00 | |
| EA3GEO | 2026-09-02 23:02:04 | 41.38526 | 2.11597 | 309° | 20km/h | 733m | 6.2m/s | 0°C | 0% | 0hPa | 0V | 00:00:00 | 00:00:00 | 00:00:00 | |
| EA3GEO | 2026-09-02 23:01:59 | 41.38519 | 2.11615 | 304° | 24km/h | 701m | 6.5m/s | 0°C | 0% | 0hPa | 0V | 00:00:00 | 00:00:00 | 00:00:00 | |
| EA3GEO | 2026-09-02 23:01:54 | 41.38508 | 2.11636 | 321° | 13km/h | 671m | 7.0m/s | 0°C | 0% | 0hPa | 0V | 00:00:00 | 00:00:00 | 00:00:00 | |
| EA3GEO | 2026-09-02 23:01:47 | 41.38508 | 2.11647 | 247° | 9km/h | 631m | 5.5m/s | 0°C | 0% | 0hPa | 0V | 00:00:00 | 00:00:00 | 00:00:00 | |
| EA3GEO | 2026-09-02 23:01:42 | 41.38506 | 2.11660 | 0° | 0km/h | 603m | 3.8m/s | 0°C | 0% | 0hPa | 0V | 00:00:00 | 00:00:00 | 00:00:00 | |
| EA3GEO | 2026-09-02 23:01:36 | 41.38497 | 2.11670 | 354° | 9km/h | 571m | 7.9m/s | 0°C | 0% | 0hPa | 0V | 00:00:00 | 00:00:00 | 00:00:00 | |
| EA3GEO | 2026-09-02 23:01:31 | 41.38480 | 2.11678 | 298° | 9km/h | 540m | 7.4m/s | 0°C | 0% | 0hPa | 0V | 00:00:00 | 00:00:00 | 00:00:00 | |
| EA3GEO | 2026-09-02 23:01:26 | 41.38469 | 2.11694 | 277° | 13km/h | 509m | 5.3m/s | 0°C | 0% | 0hPa | 0V | 00:00:00 | 00:00:00 | 00:00:00 | |
| EA3GEO | 2026-09-02 23:01:21 | 41.38468 | 2.11700 | 261° | 9km/h | 481m | 6.1m/s | 0°C | 0% | 0hPa | 0V | 00:00:00 | 00:00:00 | 00:00:00 | |
| EA3GEO | 2026-09-02 23:01:15 | 41.38458 | 2.11715 | 291° | 15km/h | 446m | 5.5m/s | 0°C | 0% | 0hPa | 0V | 00:00:00 | 00:00:00 | 00:00:00 | |
| EA3GEO | 2026-09-02 23:01:10 | 41.38451 | 2.11725 | 334° | 4km/h | 418m | 5.9m/s | 0°C | 0% | 0hPa | 0V | 00:00:00 | 00:00:00 | 00:00:00 | |
| EA3GEO | 2026-09-02 23:01:05 | 41.38443 | 2.11732 | 30° | 7km/h | 392m | 6.3m/s | 0°C | 0% | 0hPa | 0V | 00:00:00 | 00:00:00 | 00:00:00 | |
| EA3GEO | 2026-09-02 23:01:00 | 41.38445 | 2.11741 | 153° | 11km/h | 365m | 3.6m/s | 0°C | 0% | 0hPa | 0V | 00:00:00 | 00:00:00 | 00:00:00 | |
| EA3GEO | 2026-09-02 23:00:54 | 41.38432 | 2.11747 | 35° | 13km/h | 335m | 3.9m/s | 0°C | 0% | 0hPa | 0V | 00:00:00 | 00:00:00 | 00:00:00 | |
| EA3GEO | 2026-09-02 23:00:49 | 41.38436 | 2.11747 | 192° | 2km/h | 309m | 6.2m/s | 0°C | 0% | 0hPa | 0V | 00:00:00 | 00:00:00 | 00:00:00 | |
| EA3GEO | 2026-09-02 23:00:43 | 41.38437 | 2.11753 | 153° | 4km/h | 277m | 5.6m/s | 0°C | 0% | 0hPa | 0V | 00:00:00 | 00:00:00 | 00:00:00 | |
| EA3GEO | 2026-09-02 23:00:38 | 41.38447 | 2.11749 | 66° | 5km/h | 249m | 3.9m/s | 0°C | 0% | 0hPa | 0V | 00:00:00 | 00:00:00 | 00:00:00 | |
| EA3GEO | 2026-09-02 23:00:32 | 41.38445 | 2.11749 | 55° | 24km/h | 218m | 3.3m/s | 0°C | 0% | 0hPa | 0V | 00:00:00 | 00:00:00 | 00:00:00 | |
| EA3GEO | 2026-09-02 23:00:25 | 41.38440 | 2.11753 | 309° | 20km/h | 171m | 4.3m/s | 0°C | 0% | 0hPa | 0V | 00:00:00 | 00:00:00 | 00:00:00 |